<?xml version="1.0" encoding="UTF-8" standalone="no" ?>
<gpx xmlns="http://www.topografix.com/GPX/1/1" xmlns:xsi="http://www.w3.org/2001/XMLSchema-instance" xsi:schemaLocation="http://www.topografix.com/GPX/1/1 http://www.topografix.com/GPX/1/1/gpx.xsd" version="1.1" creator="VisuGPX - https://www.visugpx.com">
  <metadata>
    <name>Col Rabou</name>
    <desc><![CDATA[aucune difficulté si ce n'est troupeau et patou
belles vues sur plateau de Bure à la descente
]]></desc>
  </metadata>
  <trk>
    <name><![CDATA[2020-06-25-CGP-xYYY-01-col Rabou]]></name>
    <desc><![CDATA[aucune difficulté si ce n'est troupeau et patou
belles vues sur plateau de Bure à la descente
]]></desc>
    <trkseg>
      <trkpt lat="44.66805" lon="5.95115">
        <ele>1357</ele>
        <time>2020-06-25T06:48:17Z</time>
      </trkpt>
      <trkpt lat="44.66802" lon="5.95117">
        <ele>1353.7</ele>
        <time>2020-06-25T06:48:19Z</time>
      </trkpt>
      <trkpt lat="44.66798" lon="5.95117">
        <ele>1353.6</ele>
        <time>2020-06-25T06:48:23Z</time>
      </trkpt>
      <trkpt lat="44.66793" lon="5.95118">
        <ele>1335</ele>
        <time>2020-06-25T06:48:27Z</time>
      </trkpt>
      <trkpt lat="44.6679" lon="5.9512">
        <ele>1335</ele>
        <time>2020-06-25T06:48:30Z</time>
      </trkpt>
      <trkpt lat="44.66785" lon="5.95122">
        <ele>1335</ele>
        <time>2020-06-25T06:48:33Z</time>
      </trkpt>
      <trkpt lat="44.66782" lon="5.95125">
        <ele>1335</ele>
        <time>2020-06-25T06:48:37Z</time>
      </trkpt>
      <trkpt lat="44.66777" lon="5.95127">
        <ele>1335</ele>
        <time>2020-06-25T06:48:41Z</time>
      </trkpt>
      <trkpt lat="44.66773" lon="5.95128">
        <ele>1335</ele>
        <time>2020-06-25T06:48:45Z</time>
      </trkpt>
      <trkpt lat="44.6677" lon="5.9513">
        <ele>1335</ele>
        <time>2020-06-25T06:48:54Z</time>
      </trkpt>
      <trkpt lat="44.66767" lon="5.95132">
        <ele>1335</ele>
        <time>2020-06-25T06:49:00Z</time>
      </trkpt>
      <trkpt lat="44.66762" lon="5.95133">
        <ele>1335</ele>
        <time>2020-06-25T06:49:04Z</time>
      </trkpt>
      <trkpt lat="44.6676" lon="5.95135">
        <ele>1335</ele>
        <time>2020-06-25T06:49:07Z</time>
      </trkpt>
      <trkpt lat="44.66755" lon="5.95137">
        <ele>1335</ele>
        <time>2020-06-25T06:49:11Z</time>
      </trkpt>
      <trkpt lat="44.66752" lon="5.9514">
        <ele>1335</ele>
        <time>2020-06-25T06:49:15Z</time>
      </trkpt>
      <trkpt lat="44.66748" lon="5.95142">
        <ele>1335</ele>
        <time>2020-06-25T06:49:19Z</time>
      </trkpt>
      <trkpt lat="44.66743" lon="5.95143">
        <ele>1335</ele>
        <time>2020-06-25T06:49:23Z</time>
      </trkpt>
      <trkpt lat="44.6674" lon="5.95145">
        <ele>1335</ele>
        <time>2020-06-25T06:49:27Z</time>
      </trkpt>
      <trkpt lat="44.66737" lon="5.95147">
        <ele>1335</ele>
        <time>2020-06-25T06:49:31Z</time>
      </trkpt>
      <trkpt lat="44.66733" lon="5.9515">
        <ele>1335</ele>
        <time>2020-06-25T06:49:35Z</time>
      </trkpt>
      <trkpt lat="44.66728" lon="5.95152">
        <ele>1335</ele>
        <time>2020-06-25T06:49:39Z</time>
      </trkpt>
      <trkpt lat="44.66725" lon="5.95153">
        <ele>1335</ele>
        <time>2020-06-25T06:49:43Z</time>
      </trkpt>
      <trkpt lat="44.66722" lon="5.95155">
        <ele>1335</ele>
        <time>2020-06-25T06:49:47Z</time>
      </trkpt>
      <trkpt lat="44.66718" lon="5.95157">
        <ele>1335</ele>
        <time>2020-06-25T06:49:51Z</time>
      </trkpt>
      <trkpt lat="44.66715" lon="5.95158">
        <ele>1335</ele>
        <time>2020-06-25T06:49:55Z</time>
      </trkpt>
      <trkpt lat="44.6671" lon="5.9516">
        <ele>1335</ele>
        <time>2020-06-25T06:49:59Z</time>
      </trkpt>
      <trkpt lat="44.66707" lon="5.95163">
        <ele>1335</ele>
        <time>2020-06-25T06:50:03Z</time>
      </trkpt>
      <trkpt lat="44.66703" lon="5.95165">
        <ele>1335</ele>
        <time>2020-06-25T06:50:07Z</time>
      </trkpt>
      <trkpt lat="44.667" lon="5.95167">
        <ele>1335</ele>
        <time>2020-06-25T06:50:12Z</time>
      </trkpt>
      <trkpt lat="44.66695" lon="5.95168">
        <ele>1335</ele>
        <time>2020-06-25T06:50:16Z</time>
      </trkpt>
      <trkpt lat="44.66692" lon="5.9517">
        <ele>1335</ele>
        <time>2020-06-25T06:50:20Z</time>
      </trkpt>
      <trkpt lat="44.66688" lon="5.9517">
        <ele>1335</ele>
        <time>2020-06-25T06:50:24Z</time>
      </trkpt>
      <trkpt lat="44.66683" lon="5.95172">
        <ele>1335</ele>
        <time>2020-06-25T06:50:28Z</time>
      </trkpt>
      <trkpt lat="44.6668" lon="5.9517">
        <ele>1335</ele>
        <time>2020-06-25T06:50:32Z</time>
      </trkpt>
      <trkpt lat="44.66675" lon="5.9517">
        <ele>1335</ele>
        <time>2020-06-25T06:50:36Z</time>
      </trkpt>
      <trkpt lat="44.6667" lon="5.95168">
        <ele>1335</ele>
        <time>2020-06-25T06:50:40Z</time>
      </trkpt>
      <trkpt lat="44.66667" lon="5.95168">
        <ele>1335</ele>
        <time>2020-06-25T06:50:44Z</time>
      </trkpt>
      <trkpt lat="44.66663" lon="5.95167">
        <ele>1335</ele>
        <time>2020-06-25T06:50:47Z</time>
      </trkpt>
      <trkpt lat="44.66658" lon="5.95167">
        <ele>1335</ele>
        <time>2020-06-25T06:50:52Z</time>
      </trkpt>
      <trkpt lat="44.66655" lon="5.95165">
        <ele>1335</ele>
        <time>2020-06-25T06:50:56Z</time>
      </trkpt>
      <trkpt lat="44.66652" lon="5.95165">
        <ele>1337</ele>
        <time>2020-06-25T06:51:00Z</time>
      </trkpt>
      <trkpt lat="44.66647" lon="5.95165">
        <ele>1339</ele>
        <time>2020-06-25T06:51:04Z</time>
      </trkpt>
      <trkpt lat="44.66643" lon="5.95165">
        <ele>1340</ele>
        <time>2020-06-25T06:51:09Z</time>
      </trkpt>
      <trkpt lat="44.66633" lon="5.95165">
        <ele>1341</ele>
        <time>2020-06-25T06:51:18Z</time>
      </trkpt>
      <trkpt lat="44.66625" lon="5.95165">
        <ele>1341</ele>
        <time>2020-06-25T06:51:29Z</time>
      </trkpt>
      <trkpt lat="44.66615" lon="5.95168">
        <ele>1341</ele>
        <time>2020-06-25T06:51:39Z</time>
      </trkpt>
      <trkpt lat="44.66607" lon="5.95177">
        <ele>1342</ele>
        <time>2020-06-25T06:51:49Z</time>
      </trkpt>
      <trkpt lat="44.66598" lon="5.95182">
        <ele>1343</ele>
        <time>2020-06-25T06:52:04Z</time>
      </trkpt>
      <trkpt lat="44.6659" lon="5.9519">
        <ele>1344</ele>
        <time>2020-06-25T06:52:14Z</time>
      </trkpt>
      <trkpt lat="44.66583" lon="5.952">
        <ele>1346</ele>
        <time>2020-06-25T06:52:25Z</time>
      </trkpt>
      <trkpt lat="44.66578" lon="5.95208">
        <ele>1346</ele>
        <time>2020-06-25T06:52:36Z</time>
      </trkpt>
      <trkpt lat="44.66572" lon="5.9522">
        <ele>1347</ele>
        <time>2020-06-25T06:52:47Z</time>
      </trkpt>
      <trkpt lat="44.66568" lon="5.95232">
        <ele>1348</ele>
        <time>2020-06-25T06:52:59Z</time>
      </trkpt>
      <trkpt lat="44.66563" lon="5.95242">
        <ele>1349</ele>
        <time>2020-06-25T06:53:09Z</time>
      </trkpt>
      <trkpt lat="44.66558" lon="5.95255">
        <ele>1350</ele>
        <time>2020-06-25T06:53:19Z</time>
      </trkpt>
      <trkpt lat="44.66553" lon="5.95265">
        <ele>1351</ele>
        <time>2020-06-25T06:53:28Z</time>
      </trkpt>
      <trkpt lat="44.66545" lon="5.95273">
        <ele>1351</ele>
        <time>2020-06-25T06:53:37Z</time>
      </trkpt>
      <trkpt lat="44.6654" lon="5.95282">
        <ele>1353</ele>
        <time>2020-06-25T06:53:48Z</time>
      </trkpt>
      <trkpt lat="44.66535" lon="5.95295">
        <ele>1353</ele>
        <time>2020-06-25T06:53:59Z</time>
      </trkpt>
      <trkpt lat="44.6653" lon="5.95305">
        <ele>1353</ele>
        <time>2020-06-25T06:54:09Z</time>
      </trkpt>
      <trkpt lat="44.66523" lon="5.95315">
        <ele>1353</ele>
        <time>2020-06-25T06:54:20Z</time>
      </trkpt>
      <trkpt lat="44.66517" lon="5.95325">
        <ele>1354</ele>
        <time>2020-06-25T06:54:30Z</time>
      </trkpt>
      <trkpt lat="44.66512" lon="5.95335">
        <ele>1355</ele>
        <time>2020-06-25T06:54:38Z</time>
      </trkpt>
      <trkpt lat="44.66505" lon="5.95347">
        <ele>1356</ele>
        <time>2020-06-25T06:54:49Z</time>
      </trkpt>
      <trkpt lat="44.665" lon="5.95357">
        <ele>1356</ele>
        <time>2020-06-25T06:54:57Z</time>
      </trkpt>
      <trkpt lat="44.66493" lon="5.95367">
        <ele>1358</ele>
        <time>2020-06-25T06:55:05Z</time>
      </trkpt>
      <trkpt lat="44.6649" lon="5.95378">
        <ele>1358</ele>
        <time>2020-06-25T06:55:14Z</time>
      </trkpt>
      <trkpt lat="44.66485" lon="5.95392">
        <ele>1360</ele>
        <time>2020-06-25T06:55:25Z</time>
      </trkpt>
      <trkpt lat="44.6648" lon="5.95402">
        <ele>1360</ele>
        <time>2020-06-25T06:55:34Z</time>
      </trkpt>
      <trkpt lat="44.66475" lon="5.95413">
        <ele>1361</ele>
        <time>2020-06-25T06:55:45Z</time>
      </trkpt>
      <trkpt lat="44.6647" lon="5.95425">
        <ele>1363</ele>
        <time>2020-06-25T06:55:56Z</time>
      </trkpt>
      <trkpt lat="44.66465" lon="5.95435">
        <ele>1363</ele>
        <time>2020-06-25T06:56:07Z</time>
      </trkpt>
      <trkpt lat="44.6646" lon="5.95447">
        <ele>1363</ele>
        <time>2020-06-25T06:56:16Z</time>
      </trkpt>
      <trkpt lat="44.66457" lon="5.95458">
        <ele>1365</ele>
        <time>2020-06-25T06:56:27Z</time>
      </trkpt>
      <trkpt lat="44.66452" lon="5.9547">
        <ele>1366</ele>
        <time>2020-06-25T06:56:36Z</time>
      </trkpt>
      <trkpt lat="44.66448" lon="5.95482">
        <ele>1366</ele>
        <time>2020-06-25T06:56:46Z</time>
      </trkpt>
      <trkpt lat="44.66445" lon="5.95493">
        <ele>1368</ele>
        <time>2020-06-25T06:56:57Z</time>
      </trkpt>
      <trkpt lat="44.6644" lon="5.95505">
        <ele>1369</ele>
        <time>2020-06-25T06:57:08Z</time>
      </trkpt>
      <trkpt lat="44.66437" lon="5.95517">
        <ele>1369</ele>
        <time>2020-06-25T06:57:20Z</time>
      </trkpt>
      <trkpt lat="44.6643" lon="5.95527">
        <ele>1370</ele>
        <time>2020-06-25T06:57:30Z</time>
      </trkpt>
      <trkpt lat="44.66425" lon="5.95537">
        <ele>1371</ele>
        <time>2020-06-25T06:57:39Z</time>
      </trkpt>
      <trkpt lat="44.66418" lon="5.95545">
        <ele>1372</ele>
        <time>2020-06-25T06:57:51Z</time>
      </trkpt>
      <trkpt lat="44.6641" lon="5.95553">
        <ele>1373</ele>
        <time>2020-06-25T06:58:01Z</time>
      </trkpt>
      <trkpt lat="44.66402" lon="5.9556">
        <ele>1374</ele>
        <time>2020-06-25T06:58:09Z</time>
      </trkpt>
      <trkpt lat="44.66392" lon="5.9556">
        <ele>1375</ele>
        <time>2020-06-25T06:58:19Z</time>
      </trkpt>
      <trkpt lat="44.66385" lon="5.95553">
        <ele>1376</ele>
        <time>2020-06-25T06:58:30Z</time>
      </trkpt>
      <trkpt lat="44.66382" lon="5.95542">
        <ele>1378</ele>
        <time>2020-06-25T06:59:08Z</time>
      </trkpt>
      <trkpt lat="44.6638" lon="5.95528">
        <ele>1378</ele>
        <time>2020-06-25T06:59:22Z</time>
      </trkpt>
      <trkpt lat="44.66377" lon="5.95517">
        <ele>1379</ele>
        <time>2020-06-25T06:59:33Z</time>
      </trkpt>
      <trkpt lat="44.66373" lon="5.95503">
        <ele>1380</ele>
        <time>2020-06-25T06:59:44Z</time>
      </trkpt>
      <trkpt lat="44.6637" lon="5.95492">
        <ele>1382</ele>
        <time>2020-06-25T06:59:57Z</time>
      </trkpt>
      <trkpt lat="44.66363" lon="5.9548">
        <ele>1383</ele>
        <time>2020-06-25T07:00:06Z</time>
      </trkpt>
      <trkpt lat="44.6636" lon="5.95468">
        <ele>1384</ele>
        <time>2020-06-25T07:00:16Z</time>
      </trkpt>
      <trkpt lat="44.66357" lon="5.95455">
        <ele>1385</ele>
        <time>2020-06-25T07:00:29Z</time>
      </trkpt>
      <trkpt lat="44.66355" lon="5.95442">
        <ele>1386</ele>
        <time>2020-06-25T07:00:39Z</time>
      </trkpt>
      <trkpt lat="44.66355" lon="5.9543">
        <ele>1386</ele>
        <time>2020-06-25T07:00:48Z</time>
      </trkpt>
      <trkpt lat="44.66353" lon="5.95417">
        <ele>1387</ele>
        <time>2020-06-25T07:00:58Z</time>
      </trkpt>
      <trkpt lat="44.66348" lon="5.95405">
        <ele>1387</ele>
        <time>2020-06-25T07:01:08Z</time>
      </trkpt>
      <trkpt lat="44.66343" lon="5.95393">
        <ele>1388</ele>
        <time>2020-06-25T07:01:19Z</time>
      </trkpt>
      <trkpt lat="44.66338" lon="5.95382">
        <ele>1389</ele>
        <time>2020-06-25T07:01:27Z</time>
      </trkpt>
      <trkpt lat="44.66335" lon="5.9537">
        <ele>1390</ele>
        <time>2020-06-25T07:01:38Z</time>
      </trkpt>
      <trkpt lat="44.66332" lon="5.95358">
        <ele>1392</ele>
        <time>2020-06-25T07:01:51Z</time>
      </trkpt>
      <trkpt lat="44.66332" lon="5.95345">
        <ele>1393</ele>
        <time>2020-06-25T07:02:04Z</time>
      </trkpt>
      <trkpt lat="44.66328" lon="5.95333">
        <ele>1395</ele>
        <time>2020-06-25T07:02:16Z</time>
      </trkpt>
      <trkpt lat="44.66323" lon="5.95322">
        <ele>1396</ele>
        <time>2020-06-25T07:02:28Z</time>
      </trkpt>
      <trkpt lat="44.66317" lon="5.9531">
        <ele>1397</ele>
        <time>2020-06-25T07:02:37Z</time>
      </trkpt>
      <trkpt lat="44.6631" lon="5.953">
        <ele>1399</ele>
        <time>2020-06-25T07:02:46Z</time>
      </trkpt>
      <trkpt lat="44.66303" lon="5.9529">
        <ele>1399</ele>
        <time>2020-06-25T07:02:56Z</time>
      </trkpt>
      <trkpt lat="44.66295" lon="5.95285">
        <ele>1400</ele>
        <time>2020-06-25T07:03:05Z</time>
      </trkpt>
      <trkpt lat="44.66288" lon="5.95277">
        <ele>1401</ele>
        <time>2020-06-25T07:03:13Z</time>
      </trkpt>
      <trkpt lat="44.66282" lon="5.95267">
        <ele>1402</ele>
        <time>2020-06-25T07:03:22Z</time>
      </trkpt>
      <trkpt lat="44.66275" lon="5.95258">
        <ele>1403</ele>
        <time>2020-06-25T07:03:32Z</time>
      </trkpt>
      <trkpt lat="44.66267" lon="5.9525">
        <ele>1404</ele>
        <time>2020-06-25T07:03:42Z</time>
      </trkpt>
      <trkpt lat="44.66258" lon="5.95245">
        <ele>1405</ele>
        <time>2020-06-25T07:03:53Z</time>
      </trkpt>
      <trkpt lat="44.66248" lon="5.95245">
        <ele>1406</ele>
        <time>2020-06-25T07:04:01Z</time>
      </trkpt>
      <trkpt lat="44.6624" lon="5.9524">
        <ele>1409</ele>
        <time>2020-06-25T07:04:16Z</time>
      </trkpt>
      <trkpt lat="44.66232" lon="5.95233">
        <ele>1410</ele>
        <time>2020-06-25T07:04:28Z</time>
      </trkpt>
      <trkpt lat="44.66225" lon="5.95225">
        <ele>1411</ele>
        <time>2020-06-25T07:04:41Z</time>
      </trkpt>
      <trkpt lat="44.66217" lon="5.9522">
        <ele>1413</ele>
        <time>2020-06-25T07:04:52Z</time>
      </trkpt>
      <trkpt lat="44.66208" lon="5.95212">
        <ele>1414</ele>
        <time>2020-06-25T07:05:03Z</time>
      </trkpt>
      <trkpt lat="44.66198" lon="5.95207">
        <ele>1415</ele>
        <time>2020-06-25T07:05:14Z</time>
      </trkpt>
      <trkpt lat="44.6619" lon="5.952">
        <ele>1416</ele>
        <time>2020-06-25T07:05:23Z</time>
      </trkpt>
      <trkpt lat="44.66182" lon="5.95193">
        <ele>1417</ele>
        <time>2020-06-25T07:05:33Z</time>
      </trkpt>
      <trkpt lat="44.66173" lon="5.95185">
        <ele>1419</ele>
        <time>2020-06-25T07:05:46Z</time>
      </trkpt>
      <trkpt lat="44.66165" lon="5.9518">
        <ele>1420</ele>
        <time>2020-06-25T07:05:58Z</time>
      </trkpt>
      <trkpt lat="44.66157" lon="5.95178">
        <ele>1420</ele>
        <time>2020-06-25T07:06:09Z</time>
      </trkpt>
      <trkpt lat="44.66147" lon="5.95175">
        <ele>1422</ele>
        <time>2020-06-25T07:06:17Z</time>
      </trkpt>
      <trkpt lat="44.66138" lon="5.9517">
        <ele>1422</ele>
        <time>2020-06-25T07:06:26Z</time>
      </trkpt>
      <trkpt lat="44.6613" lon="5.95165">
        <ele>1423</ele>
        <time>2020-06-25T07:06:35Z</time>
      </trkpt>
      <trkpt lat="44.66122" lon="5.9516">
        <ele>1425</ele>
        <time>2020-06-25T07:06:46Z</time>
      </trkpt>
      <trkpt lat="44.66112" lon="5.95155">
        <ele>1426</ele>
        <time>2020-06-25T07:06:58Z</time>
      </trkpt>
      <trkpt lat="44.66103" lon="5.95153">
        <ele>1427</ele>
        <time>2020-06-25T07:07:05Z</time>
      </trkpt>
      <trkpt lat="44.66095" lon="5.9515">
        <ele>1428</ele>
        <time>2020-06-25T07:07:13Z</time>
      </trkpt>
      <trkpt lat="44.66085" lon="5.95145">
        <ele>1429</ele>
        <time>2020-06-25T07:07:23Z</time>
      </trkpt>
      <trkpt lat="44.66077" lon="5.95142">
        <ele>1431</ele>
        <time>2020-06-25T07:07:35Z</time>
      </trkpt>
      <trkpt lat="44.66068" lon="5.95133">
        <ele>1433</ele>
        <time>2020-06-25T07:07:47Z</time>
      </trkpt>
      <trkpt lat="44.6606" lon="5.95128">
        <ele>1433</ele>
        <time>2020-06-25T07:07:58Z</time>
      </trkpt>
      <trkpt lat="44.66053" lon="5.9512">
        <ele>1435</ele>
        <time>2020-06-25T07:08:07Z</time>
      </trkpt>
      <trkpt lat="44.66045" lon="5.95112">
        <ele>1437</ele>
        <time>2020-06-25T07:08:18Z</time>
      </trkpt>
      <trkpt lat="44.66038" lon="5.95103">
        <ele>1438</ele>
        <time>2020-06-25T07:08:27Z</time>
      </trkpt>
      <trkpt lat="44.66032" lon="5.95095">
        <ele>1440</ele>
        <time>2020-06-25T07:08:37Z</time>
      </trkpt>
      <trkpt lat="44.66025" lon="5.95085">
        <ele>1440</ele>
        <time>2020-06-25T07:08:47Z</time>
      </trkpt>
      <trkpt lat="44.66017" lon="5.95078">
        <ele>1442</ele>
        <time>2020-06-25T07:08:56Z</time>
      </trkpt>
      <trkpt lat="44.66007" lon="5.95073">
        <ele>1442</ele>
        <time>2020-06-25T07:09:05Z</time>
      </trkpt>
      <trkpt lat="44.65998" lon="5.95068">
        <ele>1443</ele>
        <time>2020-06-25T07:09:15Z</time>
      </trkpt>
      <trkpt lat="44.6599" lon="5.95062">
        <ele>1445</ele>
        <time>2020-06-25T07:09:27Z</time>
      </trkpt>
      <trkpt lat="44.65983" lon="5.95053">
        <ele>1446</ele>
        <time>2020-06-25T07:09:40Z</time>
      </trkpt>
      <trkpt lat="44.65975" lon="5.95045">
        <ele>1449</ele>
        <time>2020-06-25T07:09:54Z</time>
      </trkpt>
      <trkpt lat="44.65967" lon="5.9504">
        <ele>1450</ele>
        <time>2020-06-25T07:10:05Z</time>
      </trkpt>
      <trkpt lat="44.6596" lon="5.95033">
        <ele>1451</ele>
        <time>2020-06-25T07:10:16Z</time>
      </trkpt>
      <trkpt lat="44.65953" lon="5.95023">
        <ele>1453</ele>
        <time>2020-06-25T07:10:26Z</time>
      </trkpt>
      <trkpt lat="44.65945" lon="5.95013">
        <ele>1455</ele>
        <time>2020-06-25T07:10:39Z</time>
      </trkpt>
      <trkpt lat="44.65937" lon="5.95008">
        <ele>1455</ele>
        <time>2020-06-25T07:10:50Z</time>
      </trkpt>
      <trkpt lat="44.65928" lon="5.95003">
        <ele>1457</ele>
        <time>2020-06-25T07:11:02Z</time>
      </trkpt>
      <trkpt lat="44.65918" lon="5.94998">
        <ele>1458</ele>
        <time>2020-06-25T07:11:08Z</time>
      </trkpt>
      <trkpt lat="44.65908" lon="5.94995">
        <ele>1459</ele>
        <time>2020-06-25T07:11:16Z</time>
      </trkpt>
      <trkpt lat="44.659" lon="5.94993">
        <ele>1459</ele>
        <time>2020-06-25T07:11:21Z</time>
      </trkpt>
      <trkpt lat="44.65893" lon="5.94982">
        <ele>1460</ele>
        <time>2020-06-25T07:11:30Z</time>
      </trkpt>
      <trkpt lat="44.6589" lon="5.9497">
        <ele>1461</ele>
        <time>2020-06-25T07:11:42Z</time>
      </trkpt>
      <trkpt lat="44.65885" lon="5.9496">
        <ele>1462</ele>
        <time>2020-06-25T07:11:52Z</time>
      </trkpt>
      <trkpt lat="44.65878" lon="5.94947">
        <ele>1463</ele>
        <time>2020-06-25T07:12:07Z</time>
      </trkpt>
      <trkpt lat="44.65868" lon="5.94945">
        <ele>1463</ele>
        <time>2020-06-25T07:12:13Z</time>
      </trkpt>
      <trkpt lat="44.65862" lon="5.94938">
        <ele>1463</ele>
        <time>2020-06-25T07:12:21Z</time>
      </trkpt>
      <trkpt lat="44.65855" lon="5.94928">
        <ele>1463</ele>
        <time>2020-06-25T07:12:28Z</time>
      </trkpt>
      <trkpt lat="44.65848" lon="5.94918">
        <ele>1463</ele>
        <time>2020-06-25T07:12:38Z</time>
      </trkpt>
      <trkpt lat="44.65855" lon="5.9491">
        <ele>1463</ele>
        <time>2020-06-25T07:12:52Z</time>
      </trkpt>
      <trkpt lat="44.65863" lon="5.94905">
        <ele>1463</ele>
        <time>2020-06-25T07:13:03Z</time>
      </trkpt>
      <trkpt lat="44.65873" lon="5.949">
        <ele>1463</ele>
        <time>2020-06-25T07:13:14Z</time>
      </trkpt>
      <trkpt lat="44.65863" lon="5.94898">
        <ele>1463</ele>
        <time>2020-06-25T07:14:09Z</time>
      </trkpt>
      <trkpt lat="44.65853" lon="5.94897">
        <ele>1463</ele>
        <time>2020-06-25T07:14:34Z</time>
      </trkpt>
      <trkpt lat="44.65845" lon="5.94893">
        <ele>1462</ele>
        <time>2020-06-25T07:14:46Z</time>
      </trkpt>
      <trkpt lat="44.65845" lon="5.94882">
        <ele>1463</ele>
        <time>2020-06-25T07:16:21Z</time>
      </trkpt>
      <trkpt lat="44.65848" lon="5.94868">
        <ele>1463</ele>
        <time>2020-06-25T07:16:33Z</time>
      </trkpt>
      <trkpt lat="44.6585" lon="5.94855">
        <ele>1463</ele>
        <time>2020-06-25T07:16:43Z</time>
      </trkpt>
      <trkpt lat="44.65843" lon="5.94847">
        <ele>1462</ele>
        <time>2020-06-25T07:16:57Z</time>
      </trkpt>
      <trkpt lat="44.65845" lon="5.94833">
        <ele>1462</ele>
        <time>2020-06-25T07:17:10Z</time>
      </trkpt>
      <trkpt lat="44.65845" lon="5.94817">
        <ele>1463</ele>
        <time>2020-06-25T07:17:24Z</time>
      </trkpt>
      <trkpt lat="44.65838" lon="5.948">
        <ele>1463</ele>
        <time>2020-06-25T07:17:26Z</time>
      </trkpt>
      <trkpt lat="44.65833" lon="5.94788">
        <ele>1463</ele>
        <time>2020-06-25T07:17:30Z</time>
      </trkpt>
      <trkpt lat="44.65827" lon="5.9478">
        <ele>1463</ele>
        <time>2020-06-25T07:17:38Z</time>
      </trkpt>
      <trkpt lat="44.65817" lon="5.94783">
        <ele>1463</ele>
        <time>2020-06-25T07:17:51Z</time>
      </trkpt>
      <trkpt lat="44.65813" lon="5.94795">
        <ele>1465</ele>
        <time>2020-06-25T07:18:06Z</time>
      </trkpt>
      <trkpt lat="44.65813" lon="5.9481">
        <ele>1467</ele>
        <time>2020-06-25T07:18:26Z</time>
      </trkpt>
      <trkpt lat="44.65818" lon="5.94822">
        <ele>1469</ele>
        <time>2020-06-25T07:18:38Z</time>
      </trkpt>
      <trkpt lat="44.65818" lon="5.94835">
        <ele>1469</ele>
        <time>2020-06-25T07:18:57Z</time>
      </trkpt>
      <trkpt lat="44.65818" lon="5.94848">
        <ele>1471</ele>
        <time>2020-06-25T07:19:10Z</time>
      </trkpt>
      <trkpt lat="44.65818" lon="5.94862">
        <ele>1471</ele>
        <time>2020-06-25T07:19:18Z</time>
      </trkpt>
      <trkpt lat="44.65818" lon="5.94875">
        <ele>1472</ele>
        <time>2020-06-25T07:19:27Z</time>
      </trkpt>
      <trkpt lat="44.65817" lon="5.94888">
        <ele>1472</ele>
        <time>2020-06-25T07:19:38Z</time>
      </trkpt>
      <trkpt lat="44.65808" lon="5.94892">
        <ele>1476</ele>
        <time>2020-06-25T07:19:59Z</time>
      </trkpt>
      <trkpt lat="44.65802" lon="5.94882">
        <ele>1476</ele>
        <time>2020-06-25T07:20:06Z</time>
      </trkpt>
      <trkpt lat="44.65795" lon="5.94873">
        <ele>1479</ele>
        <time>2020-06-25T07:20:18Z</time>
      </trkpt>
      <trkpt lat="44.65792" lon="5.94883">
        <ele>1481</ele>
        <time>2020-06-25T07:20:39Z</time>
      </trkpt>
      <trkpt lat="44.6579" lon="5.94897">
        <ele>1482</ele>
        <time>2020-06-25T07:20:52Z</time>
      </trkpt>
      <trkpt lat="44.65792" lon="5.9491">
        <ele>1483</ele>
        <time>2020-06-25T07:21:00Z</time>
      </trkpt>
      <trkpt lat="44.65798" lon="5.9492">
        <ele>1485</ele>
        <time>2020-06-25T07:21:17Z</time>
      </trkpt>
      <trkpt lat="44.65795" lon="5.94932">
        <ele>1487</ele>
        <time>2020-06-25T07:21:30Z</time>
      </trkpt>
      <trkpt lat="44.6579" lon="5.94947">
        <ele>1489</ele>
        <time>2020-06-25T07:21:40Z</time>
      </trkpt>
      <trkpt lat="44.65782" lon="5.94957">
        <ele>1490</ele>
        <time>2020-06-25T07:21:48Z</time>
      </trkpt>
      <trkpt lat="44.65777" lon="5.94967">
        <ele>1492</ele>
        <time>2020-06-25T07:22:03Z</time>
      </trkpt>
      <trkpt lat="44.65768" lon="5.94977">
        <ele>1493</ele>
        <time>2020-06-25T07:22:17Z</time>
      </trkpt>
      <trkpt lat="44.6576" lon="5.94978">
        <ele>1493</ele>
        <time>2020-06-25T07:22:23Z</time>
      </trkpt>
      <trkpt lat="44.65752" lon="5.94987">
        <ele>1494</ele>
        <time>2020-06-25T07:22:34Z</time>
      </trkpt>
      <trkpt lat="44.65742" lon="5.9499">
        <ele>1495</ele>
        <time>2020-06-25T07:22:41Z</time>
      </trkpt>
      <trkpt lat="44.65733" lon="5.94993">
        <ele>1495</ele>
        <time>2020-06-25T07:22:53Z</time>
      </trkpt>
      <trkpt lat="44.65723" lon="5.94993">
        <ele>1497</ele>
        <time>2020-06-25T07:23:09Z</time>
      </trkpt>
      <trkpt lat="44.65715" lon="5.94992">
        <ele>1499</ele>
        <time>2020-06-25T07:23:30Z</time>
      </trkpt>
      <trkpt lat="44.65703" lon="5.94993">
        <ele>1501</ele>
        <time>2020-06-25T07:23:52Z</time>
      </trkpt>
      <trkpt lat="44.65695" lon="5.95002">
        <ele>1501</ele>
        <time>2020-06-25T07:23:56Z</time>
      </trkpt>
      <trkpt lat="44.65687" lon="5.95007">
        <ele>1502</ele>
        <time>2020-06-25T07:24:02Z</time>
      </trkpt>
      <trkpt lat="44.65675" lon="5.95015">
        <ele>1503</ele>
        <time>2020-06-25T07:24:08Z</time>
      </trkpt>
      <trkpt lat="44.65667" lon="5.95018">
        <ele>1503</ele>
        <time>2020-06-25T07:24:17Z</time>
      </trkpt>
      <trkpt lat="44.65658" lon="5.95025">
        <ele>1505</ele>
        <time>2020-06-25T07:24:29Z</time>
      </trkpt>
      <trkpt lat="44.6565" lon="5.9503">
        <ele>1507</ele>
        <time>2020-06-25T07:24:44Z</time>
      </trkpt>
      <trkpt lat="44.65638" lon="5.95032">
        <ele>1509</ele>
        <time>2020-06-25T07:24:59Z</time>
      </trkpt>
      <trkpt lat="44.65628" lon="5.95035">
        <ele>1509</ele>
        <time>2020-06-25T07:25:03Z</time>
      </trkpt>
      <trkpt lat="44.6562" lon="5.95038">
        <ele>1510</ele>
        <time>2020-06-25T07:25:09Z</time>
      </trkpt>
      <trkpt lat="44.65612" lon="5.95045">
        <ele>1512</ele>
        <time>2020-06-25T07:25:26Z</time>
      </trkpt>
      <trkpt lat="44.65603" lon="5.95048">
        <ele>1513</ele>
        <time>2020-06-25T07:25:35Z</time>
      </trkpt>
      <trkpt lat="44.65593" lon="5.95052">
        <ele>1515</ele>
        <time>2020-06-25T07:25:44Z</time>
      </trkpt>
      <trkpt lat="44.65583" lon="5.9505">
        <ele>1517</ele>
        <time>2020-06-25T07:25:56Z</time>
      </trkpt>
      <trkpt lat="44.65578" lon="5.95038">
        <ele>1518</ele>
        <time>2020-06-25T07:26:07Z</time>
      </trkpt>
      <trkpt lat="44.65573" lon="5.95025">
        <ele>1521</ele>
        <time>2020-06-25T07:26:24Z</time>
      </trkpt>
      <trkpt lat="44.65565" lon="5.9502">
        <ele>1524</ele>
        <time>2020-06-25T07:26:37Z</time>
      </trkpt>
      <trkpt lat="44.65562" lon="5.9501">
        <ele>1525</ele>
        <time>2020-06-25T07:26:49Z</time>
      </trkpt>
      <trkpt lat="44.65555" lon="5.95">
        <ele>1527</ele>
        <time>2020-06-25T07:27:04Z</time>
      </trkpt>
      <trkpt lat="44.65548" lon="5.94992">
        <ele>1530</ele>
        <time>2020-06-25T07:27:18Z</time>
      </trkpt>
      <trkpt lat="44.6554" lon="5.9499">
        <ele>1530</ele>
        <time>2020-06-25T07:27:25Z</time>
      </trkpt>
      <trkpt lat="44.65533" lon="5.9498">
        <ele>1533</ele>
        <time>2020-06-25T07:27:40Z</time>
      </trkpt>
      <trkpt lat="44.65525" lon="5.94977">
        <ele>1534</ele>
        <time>2020-06-25T07:27:52Z</time>
      </trkpt>
      <trkpt lat="44.65517" lon="5.94973">
        <ele>1536</ele>
        <time>2020-06-25T07:28:04Z</time>
      </trkpt>
      <trkpt lat="44.65507" lon="5.9497">
        <ele>1538</ele>
        <time>2020-06-25T07:28:18Z</time>
      </trkpt>
      <trkpt lat="44.65498" lon="5.94965">
        <ele>1538</ele>
        <time>2020-06-25T07:28:27Z</time>
      </trkpt>
      <trkpt lat="44.6549" lon="5.9496">
        <ele>1538</ele>
        <time>2020-06-25T07:28:35Z</time>
      </trkpt>
      <trkpt lat="44.65482" lon="5.94953">
        <ele>1540</ele>
        <time>2020-06-25T07:28:52Z</time>
      </trkpt>
      <trkpt lat="44.65472" lon="5.94947">
        <ele>1539</ele>
        <time>2020-06-25T07:29:04Z</time>
      </trkpt>
      <trkpt lat="44.65462" lon="5.94945">
        <ele>1539</ele>
        <time>2020-06-25T07:29:09Z</time>
      </trkpt>
      <trkpt lat="44.65472" lon="5.94948">
        <ele>1540</ele>
        <time>2020-06-25T07:29:30Z</time>
      </trkpt>
      <trkpt lat="44.65462" lon="5.94945">
        <ele>1539</ele>
        <time>2020-06-25T07:30:13Z</time>
      </trkpt>
      <trkpt lat="44.6546" lon="5.94932">
        <ele>1540</ele>
        <time>2020-06-25T07:30:25Z</time>
      </trkpt>
      <trkpt lat="44.65455" lon="5.9492">
        <ele>1541</ele>
        <time>2020-06-25T07:30:35Z</time>
      </trkpt>
      <trkpt lat="44.65448" lon="5.94912">
        <ele>1541</ele>
        <time>2020-06-25T07:30:44Z</time>
      </trkpt>
      <trkpt lat="44.6544" lon="5.94902">
        <ele>1541</ele>
        <time>2020-06-25T07:30:51Z</time>
      </trkpt>
      <trkpt lat="44.65433" lon="5.94892">
        <ele>1541</ele>
        <time>2020-06-25T07:31:03Z</time>
      </trkpt>
      <trkpt lat="44.65425" lon="5.94887">
        <ele>1541</ele>
        <time>2020-06-25T07:31:12Z</time>
      </trkpt>
      <trkpt lat="44.65418" lon="5.94878">
        <ele>1541</ele>
        <time>2020-06-25T07:31:23Z</time>
      </trkpt>
      <trkpt lat="44.65413" lon="5.94865">
        <ele>1542</ele>
        <time>2020-06-25T07:31:34Z</time>
      </trkpt>
      <trkpt lat="44.65403" lon="5.9486">
        <ele>1543</ele>
        <time>2020-06-25T07:31:43Z</time>
      </trkpt>
      <trkpt lat="44.65395" lon="5.94857">
        <ele>1543</ele>
        <time>2020-06-25T07:31:53Z</time>
      </trkpt>
      <trkpt lat="44.65387" lon="5.94852">
        <ele>1546</ele>
        <time>2020-06-25T07:32:07Z</time>
      </trkpt>
      <trkpt lat="44.65378" lon="5.94847">
        <ele>1547</ele>
        <time>2020-06-25T07:32:19Z</time>
      </trkpt>
      <trkpt lat="44.6537" lon="5.94848">
        <ele>1549</ele>
        <time>2020-06-25T07:32:29Z</time>
      </trkpt>
      <trkpt lat="44.65362" lon="5.94842">
        <ele>1551</ele>
        <time>2020-06-25T07:32:43Z</time>
      </trkpt>
      <trkpt lat="44.65353" lon="5.94835">
        <ele>1553</ele>
        <time>2020-06-25T07:32:56Z</time>
      </trkpt>
      <trkpt lat="44.65347" lon="5.94827">
        <ele>1554</ele>
        <time>2020-06-25T07:33:08Z</time>
      </trkpt>
      <trkpt lat="44.65342" lon="5.94813">
        <ele>1557</ele>
        <time>2020-06-25T07:33:27Z</time>
      </trkpt>
      <trkpt lat="44.65338" lon="5.94802">
        <ele>1558</ele>
        <time>2020-06-25T07:33:39Z</time>
      </trkpt>
      <trkpt lat="44.65332" lon="5.9479">
        <ele>1559</ele>
        <time>2020-06-25T07:33:46Z</time>
      </trkpt>
      <trkpt lat="44.65327" lon="5.9478">
        <ele>1560</ele>
        <time>2020-06-25T07:33:52Z</time>
      </trkpt>
      <trkpt lat="44.6533" lon="5.94767">
        <ele>1561</ele>
        <time>2020-06-25T07:33:57Z</time>
      </trkpt>
      <trkpt lat="44.6533" lon="5.94753">
        <ele>1562</ele>
        <time>2020-06-25T07:34:07Z</time>
      </trkpt>
      <trkpt lat="44.65327" lon="5.94742">
        <ele>1562</ele>
        <time>2020-06-25T07:34:16Z</time>
      </trkpt>
      <trkpt lat="44.65322" lon="5.9473">
        <ele>1563</ele>
        <time>2020-06-25T07:34:26Z</time>
      </trkpt>
      <trkpt lat="44.65313" lon="5.94723">
        <ele>1564</ele>
        <time>2020-06-25T07:34:36Z</time>
      </trkpt>
      <trkpt lat="44.65313" lon="5.94708">
        <ele>1565</ele>
        <time>2020-06-25T07:34:45Z</time>
      </trkpt>
      <trkpt lat="44.65313" lon="5.94695">
        <ele>1567</ele>
        <time>2020-06-25T07:34:57Z</time>
      </trkpt>
      <trkpt lat="44.65312" lon="5.94682">
        <ele>1567</ele>
        <time>2020-06-25T07:35:13Z</time>
      </trkpt>
      <trkpt lat="44.65308" lon="5.9467">
        <ele>1567</ele>
        <time>2020-06-25T07:35:23Z</time>
      </trkpt>
      <trkpt lat="44.65298" lon="5.94675">
        <ele>1569</ele>
        <time>2020-06-25T07:35:45Z</time>
      </trkpt>
      <trkpt lat="44.65293" lon="5.94685">
        <ele>1569</ele>
        <time>2020-06-25T07:35:59Z</time>
      </trkpt>
      <trkpt lat="44.65292" lon="5.94698">
        <ele>1571</ele>
        <time>2020-06-25T07:36:10Z</time>
      </trkpt>
      <trkpt lat="44.65298" lon="5.9471">
        <ele>1571</ele>
        <time>2020-06-25T07:36:19Z</time>
      </trkpt>
      <trkpt lat="44.65298" lon="5.94722">
        <ele>1571</ele>
        <time>2020-06-25T07:36:26Z</time>
      </trkpt>
      <trkpt lat="44.65293" lon="5.94732">
        <ele>1572</ele>
        <time>2020-06-25T07:36:32Z</time>
      </trkpt>
      <trkpt lat="44.65292" lon="5.94745">
        <ele>1573</ele>
        <time>2020-06-25T07:36:40Z</time>
      </trkpt>
      <trkpt lat="44.65293" lon="5.94758">
        <ele>1574</ele>
        <time>2020-06-25T07:36:53Z</time>
      </trkpt>
      <trkpt lat="44.6529" lon="5.9477">
        <ele>1575</ele>
        <time>2020-06-25T07:37:03Z</time>
      </trkpt>
      <trkpt lat="44.65285" lon="5.9478">
        <ele>1576</ele>
        <time>2020-06-25T07:37:12Z</time>
      </trkpt>
      <trkpt lat="44.65278" lon="5.9479">
        <ele>1577</ele>
        <time>2020-06-25T07:37:20Z</time>
      </trkpt>
      <trkpt lat="44.6528" lon="5.94803">
        <ele>1578</ele>
        <time>2020-06-25T07:37:30Z</time>
      </trkpt>
      <trkpt lat="44.6529" lon="5.94815">
        <ele>1578</ele>
        <time>2020-06-25T07:37:36Z</time>
      </trkpt>
      <trkpt lat="44.6529" lon="5.94827">
        <ele>1579</ele>
        <time>2020-06-25T07:37:43Z</time>
      </trkpt>
      <trkpt lat="44.65292" lon="5.94842">
        <ele>1580</ele>
        <time>2020-06-25T07:37:56Z</time>
      </trkpt>
      <trkpt lat="44.65292" lon="5.94855">
        <ele>1582</ele>
        <time>2020-06-25T07:38:08Z</time>
      </trkpt>
      <trkpt lat="44.6529" lon="5.94867">
        <ele>1583</ele>
        <time>2020-06-25T07:38:19Z</time>
      </trkpt>
      <trkpt lat="44.65287" lon="5.9488">
        <ele>1584</ele>
        <time>2020-06-25T07:38:32Z</time>
      </trkpt>
      <trkpt lat="44.6529" lon="5.94892">
        <ele>1585</ele>
        <time>2020-06-25T07:38:47Z</time>
      </trkpt>
      <trkpt lat="44.65287" lon="5.94905">
        <ele>1587</ele>
        <time>2020-06-25T07:38:57Z</time>
      </trkpt>
      <trkpt lat="44.65285" lon="5.94918">
        <ele>1587</ele>
        <time>2020-06-25T07:39:04Z</time>
      </trkpt>
      <trkpt lat="44.65282" lon="5.94932">
        <ele>1587</ele>
        <time>2020-06-25T07:39:15Z</time>
      </trkpt>
      <trkpt lat="44.65277" lon="5.94945">
        <ele>1588</ele>
        <time>2020-06-25T07:39:26Z</time>
      </trkpt>
      <trkpt lat="44.6528" lon="5.94957">
        <ele>1590</ele>
        <time>2020-06-25T07:39:38Z</time>
      </trkpt>
      <trkpt lat="44.65278" lon="5.9497">
        <ele>1590</ele>
        <time>2020-06-25T07:39:50Z</time>
      </trkpt>
      <trkpt lat="44.65275" lon="5.94983">
        <ele>1592</ele>
        <time>2020-06-25T07:40:01Z</time>
      </trkpt>
      <trkpt lat="44.65277" lon="5.94997">
        <ele>1592</ele>
        <time>2020-06-25T07:40:11Z</time>
      </trkpt>
      <trkpt lat="44.65275" lon="5.9501">
        <ele>1593</ele>
        <time>2020-06-25T07:40:26Z</time>
      </trkpt>
      <trkpt lat="44.65272" lon="5.95025">
        <ele>1596</ele>
        <time>2020-06-25T07:40:44Z</time>
      </trkpt>
      <trkpt lat="44.65277" lon="5.95037">
        <ele>1597</ele>
        <time>2020-06-25T07:41:21Z</time>
      </trkpt>
      <trkpt lat="44.65278" lon="5.9505">
        <ele>1597</ele>
        <time>2020-06-25T07:41:45Z</time>
      </trkpt>
      <trkpt lat="44.6528" lon="5.95063">
        <ele>1598</ele>
        <time>2020-06-25T07:41:55Z</time>
      </trkpt>
      <trkpt lat="44.65275" lon="5.95075">
        <ele>1599</ele>
        <time>2020-06-25T07:42:04Z</time>
      </trkpt>
      <trkpt lat="44.65275" lon="5.95088">
        <ele>1600</ele>
        <time>2020-06-25T07:42:15Z</time>
      </trkpt>
      <trkpt lat="44.65273" lon="5.951">
        <ele>1601</ele>
        <time>2020-06-25T07:42:24Z</time>
      </trkpt>
      <trkpt lat="44.65273" lon="5.95113">
        <ele>1602</ele>
        <time>2020-06-25T07:42:38Z</time>
      </trkpt>
      <trkpt lat="44.65277" lon="5.95127">
        <ele>1603</ele>
        <time>2020-06-25T07:42:49Z</time>
      </trkpt>
      <trkpt lat="44.65277" lon="5.9514">
        <ele>1605</ele>
        <time>2020-06-25T07:43:00Z</time>
      </trkpt>
      <trkpt lat="44.65278" lon="5.95153">
        <ele>1606</ele>
        <time>2020-06-25T07:43:11Z</time>
      </trkpt>
      <trkpt lat="44.65277" lon="5.95167">
        <ele>1607</ele>
        <time>2020-06-25T07:43:22Z</time>
      </trkpt>
      <trkpt lat="44.65278" lon="5.9518">
        <ele>1608</ele>
        <time>2020-06-25T07:43:32Z</time>
      </trkpt>
      <trkpt lat="44.65282" lon="5.95192">
        <ele>1609</ele>
        <time>2020-06-25T07:43:42Z</time>
      </trkpt>
      <trkpt lat="44.65285" lon="5.95205">
        <ele>1610</ele>
        <time>2020-06-25T07:43:52Z</time>
      </trkpt>
      <trkpt lat="44.65287" lon="5.95218">
        <ele>1611</ele>
        <time>2020-06-25T07:44:00Z</time>
      </trkpt>
      <trkpt lat="44.65287" lon="5.95232">
        <ele>1612</ele>
        <time>2020-06-25T07:44:11Z</time>
      </trkpt>
      <trkpt lat="44.6529" lon="5.95245">
        <ele>1613</ele>
        <time>2020-06-25T07:44:21Z</time>
      </trkpt>
      <trkpt lat="44.65292" lon="5.95257">
        <ele>1614</ele>
        <time>2020-06-25T07:44:32Z</time>
      </trkpt>
      <trkpt lat="44.65295" lon="5.9527">
        <ele>1615</ele>
        <time>2020-06-25T07:44:43Z</time>
      </trkpt>
      <trkpt lat="44.65297" lon="5.95282">
        <ele>1616</ele>
        <time>2020-06-25T07:44:52Z</time>
      </trkpt>
      <trkpt lat="44.653" lon="5.95295">
        <ele>1617</ele>
        <time>2020-06-25T07:45:00Z</time>
      </trkpt>
      <trkpt lat="44.65302" lon="5.95308">
        <ele>1617</ele>
        <time>2020-06-25T07:45:10Z</time>
      </trkpt>
      <trkpt lat="44.65305" lon="5.95322">
        <ele>1617</ele>
        <time>2020-06-25T07:45:20Z</time>
      </trkpt>
      <trkpt lat="44.65305" lon="5.95335">
        <ele>1617</ele>
        <time>2020-06-25T07:45:28Z</time>
      </trkpt>
      <trkpt lat="44.65307" lon="5.95348">
        <ele>1617</ele>
        <time>2020-06-25T07:45:38Z</time>
      </trkpt>
      <trkpt lat="44.65313" lon="5.95358">
        <ele>1617</ele>
        <time>2020-06-25T07:45:47Z</time>
      </trkpt>
      <trkpt lat="44.6532" lon="5.95368">
        <ele>1616</ele>
        <time>2020-06-25T07:45:57Z</time>
      </trkpt>
      <trkpt lat="44.65325" lon="5.9538">
        <ele>1616</ele>
        <time>2020-06-25T07:46:07Z</time>
      </trkpt>
      <trkpt lat="44.6533" lon="5.9539">
        <ele>1615</ele>
        <time>2020-06-25T07:46:19Z</time>
      </trkpt>
      <trkpt lat="44.65338" lon="5.95398">
        <ele>1613</ele>
        <time>2020-06-25T07:46:30Z</time>
      </trkpt>
      <trkpt lat="44.65345" lon="5.95405">
        <ele>1613</ele>
        <time>2020-06-25T07:46:38Z</time>
      </trkpt>
      <trkpt lat="44.6535" lon="5.95418">
        <ele>1613</ele>
        <time>2020-06-25T07:46:47Z</time>
      </trkpt>
      <trkpt lat="44.65352" lon="5.9543">
        <ele>1613</ele>
        <time>2020-06-25T07:46:53Z</time>
      </trkpt>
      <trkpt lat="44.65355" lon="5.95445">
        <ele>1613</ele>
        <time>2020-06-25T07:46:59Z</time>
      </trkpt>
      <trkpt lat="44.65362" lon="5.95455">
        <ele>1613</ele>
        <time>2020-06-25T07:47:03Z</time>
      </trkpt>
      <trkpt lat="44.65367" lon="5.95467">
        <ele>1613</ele>
        <time>2020-06-25T07:47:11Z</time>
      </trkpt>
      <trkpt lat="44.65372" lon="5.95477">
        <ele>1614</ele>
        <time>2020-06-25T07:47:19Z</time>
      </trkpt>
      <trkpt lat="44.65377" lon="5.9549">
        <ele>1614</ele>
        <time>2020-06-25T07:47:28Z</time>
      </trkpt>
      <trkpt lat="44.65382" lon="5.955">
        <ele>1614</ele>
        <time>2020-06-25T07:47:37Z</time>
      </trkpt>
      <trkpt lat="44.65382" lon="5.95513">
        <ele>1615</ele>
        <time>2020-06-25T07:47:46Z</time>
      </trkpt>
      <trkpt lat="44.65382" lon="5.95527">
        <ele>1615</ele>
        <time>2020-06-25T07:47:54Z</time>
      </trkpt>
      <trkpt lat="44.6538" lon="5.9554">
        <ele>1615</ele>
        <time>2020-06-25T07:48:03Z</time>
      </trkpt>
      <trkpt lat="44.65382" lon="5.95553">
        <ele>1616</ele>
        <time>2020-06-25T07:48:12Z</time>
      </trkpt>
      <trkpt lat="44.65387" lon="5.95565">
        <ele>1617</ele>
        <time>2020-06-25T07:48:21Z</time>
      </trkpt>
      <trkpt lat="44.65392" lon="5.95577">
        <ele>1617</ele>
        <time>2020-06-25T07:48:30Z</time>
      </trkpt>
      <trkpt lat="44.65395" lon="5.95588">
        <ele>1618</ele>
        <time>2020-06-25T07:48:39Z</time>
      </trkpt>
      <trkpt lat="44.65397" lon="5.95602">
        <ele>1617</ele>
        <time>2020-06-25T07:48:49Z</time>
      </trkpt>
      <trkpt lat="44.654" lon="5.95615">
        <ele>1617</ele>
        <time>2020-06-25T07:48:57Z</time>
      </trkpt>
      <trkpt lat="44.65398" lon="5.95627">
        <ele>1618</ele>
        <time>2020-06-25T07:49:05Z</time>
      </trkpt>
      <trkpt lat="44.65395" lon="5.9564">
        <ele>1619</ele>
        <time>2020-06-25T07:49:14Z</time>
      </trkpt>
      <trkpt lat="44.65395" lon="5.95653">
        <ele>1619</ele>
        <time>2020-06-25T07:49:22Z</time>
      </trkpt>
      <trkpt lat="44.65392" lon="5.95665">
        <ele>1619</ele>
        <time>2020-06-25T07:49:32Z</time>
      </trkpt>
      <trkpt lat="44.65385" lon="5.95673">
        <ele>1620</ele>
        <time>2020-06-25T07:49:42Z</time>
      </trkpt>
      <trkpt lat="44.65377" lon="5.95682">
        <ele>1620</ele>
        <time>2020-06-25T07:49:52Z</time>
      </trkpt>
      <trkpt lat="44.6537" lon="5.9569">
        <ele>1620</ele>
        <time>2020-06-25T07:50:03Z</time>
      </trkpt>
      <trkpt lat="44.65362" lon="5.957">
        <ele>1621</ele>
        <time>2020-06-25T07:50:14Z</time>
      </trkpt>
      <trkpt lat="44.65355" lon="5.95708">
        <ele>1622</ele>
        <time>2020-06-25T07:50:23Z</time>
      </trkpt>
      <trkpt lat="44.65355" lon="5.95722">
        <ele>1623</ele>
        <time>2020-06-25T07:50:33Z</time>
      </trkpt>
      <trkpt lat="44.65355" lon="5.95735">
        <ele>1623</ele>
        <time>2020-06-25T07:50:42Z</time>
      </trkpt>
      <trkpt lat="44.65358" lon="5.95748">
        <ele>1623</ele>
        <time>2020-06-25T07:50:51Z</time>
      </trkpt>
      <trkpt lat="44.65362" lon="5.9576">
        <ele>1623</ele>
        <time>2020-06-25T07:51:01Z</time>
      </trkpt>
      <trkpt lat="44.65367" lon="5.95772">
        <ele>1623</ele>
        <time>2020-06-25T07:51:11Z</time>
      </trkpt>
      <trkpt lat="44.65372" lon="5.95783">
        <ele>1623</ele>
        <time>2020-06-25T07:51:21Z</time>
      </trkpt>
      <trkpt lat="44.65377" lon="5.95795">
        <ele>1622</ele>
        <time>2020-06-25T07:51:31Z</time>
      </trkpt>
      <trkpt lat="44.6538" lon="5.95808">
        <ele>1622</ele>
        <time>2020-06-25T07:51:40Z</time>
      </trkpt>
      <trkpt lat="44.65377" lon="5.9582">
        <ele>1623</ele>
        <time>2020-06-25T07:51:49Z</time>
      </trkpt>
      <trkpt lat="44.65373" lon="5.95832">
        <ele>1623</ele>
        <time>2020-06-25T07:51:57Z</time>
      </trkpt>
      <trkpt lat="44.65375" lon="5.95848">
        <ele>1623</ele>
        <time>2020-06-25T07:52:07Z</time>
      </trkpt>
      <trkpt lat="44.65385" lon="5.95855">
        <ele>1622</ele>
        <time>2020-06-25T07:52:10Z</time>
      </trkpt>
      <trkpt lat="44.65395" lon="5.95862">
        <ele>1622</ele>
        <time>2020-06-25T07:52:14Z</time>
      </trkpt>
      <trkpt lat="44.65403" lon="5.95868">
        <ele>1622</ele>
        <time>2020-06-25T07:52:20Z</time>
      </trkpt>
      <trkpt lat="44.6541" lon="5.95878">
        <ele>1621</ele>
        <time>2020-06-25T07:52:29Z</time>
      </trkpt>
      <trkpt lat="44.65417" lon="5.95888">
        <ele>1621</ele>
        <time>2020-06-25T07:52:39Z</time>
      </trkpt>
      <trkpt lat="44.65422" lon="5.95898">
        <ele>1621</ele>
        <time>2020-06-25T07:52:48Z</time>
      </trkpt>
      <trkpt lat="44.65418" lon="5.9591">
        <ele>1621</ele>
        <time>2020-06-25T07:52:56Z</time>
      </trkpt>
      <trkpt lat="44.65412" lon="5.95922">
        <ele>1621</ele>
        <time>2020-06-25T07:53:04Z</time>
      </trkpt>
      <trkpt lat="44.65408" lon="5.95933">
        <ele>1622</ele>
        <time>2020-06-25T07:53:14Z</time>
      </trkpt>
      <trkpt lat="44.65412" lon="5.95947">
        <ele>1621</ele>
        <time>2020-06-25T07:53:24Z</time>
      </trkpt>
      <trkpt lat="44.6541" lon="5.95958">
        <ele>1621</ele>
        <time>2020-06-25T07:53:34Z</time>
      </trkpt>
      <trkpt lat="44.65405" lon="5.95972">
        <ele>1621</ele>
        <time>2020-06-25T07:53:44Z</time>
      </trkpt>
      <trkpt lat="44.65402" lon="5.95985">
        <ele>1621</ele>
        <time>2020-06-25T07:53:54Z</time>
      </trkpt>
      <trkpt lat="44.65398" lon="5.95998">
        <ele>1621</ele>
        <time>2020-06-25T07:54:03Z</time>
      </trkpt>
      <trkpt lat="44.65393" lon="5.9601">
        <ele>1620</ele>
        <time>2020-06-25T07:54:11Z</time>
      </trkpt>
      <trkpt lat="44.6539" lon="5.96022">
        <ele>1620</ele>
        <time>2020-06-25T07:54:21Z</time>
      </trkpt>
      <trkpt lat="44.65388" lon="5.96035">
        <ele>1620</ele>
        <time>2020-06-25T07:54:32Z</time>
      </trkpt>
      <trkpt lat="44.65387" lon="5.96048">
        <ele>1621</ele>
        <time>2020-06-25T07:54:41Z</time>
      </trkpt>
      <trkpt lat="44.65382" lon="5.9606">
        <ele>1622</ele>
        <time>2020-06-25T07:54:50Z</time>
      </trkpt>
      <trkpt lat="44.65378" lon="5.96072">
        <ele>1622</ele>
        <time>2020-06-25T07:54:59Z</time>
      </trkpt>
      <trkpt lat="44.65377" lon="5.96085">
        <ele>1622</ele>
        <time>2020-06-25T07:55:08Z</time>
      </trkpt>
      <trkpt lat="44.65378" lon="5.96098">
        <ele>1623</ele>
        <time>2020-06-25T07:55:19Z</time>
      </trkpt>
      <trkpt lat="44.65382" lon="5.96112">
        <ele>1623</ele>
        <time>2020-06-25T07:55:28Z</time>
      </trkpt>
      <trkpt lat="44.6538" lon="5.96123">
        <ele>1622</ele>
        <time>2020-06-25T07:55:37Z</time>
      </trkpt>
      <trkpt lat="44.65375" lon="5.96135">
        <ele>1622</ele>
        <time>2020-06-25T07:55:46Z</time>
      </trkpt>
      <trkpt lat="44.6537" lon="5.96145">
        <ele>1622</ele>
        <time>2020-06-25T07:55:55Z</time>
      </trkpt>
      <trkpt lat="44.65367" lon="5.96158">
        <ele>1622</ele>
        <time>2020-06-25T07:56:04Z</time>
      </trkpt>
      <trkpt lat="44.65362" lon="5.9617">
        <ele>1623</ele>
        <time>2020-06-25T07:56:11Z</time>
      </trkpt>
      <trkpt lat="44.65362" lon="5.96185">
        <ele>1623</ele>
        <time>2020-06-25T07:56:20Z</time>
      </trkpt>
      <trkpt lat="44.65363" lon="5.96197">
        <ele>1624</ele>
        <time>2020-06-25T07:56:28Z</time>
      </trkpt>
      <trkpt lat="44.65368" lon="5.9621">
        <ele>1625</ele>
        <time>2020-06-25T07:56:36Z</time>
      </trkpt>
      <trkpt lat="44.65368" lon="5.96223">
        <ele>1626</ele>
        <time>2020-06-25T07:56:44Z</time>
      </trkpt>
      <trkpt lat="44.65367" lon="5.96235">
        <ele>1626</ele>
        <time>2020-06-25T07:56:53Z</time>
      </trkpt>
      <trkpt lat="44.65365" lon="5.9625">
        <ele>1627</ele>
        <time>2020-06-25T07:57:03Z</time>
      </trkpt>
      <trkpt lat="44.6536" lon="5.96263">
        <ele>1627</ele>
        <time>2020-06-25T07:57:11Z</time>
      </trkpt>
      <trkpt lat="44.6536" lon="5.96275">
        <ele>1628</ele>
        <time>2020-06-25T07:57:22Z</time>
      </trkpt>
      <trkpt lat="44.65368" lon="5.96283">
        <ele>1628</ele>
        <time>2020-06-25T07:57:32Z</time>
      </trkpt>
      <trkpt lat="44.65377" lon="5.9629">
        <ele>1630</ele>
        <time>2020-06-25T07:57:43Z</time>
      </trkpt>
      <trkpt lat="44.65385" lon="5.96295">
        <ele>1631</ele>
        <time>2020-06-25T07:57:56Z</time>
      </trkpt>
      <trkpt lat="44.65395" lon="5.96298">
        <ele>1631</ele>
        <time>2020-06-25T07:58:04Z</time>
      </trkpt>
      <trkpt lat="44.65405" lon="5.96303">
        <ele>1632</ele>
        <time>2020-06-25T07:58:13Z</time>
      </trkpt>
      <trkpt lat="44.65412" lon="5.96312">
        <ele>1632</ele>
        <time>2020-06-25T07:58:22Z</time>
      </trkpt>
      <trkpt lat="44.6542" lon="5.96317">
        <ele>1633</ele>
        <time>2020-06-25T07:58:33Z</time>
      </trkpt>
      <trkpt lat="44.65428" lon="5.9632">
        <ele>1633</ele>
        <time>2020-06-25T07:58:44Z</time>
      </trkpt>
      <trkpt lat="44.65432" lon="5.96332">
        <ele>1634</ele>
        <time>2020-06-25T07:58:54Z</time>
      </trkpt>
      <trkpt lat="44.6543" lon="5.96347">
        <ele>1635</ele>
        <time>2020-06-25T07:59:03Z</time>
      </trkpt>
      <trkpt lat="44.65432" lon="5.96358">
        <ele>1636</ele>
        <time>2020-06-25T07:59:13Z</time>
      </trkpt>
      <trkpt lat="44.65433" lon="5.96372">
        <ele>1636</ele>
        <time>2020-06-25T07:59:24Z</time>
      </trkpt>
      <trkpt lat="44.65433" lon="5.96385">
        <ele>1639</ele>
        <time>2020-06-25T07:59:36Z</time>
      </trkpt>
      <trkpt lat="44.65433" lon="5.96398">
        <ele>1640</ele>
        <time>2020-06-25T07:59:47Z</time>
      </trkpt>
      <trkpt lat="44.65425" lon="5.9641">
        <ele>1640</ele>
        <time>2020-06-25T07:59:58Z</time>
      </trkpt>
      <trkpt lat="44.6542" lon="5.9642">
        <ele>1640</ele>
        <time>2020-06-25T08:00:04Z</time>
      </trkpt>
      <trkpt lat="44.65415" lon="5.9643">
        <ele>1640</ele>
        <time>2020-06-25T08:00:12Z</time>
      </trkpt>
      <trkpt lat="44.65408" lon="5.9644">
        <ele>1642</ele>
        <time>2020-06-25T08:00:22Z</time>
      </trkpt>
      <trkpt lat="44.65403" lon="5.96453">
        <ele>1643</ele>
        <time>2020-06-25T08:00:34Z</time>
      </trkpt>
      <trkpt lat="44.65405" lon="5.96465">
        <ele>1643</ele>
        <time>2020-06-25T08:00:44Z</time>
      </trkpt>
      <trkpt lat="44.6541" lon="5.96477">
        <ele>1645</ele>
        <time>2020-06-25T08:00:55Z</time>
      </trkpt>
      <trkpt lat="44.65417" lon="5.96485">
        <ele>1646</ele>
        <time>2020-06-25T08:01:05Z</time>
      </trkpt>
      <trkpt lat="44.65425" lon="5.96495">
        <ele>1646</ele>
        <time>2020-06-25T08:01:15Z</time>
      </trkpt>
      <trkpt lat="44.6543" lon="5.96507">
        <ele>1647</ele>
        <time>2020-06-25T08:01:22Z</time>
      </trkpt>
      <trkpt lat="44.65428" lon="5.9652">
        <ele>1648</ele>
        <time>2020-06-25T08:01:33Z</time>
      </trkpt>
      <trkpt lat="44.65427" lon="5.96533">
        <ele>1648</ele>
        <time>2020-06-25T08:01:44Z</time>
      </trkpt>
      <trkpt lat="44.65425" lon="5.96547">
        <ele>1649</ele>
        <time>2020-06-25T08:01:52Z</time>
      </trkpt>
      <trkpt lat="44.65422" lon="5.96558">
        <ele>1650</ele>
        <time>2020-06-25T08:02:01Z</time>
      </trkpt>
      <trkpt lat="44.65415" lon="5.9657">
        <ele>1650</ele>
        <time>2020-06-25T08:02:13Z</time>
      </trkpt>
      <trkpt lat="44.65407" lon="5.96578">
        <ele>1651</ele>
        <time>2020-06-25T08:02:24Z</time>
      </trkpt>
      <trkpt lat="44.65397" lon="5.96575">
        <ele>1653</ele>
        <time>2020-06-25T08:02:35Z</time>
      </trkpt>
      <trkpt lat="44.65387" lon="5.96578">
        <ele>1654</ele>
        <time>2020-06-25T08:02:46Z</time>
      </trkpt>
      <trkpt lat="44.6538" lon="5.96587">
        <ele>1656</ele>
        <time>2020-06-25T08:02:56Z</time>
      </trkpt>
      <trkpt lat="44.65373" lon="5.96597">
        <ele>1657</ele>
        <time>2020-06-25T08:03:08Z</time>
      </trkpt>
      <trkpt lat="44.6537" lon="5.96608">
        <ele>1657</ele>
        <time>2020-06-25T08:03:18Z</time>
      </trkpt>
      <trkpt lat="44.65368" lon="5.96622">
        <ele>1657</ele>
        <time>2020-06-25T08:03:27Z</time>
      </trkpt>
      <trkpt lat="44.6537" lon="5.96633">
        <ele>1658</ele>
        <time>2020-06-25T08:03:37Z</time>
      </trkpt>
      <trkpt lat="44.65372" lon="5.96647">
        <ele>1659</ele>
        <time>2020-06-25T08:03:51Z</time>
      </trkpt>
      <trkpt lat="44.6537" lon="5.96658">
        <ele>1660</ele>
        <time>2020-06-25T08:04:02Z</time>
      </trkpt>
      <trkpt lat="44.65368" lon="5.96673">
        <ele>1660</ele>
        <time>2020-06-25T08:04:13Z</time>
      </trkpt>
      <trkpt lat="44.65365" lon="5.96685">
        <ele>1662</ele>
        <time>2020-06-25T08:04:22Z</time>
      </trkpt>
      <trkpt lat="44.65363" lon="5.96697">
        <ele>1664</ele>
        <time>2020-06-25T08:04:32Z</time>
      </trkpt>
      <trkpt lat="44.65365" lon="5.9671">
        <ele>1665</ele>
        <time>2020-06-25T08:04:43Z</time>
      </trkpt>
      <trkpt lat="44.65358" lon="5.96722">
        <ele>1666</ele>
        <time>2020-06-25T08:04:55Z</time>
      </trkpt>
      <trkpt lat="44.65353" lon="5.9673">
        <ele>1667</ele>
        <time>2020-06-25T08:05:06Z</time>
      </trkpt>
      <trkpt lat="44.65347" lon="5.96742">
        <ele>1668</ele>
        <time>2020-06-25T08:05:16Z</time>
      </trkpt>
      <trkpt lat="44.65342" lon="5.96753">
        <ele>1670</ele>
        <time>2020-06-25T08:05:28Z</time>
      </trkpt>
      <trkpt lat="44.65338" lon="5.96765">
        <ele>1671</ele>
        <time>2020-06-25T08:06:34Z</time>
      </trkpt>
      <trkpt lat="44.6533" lon="5.96775">
        <ele>1671</ele>
        <time>2020-06-25T08:06:44Z</time>
      </trkpt>
      <trkpt lat="44.65323" lon="5.96785">
        <ele>1672</ele>
        <time>2020-06-25T08:07:02Z</time>
      </trkpt>
      <trkpt lat="44.65313" lon="5.96788">
        <ele>1672</ele>
        <time>2020-06-25T08:07:24Z</time>
      </trkpt>
      <trkpt lat="44.65305" lon="5.9679">
        <ele>1673</ele>
        <time>2020-06-25T08:07:35Z</time>
      </trkpt>
      <trkpt lat="44.65298" lon="5.968">
        <ele>1675</ele>
        <time>2020-06-25T08:07:45Z</time>
      </trkpt>
      <trkpt lat="44.65292" lon="5.96808">
        <ele>1676</ele>
        <time>2020-06-25T08:07:55Z</time>
      </trkpt>
      <trkpt lat="44.65285" lon="5.96818">
        <ele>1676</ele>
        <time>2020-06-25T08:08:05Z</time>
      </trkpt>
      <trkpt lat="44.65277" lon="5.96825">
        <ele>1678</ele>
        <time>2020-06-25T08:08:19Z</time>
      </trkpt>
      <trkpt lat="44.65272" lon="5.96837">
        <ele>1679</ele>
        <time>2020-06-25T08:08:27Z</time>
      </trkpt>
      <trkpt lat="44.65267" lon="5.96847">
        <ele>1679</ele>
        <time>2020-06-25T08:08:37Z</time>
      </trkpt>
      <trkpt lat="44.6526" lon="5.96857">
        <ele>1681</ele>
        <time>2020-06-25T08:08:48Z</time>
      </trkpt>
      <trkpt lat="44.65253" lon="5.96867">
        <ele>1683</ele>
        <time>2020-06-25T08:09:02Z</time>
      </trkpt>
      <trkpt lat="44.65245" lon="5.96872">
        <ele>1684</ele>
        <time>2020-06-25T08:09:17Z</time>
      </trkpt>
      <trkpt lat="44.65238" lon="5.96882">
        <ele>1685</ele>
        <time>2020-06-25T08:09:29Z</time>
      </trkpt>
      <trkpt lat="44.65232" lon="5.96892">
        <ele>1686</ele>
        <time>2020-06-25T08:09:40Z</time>
      </trkpt>
      <trkpt lat="44.65227" lon="5.96903">
        <ele>1688</ele>
        <time>2020-06-25T08:09:51Z</time>
      </trkpt>
      <trkpt lat="44.6522" lon="5.96912">
        <ele>1688</ele>
        <time>2020-06-25T08:10:03Z</time>
      </trkpt>
      <trkpt lat="44.65213" lon="5.96922">
        <ele>1690</ele>
        <time>2020-06-25T08:10:14Z</time>
      </trkpt>
      <trkpt lat="44.65205" lon="5.96928">
        <ele>1692</ele>
        <time>2020-06-25T08:10:25Z</time>
      </trkpt>
      <trkpt lat="44.65197" lon="5.96935">
        <ele>1692</ele>
        <time>2020-06-25T08:10:36Z</time>
      </trkpt>
      <trkpt lat="44.6519" lon="5.96945">
        <ele>1693</ele>
        <time>2020-06-25T08:10:47Z</time>
      </trkpt>
      <trkpt lat="44.65183" lon="5.96953">
        <ele>1695</ele>
        <time>2020-06-25T08:11:00Z</time>
      </trkpt>
      <trkpt lat="44.65173" lon="5.96957">
        <ele>1696</ele>
        <time>2020-06-25T08:11:12Z</time>
      </trkpt>
      <trkpt lat="44.65165" lon="5.9696">
        <ele>1696</ele>
        <time>2020-06-25T08:11:24Z</time>
      </trkpt>
      <trkpt lat="44.65155" lon="5.96962">
        <ele>1698</ele>
        <time>2020-06-25T08:11:38Z</time>
      </trkpt>
      <trkpt lat="44.65147" lon="5.96965">
        <ele>1700</ele>
        <time>2020-06-25T08:11:55Z</time>
      </trkpt>
      <trkpt lat="44.65138" lon="5.96967">
        <ele>1704</ele>
        <time>2020-06-25T08:12:12Z</time>
      </trkpt>
      <trkpt lat="44.65128" lon="5.9697">
        <ele>1705</ele>
        <time>2020-06-25T08:12:27Z</time>
      </trkpt>
      <trkpt lat="44.6512" lon="5.96975">
        <ele>1708</ele>
        <time>2020-06-25T08:12:43Z</time>
      </trkpt>
      <trkpt lat="44.65112" lon="5.96977">
        <ele>1710</ele>
        <time>2020-06-25T08:12:56Z</time>
      </trkpt>
      <trkpt lat="44.65102" lon="5.96978">
        <ele>1711</ele>
        <time>2020-06-25T08:13:16Z</time>
      </trkpt>
      <trkpt lat="44.65093" lon="5.96985">
        <ele>1713</ele>
        <time>2020-06-25T08:13:27Z</time>
      </trkpt>
      <trkpt lat="44.65085" lon="5.96988">
        <ele>1714</ele>
        <time>2020-06-25T08:13:39Z</time>
      </trkpt>
      <trkpt lat="44.65077" lon="5.96995">
        <ele>1717</ele>
        <time>2020-06-25T08:13:53Z</time>
      </trkpt>
      <trkpt lat="44.65068" lon="5.97002">
        <ele>1718</ele>
        <time>2020-06-25T08:14:03Z</time>
      </trkpt>
      <trkpt lat="44.65067" lon="5.97015">
        <ele>1718</ele>
        <time>2020-06-25T08:14:17Z</time>
      </trkpt>
      <trkpt lat="44.65068" lon="5.97028">
        <ele>1719</ele>
        <time>2020-06-25T08:14:33Z</time>
      </trkpt>
      <trkpt lat="44.65062" lon="5.97038">
        <ele>1719</ele>
        <time>2020-06-25T08:14:52Z</time>
      </trkpt>
      <trkpt lat="44.65055" lon="5.97048">
        <ele>1719</ele>
        <time>2020-06-25T08:15:06Z</time>
      </trkpt>
      <trkpt lat="44.65048" lon="5.97055">
        <ele>1718</ele>
        <time>2020-06-25T08:15:14Z</time>
      </trkpt>
      <trkpt lat="44.65042" lon="5.97065">
        <ele>1716</ele>
        <time>2020-06-25T08:15:28Z</time>
      </trkpt>
      <trkpt lat="44.65037" lon="5.97077">
        <ele>1714</ele>
        <time>2020-06-25T08:15:40Z</time>
      </trkpt>
      <trkpt lat="44.65032" lon="5.97087">
        <ele>1713</ele>
        <time>2020-06-25T08:15:50Z</time>
      </trkpt>
      <trkpt lat="44.65027" lon="5.97098">
        <ele>1712</ele>
        <time>2020-06-25T08:15:58Z</time>
      </trkpt>
      <trkpt lat="44.65023" lon="5.9711">
        <ele>1710</ele>
        <time>2020-06-25T08:16:05Z</time>
      </trkpt>
      <trkpt lat="44.6502" lon="5.97123">
        <ele>1710</ele>
        <time>2020-06-25T08:16:13Z</time>
      </trkpt>
      <trkpt lat="44.65017" lon="5.97135">
        <ele>1710</ele>
        <time>2020-06-25T08:16:20Z</time>
      </trkpt>
      <trkpt lat="44.65012" lon="5.97147">
        <ele>1710</ele>
        <time>2020-06-25T08:16:28Z</time>
      </trkpt>
      <trkpt lat="44.65007" lon="5.97158">
        <ele>1709</ele>
        <time>2020-06-25T08:16:37Z</time>
      </trkpt>
      <trkpt lat="44.65002" lon="5.97168">
        <ele>1709</ele>
        <time>2020-06-25T08:16:47Z</time>
      </trkpt>
      <trkpt lat="44.64995" lon="5.9718">
        <ele>1709</ele>
        <time>2020-06-25T08:16:56Z</time>
      </trkpt>
      <trkpt lat="44.6499" lon="5.97193">
        <ele>1709</ele>
        <time>2020-06-25T08:17:05Z</time>
      </trkpt>
      <trkpt lat="44.64985" lon="5.97203">
        <ele>1709</ele>
        <time>2020-06-25T08:17:14Z</time>
      </trkpt>
      <trkpt lat="44.6498" lon="5.97215">
        <ele>1710</ele>
        <time>2020-06-25T08:17:22Z</time>
      </trkpt>
      <trkpt lat="44.64977" lon="5.97228">
        <ele>1710</ele>
        <time>2020-06-25T08:17:30Z</time>
      </trkpt>
      <trkpt lat="44.64972" lon="5.9724">
        <ele>1710</ele>
        <time>2020-06-25T08:17:38Z</time>
      </trkpt>
      <trkpt lat="44.64968" lon="5.97252">
        <ele>1711</ele>
        <time>2020-06-25T08:17:45Z</time>
      </trkpt>
      <trkpt lat="44.64965" lon="5.97263">
        <ele>1711</ele>
        <time>2020-06-25T08:17:57Z</time>
      </trkpt>
      <trkpt lat="44.64958" lon="5.97273">
        <ele>1711</ele>
        <time>2020-06-25T08:18:08Z</time>
      </trkpt>
      <trkpt lat="44.6495" lon="5.9728">
        <ele>1712</ele>
        <time>2020-06-25T08:18:18Z</time>
      </trkpt>
      <trkpt lat="44.64942" lon="5.97287">
        <ele>1715</ele>
        <time>2020-06-25T08:18:30Z</time>
      </trkpt>
      <trkpt lat="44.64933" lon="5.97292">
        <ele>1716</ele>
        <time>2020-06-25T08:18:43Z</time>
      </trkpt>
      <trkpt lat="44.64927" lon="5.97302">
        <ele>1718</ele>
        <time>2020-06-25T08:18:57Z</time>
      </trkpt>
      <trkpt lat="44.64922" lon="5.97312">
        <ele>1720</ele>
        <time>2020-06-25T08:19:13Z</time>
      </trkpt>
      <trkpt lat="44.64917" lon="5.97322">
        <ele>1723</ele>
        <time>2020-06-25T08:19:37Z</time>
      </trkpt>
      <trkpt lat="44.64913" lon="5.97333">
        <ele>1725</ele>
        <time>2020-06-25T08:19:53Z</time>
      </trkpt>
      <trkpt lat="44.64907" lon="5.97343">
        <ele>1728</ele>
        <time>2020-06-25T08:20:14Z</time>
      </trkpt>
      <trkpt lat="44.64898" lon="5.9735">
        <ele>1733</ele>
        <time>2020-06-25T08:21:28Z</time>
      </trkpt>
      <trkpt lat="44.6489" lon="5.97357">
        <ele>1736</ele>
        <time>2020-06-25T08:22:02Z</time>
      </trkpt>
      <trkpt lat="44.6488" lon="5.97353">
        <ele>1739</ele>
        <time>2020-06-25T08:22:46Z</time>
      </trkpt>
      <trkpt lat="44.64873" lon="5.97362">
        <ele>1740</ele>
        <time>2020-06-25T08:22:56Z</time>
      </trkpt>
      <trkpt lat="44.64863" lon="5.97362">
        <ele>1740</ele>
        <time>2020-06-25T08:23:09Z</time>
      </trkpt>
      <trkpt lat="44.64853" lon="5.97365">
        <ele>1743</ele>
        <time>2020-06-25T08:23:24Z</time>
      </trkpt>
      <trkpt lat="44.64847" lon="5.97372">
        <ele>1745</ele>
        <time>2020-06-25T08:23:38Z</time>
      </trkpt>
      <trkpt lat="44.6484" lon="5.9738">
        <ele>1747</ele>
        <time>2020-06-25T08:23:48Z</time>
      </trkpt>
      <trkpt lat="44.64833" lon="5.9739">
        <ele>1748</ele>
        <time>2020-06-25T08:23:59Z</time>
      </trkpt>
      <trkpt lat="44.64825" lon="5.97397">
        <ele>1748</ele>
        <time>2020-06-25T08:24:10Z</time>
      </trkpt>
      <trkpt lat="44.64818" lon="5.97405">
        <ele>1749</ele>
        <time>2020-06-25T08:24:20Z</time>
      </trkpt>
      <trkpt lat="44.64812" lon="5.97415">
        <ele>1750</ele>
        <time>2020-06-25T08:24:30Z</time>
      </trkpt>
      <trkpt lat="44.64803" lon="5.97418">
        <ele>1751</ele>
        <time>2020-06-25T08:24:41Z</time>
      </trkpt>
      <trkpt lat="44.64795" lon="5.97425">
        <ele>1753</ele>
        <time>2020-06-25T08:24:53Z</time>
      </trkpt>
      <trkpt lat="44.64787" lon="5.97428">
        <ele>1753</ele>
        <time>2020-06-25T08:25:04Z</time>
      </trkpt>
      <trkpt lat="44.64777" lon="5.97428">
        <ele>1755</ele>
        <time>2020-06-25T08:25:19Z</time>
      </trkpt>
      <trkpt lat="44.64767" lon="5.9743">
        <ele>1759</ele>
        <time>2020-06-25T08:25:54Z</time>
      </trkpt>
      <trkpt lat="44.64758" lon="5.97432">
        <ele>1759</ele>
        <time>2020-06-25T08:26:04Z</time>
      </trkpt>
      <trkpt lat="44.64748" lon="5.9743">
        <ele>1760</ele>
        <time>2020-06-25T08:26:17Z</time>
      </trkpt>
      <trkpt lat="44.6474" lon="5.97435">
        <ele>1761</ele>
        <time>2020-06-25T08:26:50Z</time>
      </trkpt>
      <trkpt lat="44.64732" lon="5.9744">
        <ele>1761</ele>
        <time>2020-06-25T08:27:02Z</time>
      </trkpt>
      <trkpt lat="44.64725" lon="5.9745">
        <ele>1761</ele>
        <time>2020-06-25T08:27:12Z</time>
      </trkpt>
      <trkpt lat="44.64718" lon="5.97462">
        <ele>1763</ele>
        <time>2020-06-25T08:27:25Z</time>
      </trkpt>
      <trkpt lat="44.64713" lon="5.97472">
        <ele>1764</ele>
        <time>2020-06-25T08:27:35Z</time>
      </trkpt>
      <trkpt lat="44.64707" lon="5.97482">
        <ele>1765</ele>
        <time>2020-06-25T08:27:47Z</time>
      </trkpt>
      <trkpt lat="44.647" lon="5.9749">
        <ele>1768</ele>
        <time>2020-06-25T08:28:03Z</time>
      </trkpt>
      <trkpt lat="44.64693" lon="5.97497">
        <ele>1769</ele>
        <time>2020-06-25T08:28:16Z</time>
      </trkpt>
      <trkpt lat="44.64687" lon="5.97508">
        <ele>1770</ele>
        <time>2020-06-25T08:28:28Z</time>
      </trkpt>
      <trkpt lat="44.6468" lon="5.97517">
        <ele>1772</ele>
        <time>2020-06-25T08:28:42Z</time>
      </trkpt>
      <trkpt lat="44.64673" lon="5.97525">
        <ele>1774</ele>
        <time>2020-06-25T08:28:56Z</time>
      </trkpt>
      <trkpt lat="44.64667" lon="5.97535">
        <ele>1775</ele>
        <time>2020-06-25T08:29:08Z</time>
      </trkpt>
      <trkpt lat="44.64663" lon="5.97547">
        <ele>1777</ele>
        <time>2020-06-25T08:29:19Z</time>
      </trkpt>
      <trkpt lat="44.64657" lon="5.97557">
        <ele>1778</ele>
        <time>2020-06-25T08:29:29Z</time>
      </trkpt>
      <trkpt lat="44.6465" lon="5.97563">
        <ele>1779</ele>
        <time>2020-06-25T08:29:39Z</time>
      </trkpt>
      <trkpt lat="44.6464" lon="5.97568">
        <ele>1782</ele>
        <time>2020-06-25T08:29:51Z</time>
      </trkpt>
      <trkpt lat="44.64632" lon="5.97572">
        <ele>1783</ele>
        <time>2020-06-25T08:30:01Z</time>
      </trkpt>
      <trkpt lat="44.64623" lon="5.97578">
        <ele>1785</ele>
        <time>2020-06-25T08:30:19Z</time>
      </trkpt>
      <trkpt lat="44.64615" lon="5.97583">
        <ele>1785</ele>
        <time>2020-06-25T08:30:28Z</time>
      </trkpt>
      <trkpt lat="44.64607" lon="5.97588">
        <ele>1787</ele>
        <time>2020-06-25T08:30:41Z</time>
      </trkpt>
      <trkpt lat="44.64597" lon="5.9759">
        <ele>1788</ele>
        <time>2020-06-25T08:30:55Z</time>
      </trkpt>
      <trkpt lat="44.64588" lon="5.97595">
        <ele>1791</ele>
        <time>2020-06-25T08:31:10Z</time>
      </trkpt>
      <trkpt lat="44.64582" lon="5.97603">
        <ele>1792</ele>
        <time>2020-06-25T08:31:23Z</time>
      </trkpt>
      <trkpt lat="44.64575" lon="5.97612">
        <ele>1796</ele>
        <time>2020-06-25T08:31:38Z</time>
      </trkpt>
      <trkpt lat="44.64568" lon="5.97622">
        <ele>1798</ele>
        <time>2020-06-25T08:31:52Z</time>
      </trkpt>
      <trkpt lat="44.64563" lon="5.97633">
        <ele>1798</ele>
        <time>2020-06-25T08:32:06Z</time>
      </trkpt>
      <trkpt lat="44.64558" lon="5.97643">
        <ele>1800</ele>
        <time>2020-06-25T08:32:20Z</time>
      </trkpt>
      <trkpt lat="44.6455" lon="5.97652">
        <ele>1801</ele>
        <time>2020-06-25T08:32:37Z</time>
      </trkpt>
      <trkpt lat="44.64542" lon="5.97657">
        <ele>1803</ele>
        <time>2020-06-25T08:32:47Z</time>
      </trkpt>
      <trkpt lat="44.64533" lon="5.97665">
        <ele>1806</ele>
        <time>2020-06-25T08:33:13Z</time>
      </trkpt>
      <trkpt lat="44.64525" lon="5.97668">
        <ele>1807</ele>
        <time>2020-06-25T08:33:20Z</time>
      </trkpt>
      <trkpt lat="44.6453" lon="5.9768">
        <ele>1807</ele>
        <time>2020-06-25T08:33:27Z</time>
      </trkpt>
      <trkpt lat="44.64538" lon="5.97675">
        <ele>1806</ele>
        <time>2020-06-25T08:33:42Z</time>
      </trkpt>
      <trkpt lat="44.64532" lon="5.97683">
        <ele>1806</ele>
        <time>2020-06-25T08:34:23Z</time>
      </trkpt>
      <trkpt lat="44.64525" lon="5.97693">
        <ele>1808</ele>
        <time>2020-06-25T08:34:39Z</time>
      </trkpt>
      <trkpt lat="44.64517" lon="5.97702">
        <ele>1810</ele>
        <time>2020-06-25T08:34:58Z</time>
      </trkpt>
      <trkpt lat="44.64513" lon="5.97712">
        <ele>1812</ele>
        <time>2020-06-25T08:35:13Z</time>
      </trkpt>
      <trkpt lat="44.64508" lon="5.97723">
        <ele>1814</ele>
        <time>2020-06-25T08:35:26Z</time>
      </trkpt>
      <trkpt lat="44.64498" lon="5.97725">
        <ele>1815</ele>
        <time>2020-06-25T08:35:37Z</time>
      </trkpt>
      <trkpt lat="44.6449" lon="5.9773">
        <ele>1817</ele>
        <time>2020-06-25T08:35:51Z</time>
      </trkpt>
      <trkpt lat="44.64482" lon="5.97738">
        <ele>1819</ele>
        <time>2020-06-25T08:36:09Z</time>
      </trkpt>
      <trkpt lat="44.6448" lon="5.97752">
        <ele>1822</ele>
        <time>2020-06-25T08:36:24Z</time>
      </trkpt>
      <trkpt lat="44.64475" lon="5.97763">
        <ele>1824</ele>
        <time>2020-06-25T08:36:31Z</time>
      </trkpt>
      <trkpt lat="44.6447" lon="5.97773">
        <ele>1825</ele>
        <time>2020-06-25T08:36:43Z</time>
      </trkpt>
      <trkpt lat="44.64463" lon="5.97783">
        <ele>1828</ele>
        <time>2020-06-25T08:36:59Z</time>
      </trkpt>
      <trkpt lat="44.64455" lon="5.9779">
        <ele>1831</ele>
        <time>2020-06-25T08:37:21Z</time>
      </trkpt>
      <trkpt lat="44.64447" lon="5.97793">
        <ele>1832</ele>
        <time>2020-06-25T08:37:31Z</time>
      </trkpt>
      <trkpt lat="44.6444" lon="5.97805">
        <ele>1834</ele>
        <time>2020-06-25T08:37:43Z</time>
      </trkpt>
      <trkpt lat="44.64435" lon="5.97815">
        <ele>1835</ele>
        <time>2020-06-25T08:37:53Z</time>
      </trkpt>
      <trkpt lat="44.64428" lon="5.97823">
        <ele>1835</ele>
        <time>2020-06-25T08:38:08Z</time>
      </trkpt>
      <trkpt lat="44.6442" lon="5.9783">
        <ele>1837</ele>
        <time>2020-06-25T08:38:22Z</time>
      </trkpt>
      <trkpt lat="44.64412" lon="5.97835">
        <ele>1837</ele>
        <time>2020-06-25T08:40:01Z</time>
      </trkpt>
      <trkpt lat="44.64408" lon="5.97847">
        <ele>1838</ele>
        <time>2020-06-25T08:42:10Z</time>
      </trkpt>
      <trkpt lat="44.64403" lon="5.97835">
        <ele>1840</ele>
        <time>2020-06-25T08:43:30Z</time>
      </trkpt>
      <trkpt lat="44.64413" lon="5.97842">
        <ele>1839</ele>
        <time>2020-06-25T08:46:58Z</time>
      </trkpt>
      <trkpt lat="44.6442" lon="5.97848">
        <ele>1840</ele>
        <time>2020-06-25T08:47:47Z</time>
      </trkpt>
      <trkpt lat="44.64412" lon="5.97845">
        <ele>1840</ele>
        <time>2020-06-25T08:48:00Z</time>
      </trkpt>
      <trkpt lat="44.64405" lon="5.97853">
        <ele>1839</ele>
        <time>2020-06-25T08:48:29Z</time>
      </trkpt>
      <trkpt lat="44.644" lon="5.97843">
        <ele>1839</ele>
        <time>2020-06-25T08:48:58Z</time>
      </trkpt>
      <trkpt lat="44.64393" lon="5.97853">
        <ele>1840</ele>
        <time>2020-06-25T08:53:42Z</time>
      </trkpt>
      <trkpt lat="44.64387" lon="5.9786">
        <ele>1840</ele>
        <time>2020-06-25T08:54:00Z</time>
      </trkpt>
      <trkpt lat="44.64377" lon="5.97862">
        <ele>1840</ele>
        <time>2020-06-25T08:54:18Z</time>
      </trkpt>
      <trkpt lat="44.64368" lon="5.97867">
        <ele>1840</ele>
        <time>2020-06-25T08:54:30Z</time>
      </trkpt>
      <trkpt lat="44.64358" lon="5.9787">
        <ele>1847</ele>
        <time>2020-06-25T08:54:43Z</time>
      </trkpt>
      <trkpt lat="44.6435" lon="5.97872">
        <ele>1847</ele>
        <time>2020-06-25T08:55:00Z</time>
      </trkpt>
      <trkpt lat="44.64342" lon="5.97877">
        <ele>1848</ele>
        <time>2020-06-25T08:55:09Z</time>
      </trkpt>
      <trkpt lat="44.64332" lon="5.9788">
        <ele>1849</ele>
        <time>2020-06-25T08:55:19Z</time>
      </trkpt>
      <trkpt lat="44.64323" lon="5.97885">
        <ele>1850</ele>
        <time>2020-06-25T08:55:27Z</time>
      </trkpt>
      <trkpt lat="44.64315" lon="5.97888">
        <ele>1851</ele>
        <time>2020-06-25T08:55:37Z</time>
      </trkpt>
      <trkpt lat="44.64307" lon="5.97893">
        <ele>1851</ele>
        <time>2020-06-25T08:55:49Z</time>
      </trkpt>
      <trkpt lat="44.64297" lon="5.979">
        <ele>1853</ele>
        <time>2020-06-25T08:56:03Z</time>
      </trkpt>
      <trkpt lat="44.64292" lon="5.9791">
        <ele>1854</ele>
        <time>2020-06-25T08:56:14Z</time>
      </trkpt>
      <trkpt lat="44.64285" lon="5.9792">
        <ele>1854</ele>
        <time>2020-06-25T08:56:23Z</time>
      </trkpt>
      <trkpt lat="44.64277" lon="5.97928">
        <ele>1855</ele>
        <time>2020-06-25T08:56:34Z</time>
      </trkpt>
      <trkpt lat="44.64268" lon="5.97933">
        <ele>1856</ele>
        <time>2020-06-25T08:56:44Z</time>
      </trkpt>
      <trkpt lat="44.64262" lon="5.97943">
        <ele>1858</ele>
        <time>2020-06-25T08:56:56Z</time>
      </trkpt>
      <trkpt lat="44.64257" lon="5.97953">
        <ele>1859</ele>
        <time>2020-06-25T08:57:06Z</time>
      </trkpt>
      <trkpt lat="44.64248" lon="5.97963">
        <ele>1860</ele>
        <time>2020-06-25T08:57:16Z</time>
      </trkpt>
      <trkpt lat="44.64243" lon="5.97973">
        <ele>1861</ele>
        <time>2020-06-25T08:57:28Z</time>
      </trkpt>
      <trkpt lat="44.64238" lon="5.97985">
        <ele>1861</ele>
        <time>2020-06-25T08:57:41Z</time>
      </trkpt>
      <trkpt lat="44.64232" lon="5.97993">
        <ele>1862</ele>
        <time>2020-06-25T08:57:52Z</time>
      </trkpt>
      <trkpt lat="44.64225" lon="5.98002">
        <ele>1864</ele>
        <time>2020-06-25T08:58:07Z</time>
      </trkpt>
      <trkpt lat="44.64222" lon="5.98015">
        <ele>1865</ele>
        <time>2020-06-25T08:58:18Z</time>
      </trkpt>
      <trkpt lat="44.64222" lon="5.98027">
        <ele>1866</ele>
        <time>2020-06-25T08:58:26Z</time>
      </trkpt>
      <trkpt lat="44.64228" lon="5.98037">
        <ele>1866</ele>
        <time>2020-06-25T09:00:17Z</time>
      </trkpt>
      <trkpt lat="44.64222" lon="5.98045">
        <ele>1867</ele>
        <time>2020-06-25T09:01:21Z</time>
      </trkpt>
      <trkpt lat="44.64215" lon="5.98055">
        <ele>1869</ele>
        <time>2020-06-25T09:01:31Z</time>
      </trkpt>
      <trkpt lat="44.64207" lon="5.98065">
        <ele>1869</ele>
        <time>2020-06-25T09:01:42Z</time>
      </trkpt>
      <trkpt lat="44.64202" lon="5.98077">
        <ele>1869</ele>
        <time>2020-06-25T09:01:50Z</time>
      </trkpt>
      <trkpt lat="44.64195" lon="5.98087">
        <ele>1868</ele>
        <time>2020-06-25T09:01:59Z</time>
      </trkpt>
      <trkpt lat="44.64188" lon="5.98097">
        <ele>1868</ele>
        <time>2020-06-25T09:02:07Z</time>
      </trkpt>
      <trkpt lat="44.64182" lon="5.98107">
        <ele>1869</ele>
        <time>2020-06-25T09:02:16Z</time>
      </trkpt>
      <trkpt lat="44.64178" lon="5.9812">
        <ele>1868</ele>
        <time>2020-06-25T09:02:25Z</time>
      </trkpt>
      <trkpt lat="44.64172" lon="5.9813">
        <ele>1867</ele>
        <time>2020-06-25T09:02:34Z</time>
      </trkpt>
      <trkpt lat="44.64163" lon="5.98137">
        <ele>1867</ele>
        <time>2020-06-25T09:02:42Z</time>
      </trkpt>
      <trkpt lat="44.64155" lon="5.98142">
        <ele>1866</ele>
        <time>2020-06-25T09:02:52Z</time>
      </trkpt>
      <trkpt lat="44.6416" lon="5.98153">
        <ele>1865</ele>
        <time>2020-06-25T09:05:06Z</time>
      </trkpt>
      <trkpt lat="44.64168" lon="5.9816">
        <ele>1865</ele>
        <time>2020-06-25T09:05:32Z</time>
      </trkpt>
      <trkpt lat="44.64177" lon="5.98163">
        <ele>1864</ele>
        <time>2020-06-25T09:05:49Z</time>
      </trkpt>
      <trkpt lat="44.64187" lon="5.98167">
        <ele>1861</ele>
        <time>2020-06-25T09:06:03Z</time>
      </trkpt>
      <trkpt lat="44.64192" lon="5.98178">
        <ele>1860</ele>
        <time>2020-06-25T09:06:16Z</time>
      </trkpt>
      <trkpt lat="44.64192" lon="5.98192">
        <ele>1860</ele>
        <time>2020-06-25T09:06:23Z</time>
      </trkpt>
      <trkpt lat="44.6419" lon="5.98205">
        <ele>1860</ele>
        <time>2020-06-25T09:06:33Z</time>
      </trkpt>
      <trkpt lat="44.64195" lon="5.98218">
        <ele>1860</ele>
        <time>2020-06-25T09:06:41Z</time>
      </trkpt>
      <trkpt lat="44.642" lon="5.9823">
        <ele>1860</ele>
        <time>2020-06-25T09:06:49Z</time>
      </trkpt>
      <trkpt lat="44.64198" lon="5.98243">
        <ele>1860</ele>
        <time>2020-06-25T09:07:00Z</time>
      </trkpt>
      <trkpt lat="44.64197" lon="5.98257">
        <ele>1860</ele>
        <time>2020-06-25T09:07:11Z</time>
      </trkpt>
      <trkpt lat="44.64193" lon="5.9827">
        <ele>1860</ele>
        <time>2020-06-25T09:07:19Z</time>
      </trkpt>
      <trkpt lat="44.64193" lon="5.98282">
        <ele>1859</ele>
        <time>2020-06-25T09:07:28Z</time>
      </trkpt>
      <trkpt lat="44.64185" lon="5.9829">
        <ele>1860</ele>
        <time>2020-06-25T09:07:39Z</time>
      </trkpt>
      <trkpt lat="44.64185" lon="5.98303">
        <ele>1863</ele>
        <time>2020-06-25T09:07:58Z</time>
      </trkpt>
      <trkpt lat="44.64182" lon="5.98315">
        <ele>1866</ele>
        <time>2020-06-25T09:08:10Z</time>
      </trkpt>
      <trkpt lat="44.64188" lon="5.98325">
        <ele>1871</ele>
        <time>2020-06-25T09:08:53Z</time>
      </trkpt>
      <trkpt lat="44.64193" lon="5.98337">
        <ele>1874</ele>
        <time>2020-06-25T09:09:19Z</time>
      </trkpt>
      <trkpt lat="44.642" lon="5.98347">
        <ele>1876</ele>
        <time>2020-06-25T09:09:37Z</time>
      </trkpt>
      <trkpt lat="44.64198" lon="5.98358">
        <ele>1878</ele>
        <time>2020-06-25T09:09:52Z</time>
      </trkpt>
      <trkpt lat="44.64205" lon="5.98368">
        <ele>1881</ele>
        <time>2020-06-25T09:11:12Z</time>
      </trkpt>
      <trkpt lat="44.64205" lon="5.98382">
        <ele>1883</ele>
        <time>2020-06-25T09:11:27Z</time>
      </trkpt>
      <trkpt lat="44.64205" lon="5.98395">
        <ele>1887</ele>
        <time>2020-06-25T09:11:42Z</time>
      </trkpt>
      <trkpt lat="44.64203" lon="5.98407">
        <ele>1888</ele>
        <time>2020-06-25T09:12:07Z</time>
      </trkpt>
      <trkpt lat="44.64202" lon="5.9842">
        <ele>1891</ele>
        <time>2020-06-25T09:12:25Z</time>
      </trkpt>
      <trkpt lat="44.64197" lon="5.98432">
        <ele>1893</ele>
        <time>2020-06-25T09:12:41Z</time>
      </trkpt>
      <trkpt lat="44.64192" lon="5.98442">
        <ele>1894</ele>
        <time>2020-06-25T09:12:55Z</time>
      </trkpt>
      <trkpt lat="44.64187" lon="5.98453">
        <ele>1897</ele>
        <time>2020-06-25T09:13:07Z</time>
      </trkpt>
      <trkpt lat="44.64178" lon="5.9846">
        <ele>1898</ele>
        <time>2020-06-25T09:13:18Z</time>
      </trkpt>
      <trkpt lat="44.64173" lon="5.98472">
        <ele>1901</ele>
        <time>2020-06-25T09:13:34Z</time>
      </trkpt>
      <trkpt lat="44.64168" lon="5.98482">
        <ele>1903</ele>
        <time>2020-06-25T09:13:48Z</time>
      </trkpt>
      <trkpt lat="44.64162" lon="5.98493">
        <ele>1904</ele>
        <time>2020-06-25T09:14:00Z</time>
      </trkpt>
      <trkpt lat="44.64155" lon="5.985">
        <ele>1905</ele>
        <time>2020-06-25T09:14:10Z</time>
      </trkpt>
      <trkpt lat="44.64148" lon="5.9851">
        <ele>1905</ele>
        <time>2020-06-25T09:14:21Z</time>
      </trkpt>
      <trkpt lat="44.64142" lon="5.9852">
        <ele>1906</ele>
        <time>2020-06-25T09:14:31Z</time>
      </trkpt>
      <trkpt lat="44.64137" lon="5.9853">
        <ele>1905</ele>
        <time>2020-06-25T09:14:41Z</time>
      </trkpt>
      <trkpt lat="44.64132" lon="5.9854">
        <ele>1905</ele>
        <time>2020-06-25T09:14:55Z</time>
      </trkpt>
      <trkpt lat="44.64127" lon="5.98552">
        <ele>1905</ele>
        <time>2020-06-25T09:15:07Z</time>
      </trkpt>
      <trkpt lat="44.64123" lon="5.98563">
        <ele>1906</ele>
        <time>2020-06-25T09:15:56Z</time>
      </trkpt>
      <trkpt lat="44.64132" lon="5.9856">
        <ele>1904</ele>
        <time>2020-06-25T09:17:37Z</time>
      </trkpt>
      <trkpt lat="44.64125" lon="5.98552">
        <ele>1905</ele>
        <time>2020-06-25T09:18:08Z</time>
      </trkpt>
      <trkpt lat="44.64133" lon="5.98557">
        <ele>1906</ele>
        <time>2020-06-25T09:20:15Z</time>
      </trkpt>
      <trkpt lat="44.64128" lon="5.98568">
        <ele>1906</ele>
        <time>2020-06-25T09:21:32Z</time>
      </trkpt>
      <trkpt lat="44.64125" lon="5.9858">
        <ele>1905</ele>
        <time>2020-06-25T09:21:43Z</time>
      </trkpt>
      <trkpt lat="44.6412" lon="5.98592">
        <ele>1905</ele>
        <time>2020-06-25T09:21:52Z</time>
      </trkpt>
      <trkpt lat="44.64115" lon="5.98602">
        <ele>1904</ele>
        <time>2020-06-25T09:22:00Z</time>
      </trkpt>
      <trkpt lat="44.6411" lon="5.98613">
        <ele>1904</ele>
        <time>2020-06-25T09:22:10Z</time>
      </trkpt>
      <trkpt lat="44.64103" lon="5.98622">
        <ele>1903</ele>
        <time>2020-06-25T09:22:18Z</time>
      </trkpt>
      <trkpt lat="44.64097" lon="5.98632">
        <ele>1902</ele>
        <time>2020-06-25T09:22:27Z</time>
      </trkpt>
      <trkpt lat="44.6409" lon="5.98643">
        <ele>1901</ele>
        <time>2020-06-25T09:22:36Z</time>
      </trkpt>
      <trkpt lat="44.64087" lon="5.98657">
        <ele>1901</ele>
        <time>2020-06-25T09:22:48Z</time>
      </trkpt>
      <trkpt lat="44.64082" lon="5.98668">
        <ele>1901</ele>
        <time>2020-06-25T09:22:54Z</time>
      </trkpt>
      <trkpt lat="44.64073" lon="5.98675">
        <ele>1901</ele>
        <time>2020-06-25T09:23:07Z</time>
      </trkpt>
      <trkpt lat="44.64067" lon="5.98682">
        <ele>1901</ele>
        <time>2020-06-25T09:23:18Z</time>
      </trkpt>
      <trkpt lat="44.64058" lon="5.98688">
        <ele>1901</ele>
        <time>2020-06-25T09:23:34Z</time>
      </trkpt>
      <trkpt lat="44.6405" lon="5.98693">
        <ele>1901</ele>
        <time>2020-06-25T09:23:41Z</time>
      </trkpt>
      <trkpt lat="44.64042" lon="5.98702">
        <ele>1900</ele>
        <time>2020-06-25T09:23:49Z</time>
      </trkpt>
      <trkpt lat="44.64033" lon="5.98705">
        <ele>1898</ele>
        <time>2020-06-25T09:23:58Z</time>
      </trkpt>
      <trkpt lat="44.64027" lon="5.98695">
        <ele>1898</ele>
        <time>2020-06-25T09:26:06Z</time>
      </trkpt>
      <trkpt lat="44.64033" lon="5.98687">
        <ele>1899</ele>
        <time>2020-06-25T09:27:35Z</time>
      </trkpt>
      <trkpt lat="44.64025" lon="5.98687">
        <ele>1898</ele>
        <time>2020-06-25T09:28:36Z</time>
      </trkpt>
      <trkpt lat="44.64017" lon="5.98692">
        <ele>1899</ele>
        <time>2020-06-25T09:29:21Z</time>
      </trkpt>
      <trkpt lat="44.64025" lon="5.98692">
        <ele>1901</ele>
        <time>2020-06-25T09:33:12Z</time>
      </trkpt>
      <trkpt lat="44.64035" lon="5.98693">
        <ele>1903</ele>
        <time>2020-06-25T09:34:00Z</time>
      </trkpt>
      <trkpt lat="44.64027" lon="5.98688">
        <ele>1908</ele>
        <time>2020-06-25T09:51:26Z</time>
      </trkpt>
      <trkpt lat="44.64032" lon="5.98698">
        <ele>1907</ele>
        <time>2020-06-25T09:54:01Z</time>
      </trkpt>
      <trkpt lat="44.64035" lon="5.98685">
        <ele>1907</ele>
        <time>2020-06-25T09:55:22Z</time>
      </trkpt>
      <trkpt lat="44.64032" lon="5.98698">
        <ele>1907</ele>
        <time>2020-06-25T09:55:35Z</time>
      </trkpt>
      <trkpt lat="44.64022" lon="5.98698">
        <ele>1905</ele>
        <time>2020-06-25T10:11:21Z</time>
      </trkpt>
      <trkpt lat="44.64028" lon="5.98692">
        <ele>1905</ele>
        <time>2020-06-25T10:20:12Z</time>
      </trkpt>
      <trkpt lat="44.64022" lon="5.98698">
        <ele>1905</ele>
        <time>2020-06-25T10:36:23Z</time>
      </trkpt>
      <trkpt lat="44.6403" lon="5.98697">
        <ele>1908</ele>
        <time>2020-06-25T10:50:06Z</time>
      </trkpt>
      <trkpt lat="44.6404" lon="5.98697">
        <ele>1913</ele>
        <time>2020-06-25T11:09:18Z</time>
      </trkpt>
      <trkpt lat="44.6403" lon="5.98692">
        <ele>1913</ele>
        <time>2020-06-25T11:14:08Z</time>
      </trkpt>
      <trkpt lat="44.64037" lon="5.98683">
        <ele>1913</ele>
        <time>2020-06-25T11:17:38Z</time>
      </trkpt>
      <trkpt lat="44.64042" lon="5.98672">
        <ele>1913</ele>
        <time>2020-06-25T11:17:48Z</time>
      </trkpt>
      <trkpt lat="44.64047" lon="5.9866">
        <ele>1913</ele>
        <time>2020-06-25T11:17:59Z</time>
      </trkpt>
      <trkpt lat="44.64053" lon="5.9865">
        <ele>1913</ele>
        <time>2020-06-25T11:18:11Z</time>
      </trkpt>
      <trkpt lat="44.64055" lon="5.98638">
        <ele>1914</ele>
        <time>2020-06-25T11:18:24Z</time>
      </trkpt>
      <trkpt lat="44.6406" lon="5.98627">
        <ele>1914</ele>
        <time>2020-06-25T11:18:37Z</time>
      </trkpt>
      <trkpt lat="44.64063" lon="5.98615">
        <ele>1914</ele>
        <time>2020-06-25T11:18:48Z</time>
      </trkpt>
      <trkpt lat="44.64068" lon="5.98603">
        <ele>1914</ele>
        <time>2020-06-25T11:19:07Z</time>
      </trkpt>
      <trkpt lat="44.64073" lon="5.98593">
        <ele>1914</ele>
        <time>2020-06-25T11:19:20Z</time>
      </trkpt>
      <trkpt lat="44.64078" lon="5.98582">
        <ele>1914</ele>
        <time>2020-06-25T11:19:31Z</time>
      </trkpt>
      <trkpt lat="44.6408" lon="5.98568">
        <ele>1914</ele>
        <time>2020-06-25T11:19:42Z</time>
      </trkpt>
      <trkpt lat="44.64083" lon="5.98555">
        <ele>1915</ele>
        <time>2020-06-25T11:19:55Z</time>
      </trkpt>
      <trkpt lat="44.64085" lon="5.98542">
        <ele>1915</ele>
        <time>2020-06-25T11:20:05Z</time>
      </trkpt>
      <trkpt lat="44.64088" lon="5.9853">
        <ele>1915</ele>
        <time>2020-06-25T11:20:16Z</time>
      </trkpt>
      <trkpt lat="44.64092" lon="5.98518">
        <ele>1915</ele>
        <time>2020-06-25T11:20:27Z</time>
      </trkpt>
      <trkpt lat="44.64097" lon="5.98507">
        <ele>1915</ele>
        <time>2020-06-25T11:20:37Z</time>
      </trkpt>
      <trkpt lat="44.64103" lon="5.98497">
        <ele>1916</ele>
        <time>2020-06-25T11:20:49Z</time>
      </trkpt>
      <trkpt lat="44.64108" lon="5.98487">
        <ele>1916</ele>
        <time>2020-06-25T11:21:01Z</time>
      </trkpt>
      <trkpt lat="44.64115" lon="5.98477">
        <ele>1916</ele>
        <time>2020-06-25T11:21:12Z</time>
      </trkpt>
      <trkpt lat="44.64122" lon="5.98467">
        <ele>1917</ele>
        <time>2020-06-25T11:21:23Z</time>
      </trkpt>
      <trkpt lat="44.64127" lon="5.98453">
        <ele>1917</ele>
        <time>2020-06-25T11:21:35Z</time>
      </trkpt>
      <trkpt lat="44.64132" lon="5.98443">
        <ele>1917</ele>
        <time>2020-06-25T11:21:48Z</time>
      </trkpt>
      <trkpt lat="44.6414" lon="5.98437">
        <ele>1917</ele>
        <time>2020-06-25T11:22:01Z</time>
      </trkpt>
      <trkpt lat="44.64148" lon="5.98432">
        <ele>1918</ele>
        <time>2020-06-25T11:22:13Z</time>
      </trkpt>
      <trkpt lat="44.64158" lon="5.98432">
        <ele>1917</ele>
        <time>2020-06-25T11:22:25Z</time>
      </trkpt>
      <trkpt lat="44.64167" lon="5.98425">
        <ele>1913</ele>
        <time>2020-06-25T11:22:40Z</time>
      </trkpt>
      <trkpt lat="44.64172" lon="5.98415">
        <ele>1912</ele>
        <time>2020-06-25T11:22:52Z</time>
      </trkpt>
      <trkpt lat="44.64175" lon="5.98403">
        <ele>1911</ele>
        <time>2020-06-25T11:23:00Z</time>
      </trkpt>
      <trkpt lat="44.64183" lon="5.98397">
        <ele>1911</ele>
        <time>2020-06-25T11:23:08Z</time>
      </trkpt>
      <trkpt lat="44.64193" lon="5.98392">
        <ele>1910</ele>
        <time>2020-06-25T11:23:16Z</time>
      </trkpt>
      <trkpt lat="44.64202" lon="5.98385">
        <ele>1908</ele>
        <time>2020-06-25T11:23:26Z</time>
      </trkpt>
      <trkpt lat="44.64208" lon="5.98375">
        <ele>1905</ele>
        <time>2020-06-25T11:23:38Z</time>
      </trkpt>
      <trkpt lat="44.64207" lon="5.98362">
        <ele>1905</ele>
        <time>2020-06-25T11:23:51Z</time>
      </trkpt>
      <trkpt lat="44.64207" lon="5.98348">
        <ele>1905</ele>
        <time>2020-06-25T11:24:01Z</time>
      </trkpt>
      <trkpt lat="44.6421" lon="5.98337">
        <ele>1905</ele>
        <time>2020-06-25T11:24:11Z</time>
      </trkpt>
      <trkpt lat="44.64215" lon="5.98323">
        <ele>1905</ele>
        <time>2020-06-25T11:24:22Z</time>
      </trkpt>
      <trkpt lat="44.6422" lon="5.98313">
        <ele>1905</ele>
        <time>2020-06-25T11:24:33Z</time>
      </trkpt>
      <trkpt lat="44.6422" lon="5.983">
        <ele>1906</ele>
        <time>2020-06-25T11:24:42Z</time>
      </trkpt>
      <trkpt lat="44.64222" lon="5.98287">
        <ele>1904</ele>
        <time>2020-06-25T11:24:52Z</time>
      </trkpt>
      <trkpt lat="44.64222" lon="5.98273">
        <ele>1904</ele>
        <time>2020-06-25T11:25:02Z</time>
      </trkpt>
      <trkpt lat="44.64223" lon="5.9826">
        <ele>1905</ele>
        <time>2020-06-25T11:25:11Z</time>
      </trkpt>
      <trkpt lat="44.64223" lon="5.98247">
        <ele>1906</ele>
        <time>2020-06-25T11:25:20Z</time>
      </trkpt>
      <trkpt lat="44.64223" lon="5.98233">
        <ele>1907</ele>
        <time>2020-06-25T11:25:30Z</time>
      </trkpt>
      <trkpt lat="44.64228" lon="5.98222">
        <ele>1905</ele>
        <time>2020-06-25T11:25:46Z</time>
      </trkpt>
      <trkpt lat="44.64228" lon="5.98208">
        <ele>1906</ele>
        <time>2020-06-25T11:26:23Z</time>
      </trkpt>
      <trkpt lat="44.64228" lon="5.98195">
        <ele>1908</ele>
        <time>2020-06-25T11:26:34Z</time>
      </trkpt>
      <trkpt lat="44.64233" lon="5.98183">
        <ele>1908</ele>
        <time>2020-06-25T11:26:44Z</time>
      </trkpt>
      <trkpt lat="44.64233" lon="5.98172">
        <ele>1908</ele>
        <time>2020-06-25T11:26:51Z</time>
      </trkpt>
      <trkpt lat="44.64233" lon="5.98158">
        <ele>1905</ele>
        <time>2020-06-25T11:27:00Z</time>
      </trkpt>
      <trkpt lat="44.64237" lon="5.98145">
        <ele>1904</ele>
        <time>2020-06-25T11:27:10Z</time>
      </trkpt>
      <trkpt lat="44.64243" lon="5.98135">
        <ele>1904</ele>
        <time>2020-06-25T11:27:20Z</time>
      </trkpt>
      <trkpt lat="44.6425" lon="5.98127">
        <ele>1904</ele>
        <time>2020-06-25T11:27:31Z</time>
      </trkpt>
      <trkpt lat="44.64253" lon="5.98115">
        <ele>1907</ele>
        <time>2020-06-25T11:27:53Z</time>
      </trkpt>
      <trkpt lat="44.6426" lon="5.98107">
        <ele>1907</ele>
        <time>2020-06-25T11:28:20Z</time>
      </trkpt>
      <trkpt lat="44.64267" lon="5.98097">
        <ele>1907</ele>
        <time>2020-06-25T11:28:31Z</time>
      </trkpt>
      <trkpt lat="44.64272" lon="5.98087">
        <ele>1907</ele>
        <time>2020-06-25T11:28:41Z</time>
      </trkpt>
      <trkpt lat="44.64278" lon="5.98078">
        <ele>1907</ele>
        <time>2020-06-25T11:28:49Z</time>
      </trkpt>
      <trkpt lat="44.64285" lon="5.98068">
        <ele>1907</ele>
        <time>2020-06-25T11:28:58Z</time>
      </trkpt>
      <trkpt lat="44.64293" lon="5.9806">
        <ele>1908</ele>
        <time>2020-06-25T11:29:07Z</time>
      </trkpt>
      <trkpt lat="44.64302" lon="5.98053">
        <ele>1907</ele>
        <time>2020-06-25T11:29:17Z</time>
      </trkpt>
      <trkpt lat="44.64307" lon="5.98043">
        <ele>1906</ele>
        <time>2020-06-25T11:29:28Z</time>
      </trkpt>
      <trkpt lat="44.64313" lon="5.98033">
        <ele>1905</ele>
        <time>2020-06-25T11:29:37Z</time>
      </trkpt>
      <trkpt lat="44.64322" lon="5.98025">
        <ele>1904</ele>
        <time>2020-06-25T11:29:46Z</time>
      </trkpt>
      <trkpt lat="44.6433" lon="5.98022">
        <ele>1904</ele>
        <time>2020-06-25T11:29:52Z</time>
      </trkpt>
      <trkpt lat="44.64338" lon="5.98018">
        <ele>1902</ele>
        <time>2020-06-25T11:30:00Z</time>
      </trkpt>
      <trkpt lat="44.64347" lon="5.9801">
        <ele>1902</ele>
        <time>2020-06-25T11:30:09Z</time>
      </trkpt>
      <trkpt lat="44.64355" lon="5.98005">
        <ele>1902</ele>
        <time>2020-06-25T11:30:20Z</time>
      </trkpt>
      <trkpt lat="44.64363" lon="5.97998">
        <ele>1901</ele>
        <time>2020-06-25T11:30:29Z</time>
      </trkpt>
      <trkpt lat="44.6437" lon="5.97988">
        <ele>1900</ele>
        <time>2020-06-25T11:30:38Z</time>
      </trkpt>
      <trkpt lat="44.64377" lon="5.97978">
        <ele>1899</ele>
        <time>2020-06-25T11:30:49Z</time>
      </trkpt>
      <trkpt lat="44.64383" lon="5.97972">
        <ele>1897</ele>
        <time>2020-06-25T11:31:00Z</time>
      </trkpt>
      <trkpt lat="44.64392" lon="5.97967">
        <ele>1896</ele>
        <time>2020-06-25T11:31:10Z</time>
      </trkpt>
      <trkpt lat="44.64398" lon="5.97957">
        <ele>1895</ele>
        <time>2020-06-25T11:31:22Z</time>
      </trkpt>
      <trkpt lat="44.64407" lon="5.9795">
        <ele>1894</ele>
        <time>2020-06-25T11:31:33Z</time>
      </trkpt>
      <trkpt lat="44.644" lon="5.9794">
        <ele>1892</ele>
        <time>2020-06-25T11:31:42Z</time>
      </trkpt>
      <trkpt lat="44.64393" lon="5.97928">
        <ele>1889</ele>
        <time>2020-06-25T11:31:52Z</time>
      </trkpt>
      <trkpt lat="44.64387" lon="5.9792">
        <ele>1888</ele>
        <time>2020-06-25T11:32:01Z</time>
      </trkpt>
      <trkpt lat="44.64397" lon="5.97915">
        <ele>1887</ele>
        <time>2020-06-25T11:33:01Z</time>
      </trkpt>
      <trkpt lat="44.64405" lon="5.97912">
        <ele>1887</ele>
        <time>2020-06-25T11:33:11Z</time>
      </trkpt>
      <trkpt lat="44.64415" lon="5.97908">
        <ele>1886</ele>
        <time>2020-06-25T11:33:16Z</time>
      </trkpt>
      <trkpt lat="44.64423" lon="5.97907">
        <ele>1885</ele>
        <time>2020-06-25T11:33:27Z</time>
      </trkpt>
      <trkpt lat="44.64433" lon="5.97905">
        <ele>1885</ele>
        <time>2020-06-25T11:33:34Z</time>
      </trkpt>
      <trkpt lat="44.64438" lon="5.97895">
        <ele>1884</ele>
        <time>2020-06-25T11:33:46Z</time>
      </trkpt>
      <trkpt lat="44.64447" lon="5.97887">
        <ele>1884</ele>
        <time>2020-06-25T11:33:54Z</time>
      </trkpt>
      <trkpt lat="44.64445" lon="5.97872">
        <ele>1884</ele>
        <time>2020-06-25T11:34:02Z</time>
      </trkpt>
      <trkpt lat="44.64453" lon="5.97865">
        <ele>1883</ele>
        <time>2020-06-25T11:34:17Z</time>
      </trkpt>
      <trkpt lat="44.64463" lon="5.97863">
        <ele>1882</ele>
        <time>2020-06-25T11:34:25Z</time>
      </trkpt>
      <trkpt lat="44.64472" lon="5.97862">
        <ele>1881</ele>
        <time>2020-06-25T11:34:35Z</time>
      </trkpt>
      <trkpt lat="44.64482" lon="5.97857">
        <ele>1881</ele>
        <time>2020-06-25T11:34:47Z</time>
      </trkpt>
      <trkpt lat="44.64492" lon="5.97857">
        <ele>1880</ele>
        <time>2020-06-25T11:34:59Z</time>
      </trkpt>
      <trkpt lat="44.645" lon="5.97852">
        <ele>1880</ele>
        <time>2020-06-25T11:35:27Z</time>
      </trkpt>
      <trkpt lat="44.64508" lon="5.97855">
        <ele>1879</ele>
        <time>2020-06-25T11:35:37Z</time>
      </trkpt>
      <trkpt lat="44.64518" lon="5.9786">
        <ele>1874</ele>
        <time>2020-06-25T11:36:03Z</time>
      </trkpt>
      <trkpt lat="44.64527" lon="5.97857">
        <ele>1873</ele>
        <time>2020-06-25T11:36:14Z</time>
      </trkpt>
      <trkpt lat="44.64533" lon="5.97847">
        <ele>1873</ele>
        <time>2020-06-25T11:36:21Z</time>
      </trkpt>
      <trkpt lat="44.6454" lon="5.97837">
        <ele>1872</ele>
        <time>2020-06-25T11:36:41Z</time>
      </trkpt>
      <trkpt lat="44.64548" lon="5.97833">
        <ele>1871</ele>
        <time>2020-06-25T11:36:48Z</time>
      </trkpt>
      <trkpt lat="44.64558" lon="5.97827">
        <ele>1869</ele>
        <time>2020-06-25T11:36:58Z</time>
      </trkpt>
      <trkpt lat="44.64567" lon="5.9782">
        <ele>1869</ele>
        <time>2020-06-25T11:37:07Z</time>
      </trkpt>
      <trkpt lat="44.64575" lon="5.97812">
        <ele>1868</ele>
        <time>2020-06-25T11:37:17Z</time>
      </trkpt>
      <trkpt lat="44.64585" lon="5.97807">
        <ele>1868</ele>
        <time>2020-06-25T11:37:25Z</time>
      </trkpt>
      <trkpt lat="44.64595" lon="5.97808">
        <ele>1867</ele>
        <time>2020-06-25T11:37:31Z</time>
      </trkpt>
      <trkpt lat="44.64607" lon="5.97805">
        <ele>1865</ele>
        <time>2020-06-25T11:37:37Z</time>
      </trkpt>
      <trkpt lat="44.64615" lon="5.97802">
        <ele>1864</ele>
        <time>2020-06-25T11:37:47Z</time>
      </trkpt>
      <trkpt lat="44.64623" lon="5.97795">
        <ele>1862</ele>
        <time>2020-06-25T11:37:58Z</time>
      </trkpt>
      <trkpt lat="44.64632" lon="5.9779">
        <ele>1861</ele>
        <time>2020-06-25T11:38:08Z</time>
      </trkpt>
      <trkpt lat="44.64643" lon="5.97788">
        <ele>1861</ele>
        <time>2020-06-25T11:38:18Z</time>
      </trkpt>
      <trkpt lat="44.64652" lon="5.9779">
        <ele>1860</ele>
        <time>2020-06-25T11:38:38Z</time>
      </trkpt>
      <trkpt lat="44.6466" lon="5.97783">
        <ele>1859</ele>
        <time>2020-06-25T11:38:47Z</time>
      </trkpt>
      <trkpt lat="44.6467" lon="5.97778">
        <ele>1857</ele>
        <time>2020-06-25T11:38:58Z</time>
      </trkpt>
      <trkpt lat="44.6468" lon="5.97778">
        <ele>1855</ele>
        <time>2020-06-25T11:39:06Z</time>
      </trkpt>
      <trkpt lat="44.6469" lon="5.97777">
        <ele>1855</ele>
        <time>2020-06-25T11:39:15Z</time>
      </trkpt>
      <trkpt lat="44.64698" lon="5.9777">
        <ele>1854</ele>
        <time>2020-06-25T11:39:25Z</time>
      </trkpt>
      <trkpt lat="44.64703" lon="5.9776">
        <ele>1853</ele>
        <time>2020-06-25T11:39:34Z</time>
      </trkpt>
      <trkpt lat="44.64712" lon="5.97752">
        <ele>1852</ele>
        <time>2020-06-25T11:39:45Z</time>
      </trkpt>
      <trkpt lat="44.6472" lon="5.97747">
        <ele>1852</ele>
        <time>2020-06-25T11:39:53Z</time>
      </trkpt>
      <trkpt lat="44.64728" lon="5.97738">
        <ele>1850</ele>
        <time>2020-06-25T11:40:04Z</time>
      </trkpt>
      <trkpt lat="44.64737" lon="5.97733">
        <ele>1849</ele>
        <time>2020-06-25T11:40:13Z</time>
      </trkpt>
      <trkpt lat="44.64745" lon="5.97733">
        <ele>1848</ele>
        <time>2020-06-25T11:41:51Z</time>
      </trkpt>
      <trkpt lat="44.64753" lon="5.97727">
        <ele>1847</ele>
        <time>2020-06-25T11:42:00Z</time>
      </trkpt>
      <trkpt lat="44.64763" lon="5.97723">
        <ele>1846</ele>
        <time>2020-06-25T11:42:08Z</time>
      </trkpt>
      <trkpt lat="44.6477" lon="5.97717">
        <ele>1846</ele>
        <time>2020-06-25T11:42:20Z</time>
      </trkpt>
      <trkpt lat="44.6478" lon="5.97713">
        <ele>1845</ele>
        <time>2020-06-25T11:42:30Z</time>
      </trkpt>
      <trkpt lat="44.64788" lon="5.97712">
        <ele>1842</ele>
        <time>2020-06-25T11:42:47Z</time>
      </trkpt>
      <trkpt lat="44.64797" lon="5.97708">
        <ele>1841</ele>
        <time>2020-06-25T11:43:00Z</time>
      </trkpt>
      <trkpt lat="44.64805" lon="5.97702">
        <ele>1839</ele>
        <time>2020-06-25T11:43:19Z</time>
      </trkpt>
      <trkpt lat="44.64812" lon="5.97693">
        <ele>1838</ele>
        <time>2020-06-25T11:43:36Z</time>
      </trkpt>
      <trkpt lat="44.64822" lon="5.97688">
        <ele>1837</ele>
        <time>2020-06-25T11:43:46Z</time>
      </trkpt>
      <trkpt lat="44.64832" lon="5.97688">
        <ele>1836</ele>
        <time>2020-06-25T11:43:58Z</time>
      </trkpt>
      <trkpt lat="44.64842" lon="5.97688">
        <ele>1833</ele>
        <time>2020-06-25T11:44:06Z</time>
      </trkpt>
      <trkpt lat="44.6485" lon="5.97692">
        <ele>1833</ele>
        <time>2020-06-25T11:44:14Z</time>
      </trkpt>
      <trkpt lat="44.64858" lon="5.97695">
        <ele>1831</ele>
        <time>2020-06-25T11:44:27Z</time>
      </trkpt>
      <trkpt lat="44.64867" lon="5.9769">
        <ele>1829</ele>
        <time>2020-06-25T11:44:40Z</time>
      </trkpt>
      <trkpt lat="44.64875" lon="5.97682">
        <ele>1828</ele>
        <time>2020-06-25T11:44:49Z</time>
      </trkpt>
      <trkpt lat="44.64883" lon="5.97673">
        <ele>1828</ele>
        <time>2020-06-25T11:44:57Z</time>
      </trkpt>
      <trkpt lat="44.64892" lon="5.97668">
        <ele>1828</ele>
        <time>2020-06-25T11:45:04Z</time>
      </trkpt>
      <trkpt lat="44.64902" lon="5.97667">
        <ele>1827</ele>
        <time>2020-06-25T11:45:13Z</time>
      </trkpt>
      <trkpt lat="44.64912" lon="5.97668">
        <ele>1826</ele>
        <time>2020-06-25T11:45:20Z</time>
      </trkpt>
      <trkpt lat="44.64922" lon="5.9767">
        <ele>1825</ele>
        <time>2020-06-25T11:45:27Z</time>
      </trkpt>
      <trkpt lat="44.6493" lon="5.97672">
        <ele>1825</ele>
        <time>2020-06-25T11:45:32Z</time>
      </trkpt>
      <trkpt lat="44.64938" lon="5.97675">
        <ele>1825</ele>
        <time>2020-06-25T11:45:40Z</time>
      </trkpt>
      <trkpt lat="44.64948" lon="5.97678">
        <ele>1823</ele>
        <time>2020-06-25T11:45:51Z</time>
      </trkpt>
      <trkpt lat="44.6496" lon="5.97677">
        <ele>1822</ele>
        <time>2020-06-25T11:45:59Z</time>
      </trkpt>
      <trkpt lat="44.6497" lon="5.97677">
        <ele>1822</ele>
        <time>2020-06-25T11:46:06Z</time>
      </trkpt>
      <trkpt lat="44.6498" lon="5.9768">
        <ele>1822</ele>
        <time>2020-06-25T11:46:14Z</time>
      </trkpt>
      <trkpt lat="44.6499" lon="5.97678">
        <ele>1821</ele>
        <time>2020-06-25T11:46:20Z</time>
      </trkpt>
      <trkpt lat="44.64998" lon="5.9767">
        <ele>1819</ele>
        <time>2020-06-25T11:46:31Z</time>
      </trkpt>
      <trkpt lat="44.6501" lon="5.97665">
        <ele>1819</ele>
        <time>2020-06-25T11:46:34Z</time>
      </trkpt>
      <trkpt lat="44.6502" lon="5.97665">
        <ele>1818</ele>
        <time>2020-06-25T11:46:39Z</time>
      </trkpt>
      <trkpt lat="44.65028" lon="5.97663">
        <ele>1817</ele>
        <time>2020-06-25T11:46:42Z</time>
      </trkpt>
      <trkpt lat="44.6504" lon="5.97665">
        <ele>1817</ele>
        <time>2020-06-25T11:46:46Z</time>
      </trkpt>
      <trkpt lat="44.6505" lon="5.97667">
        <ele>1816</ele>
        <time>2020-06-25T11:46:50Z</time>
      </trkpt>
      <trkpt lat="44.65058" lon="5.97667">
        <ele>1815</ele>
        <time>2020-06-25T11:46:56Z</time>
      </trkpt>
      <trkpt lat="44.65068" lon="5.9767">
        <ele>1814</ele>
        <time>2020-06-25T11:47:05Z</time>
      </trkpt>
      <trkpt lat="44.65077" lon="5.97665">
        <ele>1813</ele>
        <time>2020-06-25T11:47:14Z</time>
      </trkpt>
      <trkpt lat="44.65087" lon="5.97663">
        <ele>1812</ele>
        <time>2020-06-25T11:47:21Z</time>
      </trkpt>
      <trkpt lat="44.65097" lon="5.9766">
        <ele>1811</ele>
        <time>2020-06-25T11:47:28Z</time>
      </trkpt>
      <trkpt lat="44.65107" lon="5.97655">
        <ele>1810</ele>
        <time>2020-06-25T11:47:35Z</time>
      </trkpt>
      <trkpt lat="44.65113" lon="5.9765">
        <ele>1810</ele>
        <time>2020-06-25T11:47:42Z</time>
      </trkpt>
      <trkpt lat="44.6512" lon="5.97642">
        <ele>1808</ele>
        <time>2020-06-25T11:47:51Z</time>
      </trkpt>
      <trkpt lat="44.65128" lon="5.97633">
        <ele>1805</ele>
        <time>2020-06-25T11:48:01Z</time>
      </trkpt>
      <trkpt lat="44.65137" lon="5.97632">
        <ele>1805</ele>
        <time>2020-06-25T11:48:08Z</time>
      </trkpt>
      <trkpt lat="44.65147" lon="5.97635">
        <ele>1804</ele>
        <time>2020-06-25T11:49:15Z</time>
      </trkpt>
      <trkpt lat="44.65155" lon="5.9763">
        <ele>1802</ele>
        <time>2020-06-25T11:49:24Z</time>
      </trkpt>
      <trkpt lat="44.6516" lon="5.97618">
        <ele>1801</ele>
        <time>2020-06-25T11:49:37Z</time>
      </trkpt>
      <trkpt lat="44.65168" lon="5.9761">
        <ele>1800</ele>
        <time>2020-06-25T11:49:47Z</time>
      </trkpt>
      <trkpt lat="44.65178" lon="5.97602">
        <ele>1800</ele>
        <time>2020-06-25T11:49:57Z</time>
      </trkpt>
      <trkpt lat="44.65188" lon="5.976">
        <ele>1798</ele>
        <time>2020-06-25T11:50:03Z</time>
      </trkpt>
      <trkpt lat="44.65198" lon="5.97595">
        <ele>1796</ele>
        <time>2020-06-25T11:50:09Z</time>
      </trkpt>
      <trkpt lat="44.65207" lon="5.97588">
        <ele>1796</ele>
        <time>2020-06-25T11:50:16Z</time>
      </trkpt>
      <trkpt lat="44.65215" lon="5.97583">
        <ele>1795</ele>
        <time>2020-06-25T11:50:25Z</time>
      </trkpt>
      <trkpt lat="44.65223" lon="5.97578">
        <ele>1794</ele>
        <time>2020-06-25T11:50:34Z</time>
      </trkpt>
      <trkpt lat="44.65233" lon="5.97575">
        <ele>1793</ele>
        <time>2020-06-25T11:50:40Z</time>
      </trkpt>
      <trkpt lat="44.65243" lon="5.97573">
        <ele>1792</ele>
        <time>2020-06-25T11:50:47Z</time>
      </trkpt>
      <trkpt lat="44.65253" lon="5.97572">
        <ele>1792</ele>
        <time>2020-06-25T11:50:56Z</time>
      </trkpt>
      <trkpt lat="44.65263" lon="5.97572">
        <ele>1790</ele>
        <time>2020-06-25T11:51:03Z</time>
      </trkpt>
      <trkpt lat="44.65272" lon="5.9757">
        <ele>1789</ele>
        <time>2020-06-25T11:51:09Z</time>
      </trkpt>
      <trkpt lat="44.65282" lon="5.9757">
        <ele>1789</ele>
        <time>2020-06-25T11:51:16Z</time>
      </trkpt>
      <trkpt lat="44.65292" lon="5.97568">
        <ele>1788</ele>
        <time>2020-06-25T11:51:25Z</time>
      </trkpt>
      <trkpt lat="44.65302" lon="5.97563">
        <ele>1787</ele>
        <time>2020-06-25T11:51:33Z</time>
      </trkpt>
      <trkpt lat="44.6531" lon="5.9756">
        <ele>1786</ele>
        <time>2020-06-25T11:51:42Z</time>
      </trkpt>
      <trkpt lat="44.65318" lon="5.97553">
        <ele>1785</ele>
        <time>2020-06-25T11:51:50Z</time>
      </trkpt>
      <trkpt lat="44.65327" lon="5.97545">
        <ele>1783</ele>
        <time>2020-06-25T11:51:59Z</time>
      </trkpt>
      <trkpt lat="44.65333" lon="5.97535">
        <ele>1783</ele>
        <time>2020-06-25T11:52:38Z</time>
      </trkpt>
      <trkpt lat="44.65338" lon="5.97523">
        <ele>1782</ele>
        <time>2020-06-25T11:52:48Z</time>
      </trkpt>
      <trkpt lat="44.65342" lon="5.9751">
        <ele>1781</ele>
        <time>2020-06-25T11:52:57Z</time>
      </trkpt>
      <trkpt lat="44.65347" lon="5.975">
        <ele>1779</ele>
        <time>2020-06-25T11:53:07Z</time>
      </trkpt>
      <trkpt lat="44.65355" lon="5.97492">
        <ele>1777</ele>
        <time>2020-06-25T11:53:15Z</time>
      </trkpt>
      <trkpt lat="44.65365" lon="5.9749">
        <ele>1776</ele>
        <time>2020-06-25T11:53:24Z</time>
      </trkpt>
      <trkpt lat="44.65373" lon="5.97485">
        <ele>1775</ele>
        <time>2020-06-25T11:53:32Z</time>
      </trkpt>
      <trkpt lat="44.65382" lon="5.9748">
        <ele>1773</ele>
        <time>2020-06-25T11:53:38Z</time>
      </trkpt>
      <trkpt lat="44.65392" lon="5.97475">
        <ele>1773</ele>
        <time>2020-06-25T11:53:45Z</time>
      </trkpt>
      <trkpt lat="44.65402" lon="5.97475">
        <ele>1772</ele>
        <time>2020-06-25T11:53:52Z</time>
      </trkpt>
      <trkpt lat="44.65408" lon="5.9747">
        <ele>1771</ele>
        <time>2020-06-25T11:53:59Z</time>
      </trkpt>
      <trkpt lat="44.65413" lon="5.97458">
        <ele>1768</ele>
        <time>2020-06-25T11:54:08Z</time>
      </trkpt>
      <trkpt lat="44.65418" lon="5.97447">
        <ele>1768</ele>
        <time>2020-06-25T11:54:16Z</time>
      </trkpt>
      <trkpt lat="44.65428" lon="5.97442">
        <ele>1767</ele>
        <time>2020-06-25T11:54:25Z</time>
      </trkpt>
      <trkpt lat="44.65437" lon="5.9744">
        <ele>1765</ele>
        <time>2020-06-25T11:54:33Z</time>
      </trkpt>
      <trkpt lat="44.65447" lon="5.97433">
        <ele>1764</ele>
        <time>2020-06-25T11:54:41Z</time>
      </trkpt>
      <trkpt lat="44.65448" lon="5.97418">
        <ele>1762</ele>
        <time>2020-06-25T11:55:09Z</time>
      </trkpt>
      <trkpt lat="44.65457" lon="5.9741">
        <ele>1761</ele>
        <time>2020-06-25T11:55:21Z</time>
      </trkpt>
      <trkpt lat="44.65463" lon="5.97403">
        <ele>1760</ele>
        <time>2020-06-25T11:55:30Z</time>
      </trkpt>
      <trkpt lat="44.65472" lon="5.97397">
        <ele>1759</ele>
        <time>2020-06-25T11:55:38Z</time>
      </trkpt>
      <trkpt lat="44.65478" lon="5.97387">
        <ele>1759</ele>
        <time>2020-06-25T11:55:46Z</time>
      </trkpt>
      <trkpt lat="44.65483" lon="5.97377">
        <ele>1758</ele>
        <time>2020-06-25T11:56:04Z</time>
      </trkpt>
      <trkpt lat="44.65493" lon="5.97375">
        <ele>1757</ele>
        <time>2020-06-25T11:56:14Z</time>
      </trkpt>
      <trkpt lat="44.65503" lon="5.97378">
        <ele>1756</ele>
        <time>2020-06-25T11:56:23Z</time>
      </trkpt>
      <trkpt lat="44.65512" lon="5.97373">
        <ele>1753</ele>
        <time>2020-06-25T11:56:32Z</time>
      </trkpt>
      <trkpt lat="44.65518" lon="5.97363">
        <ele>1752</ele>
        <time>2020-06-25T11:56:39Z</time>
      </trkpt>
      <trkpt lat="44.65518" lon="5.9735">
        <ele>1751</ele>
        <time>2020-06-25T11:57:06Z</time>
      </trkpt>
      <trkpt lat="44.65522" lon="5.97335">
        <ele>1749</ele>
        <time>2020-06-25T11:57:16Z</time>
      </trkpt>
      <trkpt lat="44.65528" lon="5.97328">
        <ele>1749</ele>
        <time>2020-06-25T11:57:27Z</time>
      </trkpt>
      <trkpt lat="44.65537" lon="5.97337">
        <ele>1748</ele>
        <time>2020-06-25T11:57:48Z</time>
      </trkpt>
      <trkpt lat="44.65547" lon="5.9734">
        <ele>1748</ele>
        <time>2020-06-25T11:57:55Z</time>
      </trkpt>
      <trkpt lat="44.65555" lon="5.97343">
        <ele>1746</ele>
        <time>2020-06-25T11:58:02Z</time>
      </trkpt>
      <trkpt lat="44.65565" lon="5.97345">
        <ele>1746</ele>
        <time>2020-06-25T11:58:10Z</time>
      </trkpt>
      <trkpt lat="44.65575" lon="5.97343">
        <ele>1746</ele>
        <time>2020-06-25T11:58:17Z</time>
      </trkpt>
      <trkpt lat="44.65585" lon="5.97345">
        <ele>1744</ele>
        <time>2020-06-25T11:58:22Z</time>
      </trkpt>
      <trkpt lat="44.65595" lon="5.97347">
        <ele>1743</ele>
        <time>2020-06-25T11:58:29Z</time>
      </trkpt>
      <trkpt lat="44.65605" lon="5.97345">
        <ele>1742</ele>
        <time>2020-06-25T11:58:36Z</time>
      </trkpt>
      <trkpt lat="44.65612" lon="5.97338">
        <ele>1741</ele>
        <time>2020-06-25T11:58:43Z</time>
      </trkpt>
      <trkpt lat="44.65618" lon="5.9733">
        <ele>1740</ele>
        <time>2020-06-25T11:58:51Z</time>
      </trkpt>
      <trkpt lat="44.65627" lon="5.9732">
        <ele>1738</ele>
        <time>2020-06-25T11:59:00Z</time>
      </trkpt>
      <trkpt lat="44.65635" lon="5.97315">
        <ele>1736</ele>
        <time>2020-06-25T11:59:07Z</time>
      </trkpt>
      <trkpt lat="44.65645" lon="5.97313">
        <ele>1736</ele>
        <time>2020-06-25T11:59:15Z</time>
      </trkpt>
      <trkpt lat="44.65655" lon="5.97312">
        <ele>1735</ele>
        <time>2020-06-25T11:59:23Z</time>
      </trkpt>
      <trkpt lat="44.65663" lon="5.97308">
        <ele>1734</ele>
        <time>2020-06-25T11:59:31Z</time>
      </trkpt>
      <trkpt lat="44.65673" lon="5.97303">
        <ele>1732</ele>
        <time>2020-06-25T11:59:41Z</time>
      </trkpt>
      <trkpt lat="44.65682" lon="5.97295">
        <ele>1731</ele>
        <time>2020-06-25T11:59:53Z</time>
      </trkpt>
      <trkpt lat="44.6569" lon="5.97287">
        <ele>1729</ele>
        <time>2020-06-25T12:00:02Z</time>
      </trkpt>
      <trkpt lat="44.65698" lon="5.97282">
        <ele>1728</ele>
        <time>2020-06-25T12:00:10Z</time>
      </trkpt>
      <trkpt lat="44.65707" lon="5.97273">
        <ele>1727</ele>
        <time>2020-06-25T12:00:19Z</time>
      </trkpt>
      <trkpt lat="44.65713" lon="5.97263">
        <ele>1726</ele>
        <time>2020-06-25T12:00:26Z</time>
      </trkpt>
      <trkpt lat="44.6572" lon="5.97255">
        <ele>1726</ele>
        <time>2020-06-25T12:00:36Z</time>
      </trkpt>
      <trkpt lat="44.65728" lon="5.97248">
        <ele>1725</ele>
        <time>2020-06-25T12:00:45Z</time>
      </trkpt>
      <trkpt lat="44.65737" lon="5.97243">
        <ele>1725</ele>
        <time>2020-06-25T12:00:53Z</time>
      </trkpt>
      <trkpt lat="44.65745" lon="5.97237">
        <ele>1724</ele>
        <time>2020-06-25T12:01:01Z</time>
      </trkpt>
      <trkpt lat="44.65755" lon="5.97235">
        <ele>1722</ele>
        <time>2020-06-25T12:01:10Z</time>
      </trkpt>
      <trkpt lat="44.65763" lon="5.97232">
        <ele>1721</ele>
        <time>2020-06-25T12:01:19Z</time>
      </trkpt>
      <trkpt lat="44.65773" lon="5.97233">
        <ele>1720</ele>
        <time>2020-06-25T12:01:28Z</time>
      </trkpt>
      <trkpt lat="44.65783" lon="5.9723">
        <ele>1719</ele>
        <time>2020-06-25T12:01:37Z</time>
      </trkpt>
      <trkpt lat="44.65792" lon="5.97223">
        <ele>1719</ele>
        <time>2020-06-25T12:01:46Z</time>
      </trkpt>
      <trkpt lat="44.65798" lon="5.97213">
        <ele>1719</ele>
        <time>2020-06-25T12:01:56Z</time>
      </trkpt>
      <trkpt lat="44.65805" lon="5.97202">
        <ele>1716</ele>
        <time>2020-06-25T12:02:04Z</time>
      </trkpt>
      <trkpt lat="44.65813" lon="5.97195">
        <ele>1716</ele>
        <time>2020-06-25T12:02:11Z</time>
      </trkpt>
      <trkpt lat="44.65822" lon="5.9719">
        <ele>1715</ele>
        <time>2020-06-25T12:02:18Z</time>
      </trkpt>
      <trkpt lat="44.6583" lon="5.97183">
        <ele>1715</ele>
        <time>2020-06-25T12:02:26Z</time>
      </trkpt>
      <trkpt lat="44.65838" lon="5.97177">
        <ele>1713</ele>
        <time>2020-06-25T12:02:36Z</time>
      </trkpt>
      <trkpt lat="44.65847" lon="5.97168">
        <ele>1712</ele>
        <time>2020-06-25T12:02:44Z</time>
      </trkpt>
      <trkpt lat="44.65857" lon="5.97163">
        <ele>1711</ele>
        <time>2020-06-25T12:02:52Z</time>
      </trkpt>
      <trkpt lat="44.65865" lon="5.97158">
        <ele>1710</ele>
        <time>2020-06-25T12:02:59Z</time>
      </trkpt>
      <trkpt lat="44.65875" lon="5.97153">
        <ele>1708</ele>
        <time>2020-06-25T12:03:06Z</time>
      </trkpt>
      <trkpt lat="44.65885" lon="5.97148">
        <ele>1707</ele>
        <time>2020-06-25T12:03:14Z</time>
      </trkpt>
      <trkpt lat="44.65893" lon="5.97142">
        <ele>1707</ele>
        <time>2020-06-25T12:03:23Z</time>
      </trkpt>
      <trkpt lat="44.65902" lon="5.97133">
        <ele>1707</ele>
        <time>2020-06-25T12:03:31Z</time>
      </trkpt>
      <trkpt lat="44.65908" lon="5.97127">
        <ele>1706</ele>
        <time>2020-06-25T12:03:39Z</time>
      </trkpt>
      <trkpt lat="44.65917" lon="5.97117">
        <ele>1705</ele>
        <time>2020-06-25T12:03:51Z</time>
      </trkpt>
      <trkpt lat="44.65923" lon="5.97108">
        <ele>1703</ele>
        <time>2020-06-25T12:04:02Z</time>
      </trkpt>
      <trkpt lat="44.6593" lon="5.97098">
        <ele>1702</ele>
        <time>2020-06-25T12:04:15Z</time>
      </trkpt>
      <trkpt lat="44.65938" lon="5.97092">
        <ele>1702</ele>
        <time>2020-06-25T12:04:24Z</time>
      </trkpt>
      <trkpt lat="44.65947" lon="5.97085">
        <ele>1701</ele>
        <time>2020-06-25T12:04:34Z</time>
      </trkpt>
      <trkpt lat="44.65953" lon="5.97078">
        <ele>1699</ele>
        <time>2020-06-25T12:04:43Z</time>
      </trkpt>
      <trkpt lat="44.65962" lon="5.9707">
        <ele>1698</ele>
        <time>2020-06-25T12:04:54Z</time>
      </trkpt>
      <trkpt lat="44.65972" lon="5.97065">
        <ele>1696</ele>
        <time>2020-06-25T12:05:05Z</time>
      </trkpt>
      <trkpt lat="44.6598" lon="5.9706">
        <ele>1696</ele>
        <time>2020-06-25T12:05:15Z</time>
      </trkpt>
      <trkpt lat="44.6599" lon="5.97055">
        <ele>1695</ele>
        <time>2020-06-25T12:05:23Z</time>
      </trkpt>
      <trkpt lat="44.65998" lon="5.97052">
        <ele>1694</ele>
        <time>2020-06-25T12:05:30Z</time>
      </trkpt>
      <trkpt lat="44.66008" lon="5.97052">
        <ele>1693</ele>
        <time>2020-06-25T12:05:39Z</time>
      </trkpt>
      <trkpt lat="44.66017" lon="5.97052">
        <ele>1693</ele>
        <time>2020-06-25T12:05:47Z</time>
      </trkpt>
      <trkpt lat="44.66027" lon="5.97055">
        <ele>1692</ele>
        <time>2020-06-25T12:05:55Z</time>
      </trkpt>
      <trkpt lat="44.66035" lon="5.97058">
        <ele>1689</ele>
        <time>2020-06-25T12:06:05Z</time>
      </trkpt>
      <trkpt lat="44.66043" lon="5.97065">
        <ele>1688</ele>
        <time>2020-06-25T12:06:14Z</time>
      </trkpt>
      <trkpt lat="44.6605" lon="5.97075">
        <ele>1688</ele>
        <time>2020-06-25T12:06:24Z</time>
      </trkpt>
      <trkpt lat="44.66055" lon="5.97087">
        <ele>1687</ele>
        <time>2020-06-25T12:06:32Z</time>
      </trkpt>
      <trkpt lat="44.6606" lon="5.97098">
        <ele>1686</ele>
        <time>2020-06-25T12:06:40Z</time>
      </trkpt>
      <trkpt lat="44.66068" lon="5.97108">
        <ele>1685</ele>
        <time>2020-06-25T12:06:49Z</time>
      </trkpt>
      <trkpt lat="44.66075" lon="5.97115">
        <ele>1684</ele>
        <time>2020-06-25T12:06:59Z</time>
      </trkpt>
      <trkpt lat="44.66083" lon="5.9712">
        <ele>1681</ele>
        <time>2020-06-25T12:07:17Z</time>
      </trkpt>
      <trkpt lat="44.66093" lon="5.97122">
        <ele>1681</ele>
        <time>2020-06-25T12:07:24Z</time>
      </trkpt>
      <trkpt lat="44.66102" lon="5.97127">
        <ele>1680</ele>
        <time>2020-06-25T12:07:32Z</time>
      </trkpt>
      <trkpt lat="44.66112" lon="5.9713">
        <ele>1680</ele>
        <time>2020-06-25T12:07:41Z</time>
      </trkpt>
      <trkpt lat="44.66118" lon="5.97137">
        <ele>1679</ele>
        <time>2020-06-25T12:07:49Z</time>
      </trkpt>
      <trkpt lat="44.66125" lon="5.97147">
        <ele>1677</ele>
        <time>2020-06-25T12:07:59Z</time>
      </trkpt>
      <trkpt lat="44.66135" lon="5.9715">
        <ele>1676</ele>
        <time>2020-06-25T12:08:10Z</time>
      </trkpt>
      <trkpt lat="44.66143" lon="5.9715">
        <ele>1675</ele>
        <time>2020-06-25T12:08:18Z</time>
      </trkpt>
      <trkpt lat="44.66153" lon="5.97147">
        <ele>1674</ele>
        <time>2020-06-25T12:08:27Z</time>
      </trkpt>
      <trkpt lat="44.66162" lon="5.97138">
        <ele>1672</ele>
        <time>2020-06-25T12:08:37Z</time>
      </trkpt>
      <trkpt lat="44.66168" lon="5.97132">
        <ele>1671</ele>
        <time>2020-06-25T12:08:45Z</time>
      </trkpt>
      <trkpt lat="44.66177" lon="5.97122">
        <ele>1670</ele>
        <time>2020-06-25T12:08:55Z</time>
      </trkpt>
      <trkpt lat="44.66187" lon="5.97117">
        <ele>1668</ele>
        <time>2020-06-25T12:09:03Z</time>
      </trkpt>
      <trkpt lat="44.66195" lon="5.97113">
        <ele>1668</ele>
        <time>2020-06-25T12:09:10Z</time>
      </trkpt>
      <trkpt lat="44.66207" lon="5.97112">
        <ele>1667</ele>
        <time>2020-06-25T12:09:19Z</time>
      </trkpt>
      <trkpt lat="44.66215" lon="5.97107">
        <ele>1666</ele>
        <time>2020-06-25T12:09:27Z</time>
      </trkpt>
      <trkpt lat="44.66225" lon="5.97102">
        <ele>1664</ele>
        <time>2020-06-25T12:09:37Z</time>
      </trkpt>
      <trkpt lat="44.66233" lon="5.97098">
        <ele>1663</ele>
        <time>2020-06-25T12:09:45Z</time>
      </trkpt>
      <trkpt lat="44.66243" lon="5.97095">
        <ele>1662</ele>
        <time>2020-06-25T12:09:53Z</time>
      </trkpt>
      <trkpt lat="44.66253" lon="5.97093">
        <ele>1661</ele>
        <time>2020-06-25T12:09:59Z</time>
      </trkpt>
      <trkpt lat="44.66262" lon="5.97092">
        <ele>1660</ele>
        <time>2020-06-25T12:10:08Z</time>
      </trkpt>
      <trkpt lat="44.66272" lon="5.97092">
        <ele>1659</ele>
        <time>2020-06-25T12:10:17Z</time>
      </trkpt>
      <trkpt lat="44.66282" lon="5.97092">
        <ele>1657</ele>
        <time>2020-06-25T12:10:27Z</time>
      </trkpt>
      <trkpt lat="44.6629" lon="5.9709">
        <ele>1657</ele>
        <time>2020-06-25T12:10:37Z</time>
      </trkpt>
      <trkpt lat="44.663" lon="5.97087">
        <ele>1656</ele>
        <time>2020-06-25T12:10:46Z</time>
      </trkpt>
      <trkpt lat="44.66308" lon="5.97082">
        <ele>1655</ele>
        <time>2020-06-25T12:10:54Z</time>
      </trkpt>
      <trkpt lat="44.66317" lon="5.97078">
        <ele>1653</ele>
        <time>2020-06-25T12:11:02Z</time>
      </trkpt>
      <trkpt lat="44.66325" lon="5.97068">
        <ele>1651</ele>
        <time>2020-06-25T12:11:12Z</time>
      </trkpt>
      <trkpt lat="44.66332" lon="5.97058">
        <ele>1650</ele>
        <time>2020-06-25T12:11:21Z</time>
      </trkpt>
      <trkpt lat="44.6634" lon="5.97052">
        <ele>1649</ele>
        <time>2020-06-25T12:11:31Z</time>
      </trkpt>
      <trkpt lat="44.66348" lon="5.97043">
        <ele>1648</ele>
        <time>2020-06-25T12:11:39Z</time>
      </trkpt>
      <trkpt lat="44.66362" lon="5.9704">
        <ele>1647</ele>
        <time>2020-06-25T12:11:50Z</time>
      </trkpt>
      <trkpt lat="44.66372" lon="5.97045">
        <ele>1646</ele>
        <time>2020-06-25T12:11:57Z</time>
      </trkpt>
      <trkpt lat="44.6638" lon="5.97055">
        <ele>1645</ele>
        <time>2020-06-25T12:12:04Z</time>
      </trkpt>
      <trkpt lat="44.66387" lon="5.97065">
        <ele>1645</ele>
        <time>2020-06-25T12:12:11Z</time>
      </trkpt>
      <trkpt lat="44.66393" lon="5.97073">
        <ele>1644</ele>
        <time>2020-06-25T12:12:19Z</time>
      </trkpt>
      <trkpt lat="44.664" lon="5.97085">
        <ele>1643</ele>
        <time>2020-06-25T12:12:29Z</time>
      </trkpt>
      <trkpt lat="44.66408" lon="5.97093">
        <ele>1640</ele>
        <time>2020-06-25T12:12:35Z</time>
      </trkpt>
      <trkpt lat="44.66417" lon="5.97097">
        <ele>1640</ele>
        <time>2020-06-25T12:12:45Z</time>
      </trkpt>
      <trkpt lat="44.66427" lon="5.97102">
        <ele>1639</ele>
        <time>2020-06-25T12:12:53Z</time>
      </trkpt>
      <trkpt lat="44.66435" lon="5.97105">
        <ele>1638</ele>
        <time>2020-06-25T12:13:07Z</time>
      </trkpt>
      <trkpt lat="44.66443" lon="5.97105">
        <ele>1637</ele>
        <time>2020-06-25T12:13:20Z</time>
      </trkpt>
      <trkpt lat="44.6645" lon="5.97097">
        <ele>1637</ele>
        <time>2020-06-25T12:13:30Z</time>
      </trkpt>
      <trkpt lat="44.66448" lon="5.97082">
        <ele>1637</ele>
        <time>2020-06-25T12:13:36Z</time>
      </trkpt>
      <trkpt lat="44.66447" lon="5.9707">
        <ele>1635</ele>
        <time>2020-06-25T12:13:47Z</time>
      </trkpt>
      <trkpt lat="44.66447" lon="5.97055">
        <ele>1635</ele>
        <time>2020-06-25T12:13:55Z</time>
      </trkpt>
      <trkpt lat="44.66448" lon="5.97042">
        <ele>1634</ele>
        <time>2020-06-25T12:14:02Z</time>
      </trkpt>
      <trkpt lat="44.66453" lon="5.9703">
        <ele>1634</ele>
        <time>2020-06-25T12:14:11Z</time>
      </trkpt>
      <trkpt lat="44.6646" lon="5.9702">
        <ele>1634</ele>
        <time>2020-06-25T12:14:20Z</time>
      </trkpt>
      <trkpt lat="44.66467" lon="5.9701">
        <ele>1634</ele>
        <time>2020-06-25T12:14:29Z</time>
      </trkpt>
      <trkpt lat="44.66457" lon="5.97007">
        <ele>1633</ele>
        <time>2020-06-25T12:15:39Z</time>
      </trkpt>
      <trkpt lat="44.66467" lon="5.97002">
        <ele>1633</ele>
        <time>2020-06-25T12:16:02Z</time>
      </trkpt>
      <trkpt lat="44.66477" lon="5.96998">
        <ele>1633</ele>
        <time>2020-06-25T12:16:12Z</time>
      </trkpt>
      <trkpt lat="44.66485" lon="5.96992">
        <ele>1633</ele>
        <time>2020-06-25T12:16:22Z</time>
      </trkpt>
      <trkpt lat="44.66495" lon="5.9699">
        <ele>1632</ele>
        <time>2020-06-25T12:16:30Z</time>
      </trkpt>
      <trkpt lat="44.66503" lon="5.96987">
        <ele>1631</ele>
        <time>2020-06-25T12:16:39Z</time>
      </trkpt>
      <trkpt lat="44.66513" lon="5.96988">
        <ele>1632</ele>
        <time>2020-06-25T12:16:47Z</time>
      </trkpt>
      <trkpt lat="44.66522" lon="5.9699">
        <ele>1632</ele>
        <time>2020-06-25T12:16:54Z</time>
      </trkpt>
      <trkpt lat="44.66532" lon="5.96993">
        <ele>1631</ele>
        <time>2020-06-25T12:17:04Z</time>
      </trkpt>
      <trkpt lat="44.66542" lon="5.96995">
        <ele>1631</ele>
        <time>2020-06-25T12:17:13Z</time>
      </trkpt>
      <trkpt lat="44.66552" lon="5.96995">
        <ele>1631</ele>
        <time>2020-06-25T12:17:22Z</time>
      </trkpt>
      <trkpt lat="44.6656" lon="5.96997">
        <ele>1630</ele>
        <time>2020-06-25T12:17:31Z</time>
      </trkpt>
      <trkpt lat="44.6657" lon="5.96998">
        <ele>1629</ele>
        <time>2020-06-25T12:17:41Z</time>
      </trkpt>
      <trkpt lat="44.6658" lon="5.97">
        <ele>1629</ele>
        <time>2020-06-25T12:17:49Z</time>
      </trkpt>
      <trkpt lat="44.6659" lon="5.97">
        <ele>1628</ele>
        <time>2020-06-25T12:17:58Z</time>
      </trkpt>
      <trkpt lat="44.666" lon="5.96995">
        <ele>1627</ele>
        <time>2020-06-25T12:18:05Z</time>
      </trkpt>
      <trkpt lat="44.66607" lon="5.96987">
        <ele>1627</ele>
        <time>2020-06-25T12:18:12Z</time>
      </trkpt>
      <trkpt lat="44.66612" lon="5.96977">
        <ele>1627</ele>
        <time>2020-06-25T12:18:24Z</time>
      </trkpt>
      <trkpt lat="44.66613" lon="5.96963">
        <ele>1624</ele>
        <time>2020-06-25T12:19:14Z</time>
      </trkpt>
      <trkpt lat="44.66622" lon="5.96963">
        <ele>1625</ele>
        <time>2020-06-25T12:19:35Z</time>
      </trkpt>
      <trkpt lat="44.66632" lon="5.9696">
        <ele>1625</ele>
        <time>2020-06-25T12:19:54Z</time>
      </trkpt>
      <trkpt lat="44.6664" lon="5.96958">
        <ele>1625</ele>
        <time>2020-06-25T12:20:04Z</time>
      </trkpt>
      <trkpt lat="44.66648" lon="5.9695">
        <ele>1623</ele>
        <time>2020-06-25T12:20:28Z</time>
      </trkpt>
      <trkpt lat="44.66657" lon="5.96945">
        <ele>1622</ele>
        <time>2020-06-25T12:20:36Z</time>
      </trkpt>
      <trkpt lat="44.66665" lon="5.96937">
        <ele>1620</ele>
        <time>2020-06-25T12:20:45Z</time>
      </trkpt>
      <trkpt lat="44.66672" lon="5.96928">
        <ele>1618</ele>
        <time>2020-06-25T12:20:52Z</time>
      </trkpt>
      <trkpt lat="44.66682" lon="5.96923">
        <ele>1617</ele>
        <time>2020-06-25T12:20:59Z</time>
      </trkpt>
      <trkpt lat="44.66692" lon="5.9692">
        <ele>1615</ele>
        <time>2020-06-25T12:21:08Z</time>
      </trkpt>
      <trkpt lat="44.667" lon="5.96917">
        <ele>1614</ele>
        <time>2020-06-25T12:21:19Z</time>
      </trkpt>
      <trkpt lat="44.66708" lon="5.96908">
        <ele>1614</ele>
        <time>2020-06-25T12:21:27Z</time>
      </trkpt>
      <trkpt lat="44.66715" lon="5.96897">
        <ele>1614</ele>
        <time>2020-06-25T12:21:34Z</time>
      </trkpt>
      <trkpt lat="44.66722" lon="5.96888">
        <ele>1614</ele>
        <time>2020-06-25T12:21:40Z</time>
      </trkpt>
      <trkpt lat="44.6673" lon="5.9688">
        <ele>1613</ele>
        <time>2020-06-25T12:21:49Z</time>
      </trkpt>
      <trkpt lat="44.66737" lon="5.9687">
        <ele>1613</ele>
        <time>2020-06-25T12:21:56Z</time>
      </trkpt>
      <trkpt lat="44.66747" lon="5.96867">
        <ele>1612</ele>
        <time>2020-06-25T12:22:06Z</time>
      </trkpt>
      <trkpt lat="44.66755" lon="5.96863">
        <ele>1612</ele>
        <time>2020-06-25T12:22:13Z</time>
      </trkpt>
      <trkpt lat="44.66763" lon="5.96855">
        <ele>1611</ele>
        <time>2020-06-25T12:22:21Z</time>
      </trkpt>
      <trkpt lat="44.66772" lon="5.96847">
        <ele>1608</ele>
        <time>2020-06-25T12:22:29Z</time>
      </trkpt>
      <trkpt lat="44.6678" lon="5.96837">
        <ele>1608</ele>
        <time>2020-06-25T12:22:36Z</time>
      </trkpt>
      <trkpt lat="44.66788" lon="5.96828">
        <ele>1607</ele>
        <time>2020-06-25T12:22:43Z</time>
      </trkpt>
      <trkpt lat="44.66795" lon="5.96822">
        <ele>1605</ele>
        <time>2020-06-25T12:22:50Z</time>
      </trkpt>
      <trkpt lat="44.66803" lon="5.96813">
        <ele>1604</ele>
        <time>2020-06-25T12:23:12Z</time>
      </trkpt>
      <trkpt lat="44.66813" lon="5.96812">
        <ele>1602</ele>
        <time>2020-06-25T12:23:21Z</time>
      </trkpt>
      <trkpt lat="44.66822" lon="5.96803">
        <ele>1601</ele>
        <time>2020-06-25T12:23:32Z</time>
      </trkpt>
      <trkpt lat="44.66833" lon="5.96795">
        <ele>1599</ele>
        <time>2020-06-25T12:23:41Z</time>
      </trkpt>
      <trkpt lat="44.6684" lon="5.96787">
        <ele>1598</ele>
        <time>2020-06-25T12:23:48Z</time>
      </trkpt>
      <trkpt lat="44.66847" lon="5.96777">
        <ele>1598</ele>
        <time>2020-06-25T12:23:56Z</time>
      </trkpt>
      <trkpt lat="44.66852" lon="5.96763">
        <ele>1597</ele>
        <time>2020-06-25T12:24:04Z</time>
      </trkpt>
      <trkpt lat="44.66857" lon="5.96748">
        <ele>1597</ele>
        <time>2020-06-25T12:24:13Z</time>
      </trkpt>
      <trkpt lat="44.66863" lon="5.96738">
        <ele>1597</ele>
        <time>2020-06-25T12:24:21Z</time>
      </trkpt>
      <trkpt lat="44.66868" lon="5.96727">
        <ele>1596</ele>
        <time>2020-06-25T12:24:30Z</time>
      </trkpt>
      <trkpt lat="44.66875" lon="5.96717">
        <ele>1595</ele>
        <time>2020-06-25T12:24:40Z</time>
      </trkpt>
      <trkpt lat="44.66873" lon="5.96702">
        <ele>1595</ele>
        <time>2020-06-25T12:24:51Z</time>
      </trkpt>
      <trkpt lat="44.6687" lon="5.9669">
        <ele>1594</ele>
        <time>2020-06-25T12:24:59Z</time>
      </trkpt>
      <trkpt lat="44.66867" lon="5.96677">
        <ele>1594</ele>
        <time>2020-06-25T12:25:08Z</time>
      </trkpt>
      <trkpt lat="44.66863" lon="5.96665">
        <ele>1593</ele>
        <time>2020-06-25T12:25:19Z</time>
      </trkpt>
      <trkpt lat="44.66862" lon="5.96653">
        <ele>1593</ele>
        <time>2020-06-25T12:25:28Z</time>
      </trkpt>
      <trkpt lat="44.66857" lon="5.96642">
        <ele>1592</ele>
        <time>2020-06-25T12:25:36Z</time>
      </trkpt>
      <trkpt lat="44.66848" lon="5.9663">
        <ele>1591</ele>
        <time>2020-06-25T12:25:42Z</time>
      </trkpt>
      <trkpt lat="44.66842" lon="5.96622">
        <ele>1591</ele>
        <time>2020-06-25T12:25:48Z</time>
      </trkpt>
      <trkpt lat="44.66833" lon="5.96613">
        <ele>1590</ele>
        <time>2020-06-25T12:25:55Z</time>
      </trkpt>
      <trkpt lat="44.66827" lon="5.96603">
        <ele>1589</ele>
        <time>2020-06-25T12:26:02Z</time>
      </trkpt>
      <trkpt lat="44.66823" lon="5.9659">
        <ele>1587</ele>
        <time>2020-06-25T12:26:09Z</time>
      </trkpt>
      <trkpt lat="44.66818" lon="5.96577">
        <ele>1587</ele>
        <time>2020-06-25T12:26:16Z</time>
      </trkpt>
      <trkpt lat="44.66815" lon="5.96563">
        <ele>1586</ele>
        <time>2020-06-25T12:26:25Z</time>
      </trkpt>
      <trkpt lat="44.66813" lon="5.9655">
        <ele>1585</ele>
        <time>2020-06-25T12:26:31Z</time>
      </trkpt>
      <trkpt lat="44.66812" lon="5.96537">
        <ele>1584</ele>
        <time>2020-06-25T12:26:40Z</time>
      </trkpt>
      <trkpt lat="44.66808" lon="5.96523">
        <ele>1584</ele>
        <time>2020-06-25T12:26:46Z</time>
      </trkpt>
      <trkpt lat="44.66807" lon="5.9651">
        <ele>1583</ele>
        <time>2020-06-25T12:26:53Z</time>
      </trkpt>
      <trkpt lat="44.66807" lon="5.96497">
        <ele>1582</ele>
        <time>2020-06-25T12:27:01Z</time>
      </trkpt>
      <trkpt lat="44.66805" lon="5.96483">
        <ele>1580</ele>
        <time>2020-06-25T12:27:08Z</time>
      </trkpt>
      <trkpt lat="44.66805" lon="5.96468">
        <ele>1580</ele>
        <time>2020-06-25T12:27:16Z</time>
      </trkpt>
      <trkpt lat="44.66803" lon="5.96455">
        <ele>1579</ele>
        <time>2020-06-25T12:27:25Z</time>
      </trkpt>
      <trkpt lat="44.66802" lon="5.9644">
        <ele>1578</ele>
        <time>2020-06-25T12:27:33Z</time>
      </trkpt>
      <trkpt lat="44.66797" lon="5.9643">
        <ele>1576</ele>
        <time>2020-06-25T12:27:41Z</time>
      </trkpt>
      <trkpt lat="44.66788" lon="5.96422">
        <ele>1575</ele>
        <time>2020-06-25T12:27:47Z</time>
      </trkpt>
      <trkpt lat="44.6678" lon="5.96422">
        <ele>1574</ele>
        <time>2020-06-25T12:27:54Z</time>
      </trkpt>
      <trkpt lat="44.6677" lon="5.96418">
        <ele>1574</ele>
        <time>2020-06-25T12:28:01Z</time>
      </trkpt>
      <trkpt lat="44.66762" lon="5.96415">
        <ele>1574</ele>
        <time>2020-06-25T12:28:10Z</time>
      </trkpt>
      <trkpt lat="44.66752" lon="5.96412">
        <ele>1574</ele>
        <time>2020-06-25T12:28:18Z</time>
      </trkpt>
      <trkpt lat="44.66747" lon="5.964">
        <ele>1574</ele>
        <time>2020-06-25T12:28:26Z</time>
      </trkpt>
      <trkpt lat="44.66742" lon="5.96388">
        <ele>1573</ele>
        <time>2020-06-25T12:28:35Z</time>
      </trkpt>
      <trkpt lat="44.66737" lon="5.96375">
        <ele>1572</ele>
        <time>2020-06-25T12:28:43Z</time>
      </trkpt>
      <trkpt lat="44.66733" lon="5.96363">
        <ele>1571</ele>
        <time>2020-06-25T12:28:51Z</time>
      </trkpt>
      <trkpt lat="44.6673" lon="5.9635">
        <ele>1571</ele>
        <time>2020-06-25T12:28:59Z</time>
      </trkpt>
      <trkpt lat="44.66732" lon="5.96337">
        <ele>1571</ele>
        <time>2020-06-25T12:29:08Z</time>
      </trkpt>
      <trkpt lat="44.66737" lon="5.96323">
        <ele>1569</ele>
        <time>2020-06-25T12:29:19Z</time>
      </trkpt>
      <trkpt lat="44.66742" lon="5.96312">
        <ele>1568</ele>
        <time>2020-06-25T12:29:28Z</time>
      </trkpt>
      <trkpt lat="44.66745" lon="5.963">
        <ele>1566</ele>
        <time>2020-06-25T12:29:39Z</time>
      </trkpt>
      <trkpt lat="44.66752" lon="5.96288">
        <ele>1565</ele>
        <time>2020-06-25T12:29:49Z</time>
      </trkpt>
      <trkpt lat="44.66758" lon="5.96277">
        <ele>1563</ele>
        <time>2020-06-25T12:30:02Z</time>
      </trkpt>
      <trkpt lat="44.66765" lon="5.96267">
        <ele>1562</ele>
        <time>2020-06-25T12:30:12Z</time>
      </trkpt>
      <trkpt lat="44.6677" lon="5.96255">
        <ele>1561</ele>
        <time>2020-06-25T12:30:46Z</time>
      </trkpt>
      <trkpt lat="44.66778" lon="5.96247">
        <ele>1560</ele>
        <time>2020-06-25T12:30:55Z</time>
      </trkpt>
      <trkpt lat="44.66787" lon="5.9624">
        <ele>1559</ele>
        <time>2020-06-25T12:31:02Z</time>
      </trkpt>
      <trkpt lat="44.66797" lon="5.96235">
        <ele>1557</ele>
        <time>2020-06-25T12:31:11Z</time>
      </trkpt>
      <trkpt lat="44.66805" lon="5.96228">
        <ele>1555</ele>
        <time>2020-06-25T12:31:20Z</time>
      </trkpt>
      <trkpt lat="44.66812" lon="5.96222">
        <ele>1555</ele>
        <time>2020-06-25T12:31:28Z</time>
      </trkpt>
      <trkpt lat="44.66818" lon="5.96212">
        <ele>1554</ele>
        <time>2020-06-25T12:31:36Z</time>
      </trkpt>
      <trkpt lat="44.66825" lon="5.96202">
        <ele>1553</ele>
        <time>2020-06-25T12:31:44Z</time>
      </trkpt>
      <trkpt lat="44.6683" lon="5.9619">
        <ele>1552</ele>
        <time>2020-06-25T12:31:51Z</time>
      </trkpt>
      <trkpt lat="44.66838" lon="5.96183">
        <ele>1550</ele>
        <time>2020-06-25T12:31:59Z</time>
      </trkpt>
      <trkpt lat="44.66847" lon="5.96173">
        <ele>1549</ele>
        <time>2020-06-25T12:32:08Z</time>
      </trkpt>
      <trkpt lat="44.66853" lon="5.96163">
        <ele>1549</ele>
        <time>2020-06-25T12:32:16Z</time>
      </trkpt>
      <trkpt lat="44.66863" lon="5.96158">
        <ele>1548</ele>
        <time>2020-06-25T12:32:24Z</time>
      </trkpt>
      <trkpt lat="44.66872" lon="5.96153">
        <ele>1547</ele>
        <time>2020-06-25T12:32:31Z</time>
      </trkpt>
      <trkpt lat="44.6688" lon="5.96147">
        <ele>1546</ele>
        <time>2020-06-25T12:32:40Z</time>
      </trkpt>
      <trkpt lat="44.66888" lon="5.96142">
        <ele>1545</ele>
        <time>2020-06-25T12:32:48Z</time>
      </trkpt>
      <trkpt lat="44.66897" lon="5.96135">
        <ele>1543</ele>
        <time>2020-06-25T12:32:55Z</time>
      </trkpt>
      <trkpt lat="44.66907" lon="5.9613">
        <ele>1541</ele>
        <time>2020-06-25T12:33:06Z</time>
      </trkpt>
      <trkpt lat="44.66915" lon="5.96128">
        <ele>1540</ele>
        <time>2020-06-25T12:33:16Z</time>
      </trkpt>
      <trkpt lat="44.66925" lon="5.96127">
        <ele>1538</ele>
        <time>2020-06-25T12:33:24Z</time>
      </trkpt>
      <trkpt lat="44.66935" lon="5.9613">
        <ele>1537</ele>
        <time>2020-06-25T12:33:33Z</time>
      </trkpt>
      <trkpt lat="44.66942" lon="5.96137">
        <ele>1536</ele>
        <time>2020-06-25T12:33:41Z</time>
      </trkpt>
      <trkpt lat="44.66948" lon="5.96145">
        <ele>1534</ele>
        <time>2020-06-25T12:33:53Z</time>
      </trkpt>
      <trkpt lat="44.66955" lon="5.96157">
        <ele>1531</ele>
        <time>2020-06-25T12:34:02Z</time>
      </trkpt>
      <trkpt lat="44.6696" lon="5.96167">
        <ele>1530</ele>
        <time>2020-06-25T12:34:14Z</time>
      </trkpt>
      <trkpt lat="44.6697" lon="5.96165">
        <ele>1530</ele>
        <time>2020-06-25T12:34:28Z</time>
      </trkpt>
      <trkpt lat="44.6697" lon="5.96152">
        <ele>1527</ele>
        <time>2020-06-25T12:34:48Z</time>
      </trkpt>
      <trkpt lat="44.66968" lon="5.96137">
        <ele>1524</ele>
        <time>2020-06-25T12:34:59Z</time>
      </trkpt>
      <trkpt lat="44.66965" lon="5.96125">
        <ele>1521</ele>
        <time>2020-06-25T12:35:09Z</time>
      </trkpt>
      <trkpt lat="44.6696" lon="5.96113">
        <ele>1520</ele>
        <time>2020-06-25T12:35:21Z</time>
      </trkpt>
      <trkpt lat="44.66952" lon="5.96105">
        <ele>1520</ele>
        <time>2020-06-25T12:35:30Z</time>
      </trkpt>
      <trkpt lat="44.66943" lon="5.96097">
        <ele>1520</ele>
        <time>2020-06-25T12:35:37Z</time>
      </trkpt>
      <trkpt lat="44.66937" lon="5.9609">
        <ele>1519</ele>
        <time>2020-06-25T12:35:49Z</time>
      </trkpt>
      <trkpt lat="44.66928" lon="5.96083">
        <ele>1519</ele>
        <time>2020-06-25T12:35:59Z</time>
      </trkpt>
      <trkpt lat="44.66918" lon="5.9608">
        <ele>1516</ele>
        <time>2020-06-25T12:36:09Z</time>
      </trkpt>
      <trkpt lat="44.66908" lon="5.96078">
        <ele>1516</ele>
        <time>2020-06-25T12:36:17Z</time>
      </trkpt>
      <trkpt lat="44.66898" lon="5.96075">
        <ele>1515</ele>
        <time>2020-06-25T12:36:25Z</time>
      </trkpt>
      <trkpt lat="44.66888" lon="5.96073">
        <ele>1514</ele>
        <time>2020-06-25T12:36:33Z</time>
      </trkpt>
      <trkpt lat="44.66878" lon="5.96073">
        <ele>1513</ele>
        <time>2020-06-25T12:36:41Z</time>
      </trkpt>
      <trkpt lat="44.66868" lon="5.96072">
        <ele>1511</ele>
        <time>2020-06-25T12:36:50Z</time>
      </trkpt>
      <trkpt lat="44.6686" lon="5.96067">
        <ele>1510</ele>
        <time>2020-06-25T12:37:00Z</time>
      </trkpt>
      <trkpt lat="44.6685" lon="5.96062">
        <ele>1510</ele>
        <time>2020-06-25T12:37:08Z</time>
      </trkpt>
      <trkpt lat="44.66842" lon="5.9606">
        <ele>1509</ele>
        <time>2020-06-25T12:37:16Z</time>
      </trkpt>
      <trkpt lat="44.66832" lon="5.96053">
        <ele>1508</ele>
        <time>2020-06-25T12:37:25Z</time>
      </trkpt>
      <trkpt lat="44.66822" lon="5.96048">
        <ele>1507</ele>
        <time>2020-06-25T12:37:32Z</time>
      </trkpt>
      <trkpt lat="44.66813" lon="5.96043">
        <ele>1507</ele>
        <time>2020-06-25T12:37:37Z</time>
      </trkpt>
      <trkpt lat="44.66803" lon="5.96042">
        <ele>1506</ele>
        <time>2020-06-25T12:37:48Z</time>
      </trkpt>
      <trkpt lat="44.66795" lon="5.9604">
        <ele>1505</ele>
        <time>2020-06-25T12:37:54Z</time>
      </trkpt>
      <trkpt lat="44.66785" lon="5.96037">
        <ele>1504</ele>
        <time>2020-06-25T12:38:01Z</time>
      </trkpt>
      <trkpt lat="44.66777" lon="5.96032">
        <ele>1501</ele>
        <time>2020-06-25T12:38:10Z</time>
      </trkpt>
      <trkpt lat="44.66768" lon="5.96028">
        <ele>1500</ele>
        <time>2020-06-25T12:38:20Z</time>
      </trkpt>
      <trkpt lat="44.66758" lon="5.96028">
        <ele>1499</ele>
        <time>2020-06-25T12:38:30Z</time>
      </trkpt>
      <trkpt lat="44.66748" lon="5.96033">
        <ele>1499</ele>
        <time>2020-06-25T12:38:39Z</time>
      </trkpt>
      <trkpt lat="44.6674" lon="5.96037">
        <ele>1497</ele>
        <time>2020-06-25T12:38:49Z</time>
      </trkpt>
      <trkpt lat="44.6673" lon="5.96037">
        <ele>1494</ele>
        <time>2020-06-25T12:38:57Z</time>
      </trkpt>
      <trkpt lat="44.66723" lon="5.96028">
        <ele>1494</ele>
        <time>2020-06-25T12:39:07Z</time>
      </trkpt>
      <trkpt lat="44.66723" lon="5.96015">
        <ele>1493</ele>
        <time>2020-06-25T12:39:17Z</time>
      </trkpt>
      <trkpt lat="44.66727" lon="5.96002">
        <ele>1491</ele>
        <time>2020-06-25T12:39:25Z</time>
      </trkpt>
      <trkpt lat="44.66722" lon="5.9599">
        <ele>1490</ele>
        <time>2020-06-25T12:39:36Z</time>
      </trkpt>
      <trkpt lat="44.66715" lon="5.95983">
        <ele>1488</ele>
        <time>2020-06-25T12:39:45Z</time>
      </trkpt>
      <trkpt lat="44.66705" lon="5.95978">
        <ele>1487</ele>
        <time>2020-06-25T12:39:54Z</time>
      </trkpt>
      <trkpt lat="44.66695" lon="5.95973">
        <ele>1486</ele>
        <time>2020-06-25T12:40:03Z</time>
      </trkpt>
      <trkpt lat="44.66687" lon="5.9597">
        <ele>1484</ele>
        <time>2020-06-25T12:40:12Z</time>
      </trkpt>
      <trkpt lat="44.66678" lon="5.95963">
        <ele>1481</ele>
        <time>2020-06-25T12:40:20Z</time>
      </trkpt>
      <trkpt lat="44.66668" lon="5.95958">
        <ele>1481</ele>
        <time>2020-06-25T12:40:27Z</time>
      </trkpt>
      <trkpt lat="44.6666" lon="5.95958">
        <ele>1480</ele>
        <time>2020-06-25T12:40:35Z</time>
      </trkpt>
      <trkpt lat="44.6665" lon="5.95957">
        <ele>1479</ele>
        <time>2020-06-25T12:40:42Z</time>
      </trkpt>
      <trkpt lat="44.66652" lon="5.95945">
        <ele>1478</ele>
        <time>2020-06-25T12:40:53Z</time>
      </trkpt>
      <trkpt lat="44.6666" lon="5.95937">
        <ele>1477</ele>
        <time>2020-06-25T12:41:02Z</time>
      </trkpt>
      <trkpt lat="44.6667" lon="5.95932">
        <ele>1476</ele>
        <time>2020-06-25T12:41:11Z</time>
      </trkpt>
      <trkpt lat="44.6668" lon="5.95932">
        <ele>1475</ele>
        <time>2020-06-25T12:41:22Z</time>
      </trkpt>
      <trkpt lat="44.66688" lon="5.9593">
        <ele>1474</ele>
        <time>2020-06-25T12:41:32Z</time>
      </trkpt>
      <trkpt lat="44.66698" lon="5.95928">
        <ele>1473</ele>
        <time>2020-06-25T12:41:42Z</time>
      </trkpt>
      <trkpt lat="44.66707" lon="5.95925">
        <ele>1472</ele>
        <time>2020-06-25T12:41:50Z</time>
      </trkpt>
      <trkpt lat="44.66717" lon="5.9592">
        <ele>1471</ele>
        <time>2020-06-25T12:41:56Z</time>
      </trkpt>
      <trkpt lat="44.66725" lon="5.95913">
        <ele>1470</ele>
        <time>2020-06-25T12:42:02Z</time>
      </trkpt>
      <trkpt lat="44.66733" lon="5.9591">
        <ele>1469</ele>
        <time>2020-06-25T12:42:11Z</time>
      </trkpt>
      <trkpt lat="44.66743" lon="5.9591">
        <ele>1469</ele>
        <time>2020-06-25T12:42:17Z</time>
      </trkpt>
      <trkpt lat="44.66752" lon="5.95907">
        <ele>1466</ele>
        <time>2020-06-25T12:42:26Z</time>
      </trkpt>
      <trkpt lat="44.66757" lon="5.95895">
        <ele>1464</ele>
        <time>2020-06-25T12:42:33Z</time>
      </trkpt>
      <trkpt lat="44.66758" lon="5.95882">
        <ele>1463</ele>
        <time>2020-06-25T12:42:40Z</time>
      </trkpt>
      <trkpt lat="44.66763" lon="5.95868">
        <ele>1463</ele>
        <time>2020-06-25T12:42:49Z</time>
      </trkpt>
      <trkpt lat="44.66768" lon="5.95858">
        <ele>1462</ele>
        <time>2020-06-25T12:42:58Z</time>
      </trkpt>
      <trkpt lat="44.66772" lon="5.95847">
        <ele>1461</ele>
        <time>2020-06-25T12:43:06Z</time>
      </trkpt>
      <trkpt lat="44.66773" lon="5.95833">
        <ele>1460</ele>
        <time>2020-06-25T12:43:13Z</time>
      </trkpt>
      <trkpt lat="44.66778" lon="5.9582">
        <ele>1458</ele>
        <time>2020-06-25T12:43:22Z</time>
      </trkpt>
      <trkpt lat="44.66783" lon="5.95808">
        <ele>1458</ele>
        <time>2020-06-25T12:43:29Z</time>
      </trkpt>
      <trkpt lat="44.6679" lon="5.958">
        <ele>1456</ele>
        <time>2020-06-25T12:43:37Z</time>
      </trkpt>
      <trkpt lat="44.66797" lon="5.95792">
        <ele>1455</ele>
        <time>2020-06-25T12:43:45Z</time>
      </trkpt>
      <trkpt lat="44.66807" lon="5.95788">
        <ele>1455</ele>
        <time>2020-06-25T12:43:54Z</time>
      </trkpt>
      <trkpt lat="44.66815" lon="5.95788">
        <ele>1454</ele>
        <time>2020-06-25T12:44:02Z</time>
      </trkpt>
      <trkpt lat="44.66825" lon="5.9579">
        <ele>1451</ele>
        <time>2020-06-25T12:44:09Z</time>
      </trkpt>
      <trkpt lat="44.66835" lon="5.95795">
        <ele>1451</ele>
        <time>2020-06-25T12:44:16Z</time>
      </trkpt>
      <trkpt lat="44.66843" lon="5.95798">
        <ele>1450</ele>
        <time>2020-06-25T12:44:24Z</time>
      </trkpt>
      <trkpt lat="44.66855" lon="5.95802">
        <ele>1448</ele>
        <time>2020-06-25T12:44:32Z</time>
      </trkpt>
      <trkpt lat="44.66863" lon="5.95803">
        <ele>1446</ele>
        <time>2020-06-25T12:44:40Z</time>
      </trkpt>
      <trkpt lat="44.66873" lon="5.95802">
        <ele>1446</ele>
        <time>2020-06-25T12:44:48Z</time>
      </trkpt>
      <trkpt lat="44.66882" lon="5.95797">
        <ele>1445</ele>
        <time>2020-06-25T12:44:55Z</time>
      </trkpt>
      <trkpt lat="44.66888" lon="5.95787">
        <ele>1444</ele>
        <time>2020-06-25T12:45:04Z</time>
      </trkpt>
      <trkpt lat="44.66893" lon="5.95775">
        <ele>1442</ele>
        <time>2020-06-25T12:45:12Z</time>
      </trkpt>
      <trkpt lat="44.669" lon="5.95765">
        <ele>1441</ele>
        <time>2020-06-25T12:45:21Z</time>
      </trkpt>
      <trkpt lat="44.66912" lon="5.95758">
        <ele>1440</ele>
        <time>2020-06-25T12:45:32Z</time>
      </trkpt>
      <trkpt lat="44.6692" lon="5.95755">
        <ele>1439</ele>
        <time>2020-06-25T12:45:41Z</time>
      </trkpt>
      <trkpt lat="44.6693" lon="5.95752">
        <ele>1439</ele>
        <time>2020-06-25T12:45:48Z</time>
      </trkpt>
      <trkpt lat="44.66938" lon="5.95748">
        <ele>1438</ele>
        <time>2020-06-25T12:45:56Z</time>
      </trkpt>
      <trkpt lat="44.66947" lon="5.95742">
        <ele>1436</ele>
        <time>2020-06-25T12:46:05Z</time>
      </trkpt>
      <trkpt lat="44.66955" lon="5.95733">
        <ele>1434</ele>
        <time>2020-06-25T12:46:12Z</time>
      </trkpt>
      <trkpt lat="44.66963" lon="5.95727">
        <ele>1434</ele>
        <time>2020-06-25T12:46:19Z</time>
      </trkpt>
      <trkpt lat="44.66973" lon="5.95723">
        <ele>1432</ele>
        <time>2020-06-25T12:46:26Z</time>
      </trkpt>
      <trkpt lat="44.66982" lon="5.95717">
        <ele>1431</ele>
        <time>2020-06-25T12:46:32Z</time>
      </trkpt>
      <trkpt lat="44.6699" lon="5.95712">
        <ele>1431</ele>
        <time>2020-06-25T12:46:41Z</time>
      </trkpt>
      <trkpt lat="44.66998" lon="5.95707">
        <ele>1431</ele>
        <time>2020-06-25T12:46:48Z</time>
      </trkpt>
      <trkpt lat="44.67005" lon="5.957">
        <ele>1429</ele>
        <time>2020-06-25T12:46:57Z</time>
      </trkpt>
      <trkpt lat="44.67013" lon="5.95692">
        <ele>1427</ele>
        <time>2020-06-25T12:47:06Z</time>
      </trkpt>
      <trkpt lat="44.67023" lon="5.95687">
        <ele>1426</ele>
        <time>2020-06-25T12:47:16Z</time>
      </trkpt>
      <trkpt lat="44.67032" lon="5.95683">
        <ele>1425</ele>
        <time>2020-06-25T12:47:24Z</time>
      </trkpt>
      <trkpt lat="44.67042" lon="5.95685">
        <ele>1424</ele>
        <time>2020-06-25T12:47:32Z</time>
      </trkpt>
      <trkpt lat="44.67053" lon="5.95685">
        <ele>1422</ele>
        <time>2020-06-25T12:47:42Z</time>
      </trkpt>
      <trkpt lat="44.67063" lon="5.95682">
        <ele>1420</ele>
        <time>2020-06-25T12:47:51Z</time>
      </trkpt>
      <trkpt lat="44.67065" lon="5.95668">
        <ele>1418</ele>
        <time>2020-06-25T12:48:04Z</time>
      </trkpt>
      <trkpt lat="44.6706" lon="5.95657">
        <ele>1417</ele>
        <time>2020-06-25T12:48:12Z</time>
      </trkpt>
      <trkpt lat="44.67058" lon="5.95643">
        <ele>1416</ele>
        <time>2020-06-25T12:48:22Z</time>
      </trkpt>
      <trkpt lat="44.67057" lon="5.9563">
        <ele>1415</ele>
        <time>2020-06-25T12:48:32Z</time>
      </trkpt>
      <trkpt lat="44.67053" lon="5.95617">
        <ele>1414</ele>
        <time>2020-06-25T12:48:42Z</time>
      </trkpt>
      <trkpt lat="44.67047" lon="5.95607">
        <ele>1413</ele>
        <time>2020-06-25T12:48:46Z</time>
      </trkpt>
      <trkpt lat="44.6704" lon="5.95595">
        <ele>1412</ele>
        <time>2020-06-25T12:48:50Z</time>
      </trkpt>
      <trkpt lat="44.6703" lon="5.95588">
        <ele>1412</ele>
        <time>2020-06-25T12:48:56Z</time>
      </trkpt>
      <trkpt lat="44.67022" lon="5.95585">
        <ele>1411</ele>
        <time>2020-06-25T12:49:02Z</time>
      </trkpt>
      <trkpt lat="44.67017" lon="5.95575">
        <ele>1411</ele>
        <time>2020-06-25T12:49:06Z</time>
      </trkpt>
      <trkpt lat="44.67015" lon="5.95562">
        <ele>1409</ele>
        <time>2020-06-25T12:49:13Z</time>
      </trkpt>
      <trkpt lat="44.67017" lon="5.95548">
        <ele>1407</ele>
        <time>2020-06-25T12:49:21Z</time>
      </trkpt>
      <trkpt lat="44.67018" lon="5.95537">
        <ele>1407</ele>
        <time>2020-06-25T12:49:29Z</time>
      </trkpt>
      <trkpt lat="44.67023" lon="5.95523">
        <ele>1406</ele>
        <time>2020-06-25T12:49:37Z</time>
      </trkpt>
      <trkpt lat="44.67027" lon="5.95512">
        <ele>1404</ele>
        <time>2020-06-25T12:49:46Z</time>
      </trkpt>
      <trkpt lat="44.67032" lon="5.955">
        <ele>1403</ele>
        <time>2020-06-25T12:49:54Z</time>
      </trkpt>
      <trkpt lat="44.67037" lon="5.95487">
        <ele>1402</ele>
        <time>2020-06-25T12:50:04Z</time>
      </trkpt>
      <trkpt lat="44.67035" lon="5.95473">
        <ele>1401</ele>
        <time>2020-06-25T12:50:16Z</time>
      </trkpt>
      <trkpt lat="44.67028" lon="5.95465">
        <ele>1400</ele>
        <time>2020-06-25T12:50:22Z</time>
      </trkpt>
      <trkpt lat="44.67018" lon="5.95453">
        <ele>1399</ele>
        <time>2020-06-25T12:50:32Z</time>
      </trkpt>
      <trkpt lat="44.67012" lon="5.95445">
        <ele>1397</ele>
        <time>2020-06-25T12:50:42Z</time>
      </trkpt>
      <trkpt lat="44.67003" lon="5.95437">
        <ele>1396</ele>
        <time>2020-06-25T12:50:52Z</time>
      </trkpt>
      <trkpt lat="44.66995" lon="5.9543">
        <ele>1395</ele>
        <time>2020-06-25T12:51:02Z</time>
      </trkpt>
      <trkpt lat="44.6699" lon="5.9542">
        <ele>1395</ele>
        <time>2020-06-25T12:51:07Z</time>
      </trkpt>
      <trkpt lat="44.66982" lon="5.95412">
        <ele>1395</ele>
        <time>2020-06-25T12:51:14Z</time>
      </trkpt>
      <trkpt lat="44.66975" lon="5.95403">
        <ele>1394</ele>
        <time>2020-06-25T12:51:21Z</time>
      </trkpt>
      <trkpt lat="44.66967" lon="5.95395">
        <ele>1393</ele>
        <time>2020-06-25T12:51:29Z</time>
      </trkpt>
      <trkpt lat="44.66958" lon="5.9539">
        <ele>1392</ele>
        <time>2020-06-25T12:51:36Z</time>
      </trkpt>
      <trkpt lat="44.6695" lon="5.95383">
        <ele>1391</ele>
        <time>2020-06-25T12:51:41Z</time>
      </trkpt>
      <trkpt lat="44.6694" lon="5.95387">
        <ele>1390</ele>
        <time>2020-06-25T12:51:51Z</time>
      </trkpt>
      <trkpt lat="44.66928" lon="5.95387">
        <ele>1388</ele>
        <time>2020-06-25T12:51:57Z</time>
      </trkpt>
      <trkpt lat="44.6692" lon="5.95392">
        <ele>1387</ele>
        <time>2020-06-25T12:52:03Z</time>
      </trkpt>
      <trkpt lat="44.66908" lon="5.95393">
        <ele>1386</ele>
        <time>2020-06-25T12:52:12Z</time>
      </trkpt>
      <trkpt lat="44.669" lon="5.95393">
        <ele>1385</ele>
        <time>2020-06-25T12:52:19Z</time>
      </trkpt>
      <trkpt lat="44.6689" lon="5.95395">
        <ele>1384</ele>
        <time>2020-06-25T12:52:26Z</time>
      </trkpt>
      <trkpt lat="44.6688" lon="5.95393">
        <ele>1383</ele>
        <time>2020-06-25T12:52:35Z</time>
      </trkpt>
      <trkpt lat="44.6687" lon="5.95395">
        <ele>1381</ele>
        <time>2020-06-25T12:52:45Z</time>
      </trkpt>
      <trkpt lat="44.66862" lon="5.95385">
        <ele>1379</ele>
        <time>2020-06-25T12:52:55Z</time>
      </trkpt>
      <trkpt lat="44.66858" lon="5.95373">
        <ele>1377</ele>
        <time>2020-06-25T12:53:03Z</time>
      </trkpt>
      <trkpt lat="44.66855" lon="5.95362">
        <ele>1377</ele>
        <time>2020-06-25T12:53:09Z</time>
      </trkpt>
      <trkpt lat="44.66852" lon="5.9535">
        <ele>1376</ele>
        <time>2020-06-25T12:53:16Z</time>
      </trkpt>
      <trkpt lat="44.66848" lon="5.95337">
        <ele>1375</ele>
        <time>2020-06-25T12:53:24Z</time>
      </trkpt>
      <trkpt lat="44.66842" lon="5.95325">
        <ele>1374</ele>
        <time>2020-06-25T12:53:31Z</time>
      </trkpt>
      <trkpt lat="44.66837" lon="5.95315">
        <ele>1374</ele>
        <time>2020-06-25T12:53:39Z</time>
      </trkpt>
      <trkpt lat="44.6683" lon="5.95307">
        <ele>1374</ele>
        <time>2020-06-25T12:53:46Z</time>
      </trkpt>
      <trkpt lat="44.66823" lon="5.95295">
        <ele>1373</ele>
        <time>2020-06-25T12:53:53Z</time>
      </trkpt>
      <trkpt lat="44.66817" lon="5.95283">
        <ele>1372</ele>
        <time>2020-06-25T12:54:00Z</time>
      </trkpt>
      <trkpt lat="44.6681" lon="5.95275">
        <ele>1372</ele>
        <time>2020-06-25T12:54:09Z</time>
      </trkpt>
      <trkpt lat="44.66807" lon="5.95263">
        <ele>1372</ele>
        <time>2020-06-25T12:54:18Z</time>
      </trkpt>
      <trkpt lat="44.66803" lon="5.9525">
        <ele>1372</ele>
        <time>2020-06-25T12:54:27Z</time>
      </trkpt>
      <trkpt lat="44.66803" lon="5.95237">
        <ele>1372</ele>
        <time>2020-06-25T12:54:37Z</time>
      </trkpt>
      <trkpt lat="44.66803" lon="5.95223">
        <ele>1372</ele>
        <time>2020-06-25T12:54:46Z</time>
      </trkpt>
      <trkpt lat="44.66803" lon="5.95212">
        <ele>1372</ele>
        <time>2020-06-25T12:54:57Z</time>
      </trkpt>
      <trkpt lat="44.66805" lon="5.95197">
        <ele>1372</ele>
        <time>2020-06-25T12:55:06Z</time>
      </trkpt>
      <trkpt lat="44.66807" lon="5.95192">
        <ele>1372</ele>
        <time>2020-06-25T12:55:11Z</time>
      </trkpt>
    </trkseg>
  </trk>
</gpx>